Darstellungsparameter: Aktuell verwendete Einstellungen:
Skalierung der Graphiken ... ?
xyx+y,   Skalierungsfaktor:      Skalierung: Modus: x, Faktor: 1
Darstellungszeitraum ... ?
Vom - - bis: - -   Zeitraum: 24.03.2010 - 23.09.2010
Min/Max/Avg-Anzeige ... ?
Zeige MMA aktuell
Zeige MMA Monat
Zeige MMA alles
Zeige --A aktuell
Zeige --A Monat
Zeige --A alles
Keine MMA-Anzeige
MMA:
Average (ber die Originaldaten)
MMA-Basis: 24.03.2010 - 23.09.2010
Quicknavigation für Darstellung... ?
Tage:      1T, 2T, 3T, 5T -1T -2T -3T -5T +1T +2T +3T +5T
Wochen: 1W, 2W, 3W -1W -2W -3W +1W +2W +3W
Monate: 1M, 3M, 6M -1M -3M -6M +1M +3M +6M
Jahre:    1J, 3J, 5J, 10J -1J -3J -5J -10J +1J +3J +5J +10J
Nutze für die Darstellung ... ?
Originaldaten oder Mittelwerte auf ...
Stundenbasis Tagesbasis Wochenbasis
Monatsbasis Jahresbasis      Datenbasis: Original-Daten
Darstellen als:
Statistik (Auto) Statistik J:M      Darstellung:
Zur Graphik,    zurück zur Übersicht aller Sensoren.
 
Tabellarische Datenbersicht: ?
 
Sensor: Nr:Datum:Temp:Abs-Feuchte:Windchill:Wind:
Aussen-T/F 1 24-03-2010 00:06:01 7.9 C 6.24 g/m*3 7.9 C 0 km/h
2 24-03-2010 00:18:01 7.8 C 6.28 g/m*3 7.8 C 0 km/h
3 24-03-2010 00:30:01 7.7 C 6.24 g/m*3 7.7 C 0 km/h
4 24-03-2010 00:42:02 7.6 C 6.2 g/m*3 7.6 C 0 km/h
5 24-03-2010 00:54:01 7.5 C 6.16 g/m*3 7.5 C 0 km/h
6 24-03-2010 01:06:02 7.5 C 6.24 g/m*3 7.5 C 0 km/h
7 24-03-2010 01:18:01 7.5 C 6.24 g/m*3 7.5 C 0 km/h
8 24-03-2010 01:30:01 7.3 C 6.16 g/m*3 7.3 C 0 km/h
9 24-03-2010 01:42:02 7.1 C 6.08 g/m*3 7.1 C 0 km/h
10 24-03-2010 01:54:02 6.9 C 6.08 g/m*3 6.9 C 0 km/h
11 24-03-2010 02:06:02 6.8 C 6.12 g/m*3 6.8 C 0 km/h
12 24-03-2010 02:18:01 6.7 C 6.15 g/m*3 6.7 C 0 km/h
13 24-03-2010 02:30:01 6.6 C 6.11 g/m*3 6.6 C 0 km/h
14 24-03-2010 02:42:02 6.4 C 6.04 g/m*3 6.4 C 0 km/h
15 24-03-2010 02:55:04 6.2 C 5.96 g/m*3 6.2 C 0 km/h
16 24-03-2010 03:07:04 6.2 C 6.03 g/m*3 6.2 C 0 km/h
17 24-03-2010 03:19:04 6.1 C 5.99 g/m*3 6.1 C 0 km/h
18 24-03-2010 03:31:02 5.8 C 5.95 g/m*3 5.8 C 0 km/h
19 24-03-2010 03:43:02 5.6 C 5.87 g/m*3 5.6 C 0 km/h
20 24-03-2010 03:55:02 5.7 C 5.98 g/m*3 5.7 C 0 km/h
21 24-03-2010 04:07:03 5.6 C 5.94 g/m*3 5.6 C 0 km/h
22 24-03-2010 04:19:02 5.3 C 5.82 g/m*3 5.3 C 0 km/h
23 24-03-2010 04:31:02 5.3 C 5.82 g/m*3 5.3 C 0 km/h
24 24-03-2010 04:43:02 5.2 C 5.85 g/m*3 5.2 C 0 km/h
25 24-03-2010 04:55:01 5.1 C 5.81 g/m*3 5.1 C 0 km/h
Sensor: Nr:Datum:Temp:Abs-Feuchte:Windchill:Wind:
Aussen-T/F 26 24-03-2010 05:07:02 4.9 C 5.81 g/m*3 4.9 C 0 km/h
27 24-03-2010 05:19:01 5 C 5.84 g/m*3 5 C 0 km/h
28 24-03-2010 05:31:01 5 C 5.84 g/m*3 5 C 0 km/h
29 24-03-2010 05:43:01 4.7 C 5.8 g/m*3 4.7 C 0 km/h
30 24-03-2010 05:55:01 4.5 C 5.72 g/m*3 4.5 C 0 km/h
31 24-03-2010 06:07:02 4.4 C 5.68 g/m*3 4.4 C 0 km/h
32 24-03-2010 06:19:01 4.4 C 5.68 g/m*3 4.4 C 0 km/h
33 24-03-2010 06:31:01 4.4 C 5.75 g/m*3 4.4 C 0 km/h
34 24-03-2010 06:43:01 4.3 C 5.71 g/m*3 4.3 C 0 km/h
35 24-03-2010 06:55:01 4.3 C 5.71 g/m*3 4.3 C 0 km/h
36 24-03-2010 07:07:01 4.4 C 5.81 g/m*3 4.4 C 0 km/h
37 24-03-2010 07:19:02 4.4 C 5.81 g/m*3 4.4 C 0 km/h
38 24-03-2010 07:31:01 4.6 C 5.89 g/m*3 4.6 C 0 km/h
39 24-03-2010 07:43:01 4.9 C 6.01 g/m*3 4.9 C 0 km/h
40 24-03-2010 07:55:03 5.2 C 6.06 g/m*3 5.2 C 0 km/h
41 24-03-2010 08:07:02 5.3 C 6.1 g/m*3 5.3 C 0 km/h
42 24-03-2010 08:19:02 5.4 C 6.07 g/m*3 5.4 C 0 km/h
43 24-03-2010 08:31:02 5.7 C 6.19 g/m*3 5.7 C 0 km/h
44 24-03-2010 08:43:02 5.7 C 6.12 g/m*3 5.7 C 0 km/h
45 24-03-2010 08:55:02 5.8 C 6.16 g/m*3 5.8 C 0 km/h
46 24-03-2010 09:07:01 6.1 C 6.21 g/m*3 6.1 C 0 km/h
47 24-03-2010 09:19:02 6.7 C 6.46 g/m*3 6.7 C 0 km/h
48 24-03-2010 09:31:01 7.2 C 6.44 g/m*3 7.2 C 0 km/h
49 24-03-2010 09:43:01 7.8 C 6.69 g/m*3 7.8 C 0 km/h
50 24-03-2010 09:55:02 8.4 C 6.53 g/m*3 8.4 C 0 km/h
Sensor: Nr:Datum:Temp:Abs-Feuchte:Windchill:Wind:
Aussen-T/F 51 24-03-2010 10:07:01 9.2 C 6.79 g/m*3 9.2 C 0 km/h
52 24-03-2010 10:19:01 10.2 C 6.95 g/m*3 10.2 C 0 km/h
53 24-03-2010 10:31:02 10.9 C 6.76 g/m*3 10.9 C 0 km/h
54 24-03-2010 10:43:02 11.7 C 6.48 g/m*3 11.7 C 0 km/h
55 24-03-2010 10:55:02 12.7 C 6.46 g/m*3 12.7 C 0 km/h
56 24-03-2010 11:07:01 13.1 C 5.71 g/m*3 13.1 C 0 km/h
57 24-03-2010 11:19:02 13.8 C 5.6 g/m*3 13.8 C 0 km/h
58 24-03-2010 11:31:02 14.4 C 5.44 g/m*3 14.4 C 0 km/h
59 24-03-2010 11:43:02 14.9 C 5.23 g/m*3 14.9 C 0 km/h
60 24-03-2010 11:55:02 15.5 C 5.29 g/m*3 15.5 C 0 km/h
61 24-03-2010 12:07:02 16.1 C 5.21 g/m*3 16.1 C 0 km/h
62 24-03-2010 12:19:02 16.7 C 5.26 g/m*3 16.7 C 0 km/h
63 24-03-2010 12:31:02 17.2 C 5.27 g/m*3 17.2 C 0 km/h
64 24-03-2010 12:43:02 17.6 C 5.1 g/m*3 17.6 C 0 km/h
65 24-03-2010 12:55:02 18.4 C 4.88 g/m*3 18.4 C 0 km/h
66 24-03-2010 13:07:03 18.7 C 4.8 g/m*3 18.7 C 0 km/h
67 24-03-2010 13:19:02 19 C 5.05 g/m*3 19 C 0 km/h
68 24-03-2010 13:31:02 19.5 C 5.2 g/m*3 19.5 C 0 km/h
69 24-03-2010 13:43:02 19.9 C 4.98 g/m*3 19.9 C 0 km/h
70 24-03-2010 13:55:01 20.3 C 4.75 g/m*3 20.3 C 0 km/h
71 24-03-2010 14:07:02 20.8 C 4.71 g/m*3 20.8 C 0 km/h
72 24-03-2010 14:19:01 21.6 C 4.74 g/m*3 21.6 C 0 km/h
73 24-03-2010 14:31:01 21.6 C 4.36 g/m*3 21.6 C 0 km/h
74 24-03-2010 14:43:01 21.5 C 4.34 g/m*3 21.5 C 0 km/h
75 24-03-2010 14:55:01 21.8 C 4.41 g/m*3 21.8 C 0 km/h
Sensor: Nr:Datum:Temp:Abs-Feuchte:Windchill:Wind:
Aussen-T/F 76 24-03-2010 15:07:02 22 C 4.27 g/m*3 22 C 0 km/h
77 24-03-2010 15:19:01 22 C 4.27 g/m*3 22 C 0 km/h
78 24-03-2010 15:31:01 22.3 C 4.34 g/m*3 22.3 C 0 km/h
79 24-03-2010 15:43:01 23 C 4.52 g/m*3 23 C 0 km/h
80 24-03-2010 15:55:01 21.9 C 4.44 g/m*3 21.9 C 0 km/h
81 24-03-2010 16:07:02 21.4 C 4.5 g/m*3 21.4 C 0 km/h
82 24-03-2010 16:19:02 21 C 4.58 g/m*3 21 C 0 km/h
83 24-03-2010 16:31:01 21.1 C 4.79 g/m*3 21.1 C 0 km/h
84 24-03-2010 16:43:01 20.3 C 4.92 g/m*3 20.3 C 0 km/h
85 24-03-2010 16:55:01 20.4 C 5.13 g/m*3 20.4 C 0 km/h
86 24-03-2010 17:07:01 20.4 C 5.31 g/m*3 20.4 C 0 km/h
87 24-03-2010 17:19:02 20 C 5.18 g/m*3 20 C 0 km/h
88 24-03-2010 17:31:01 19.8 C 5.47 g/m*3 19.8 C 0 km/h
89 24-03-2010 17:43:01 19.5 C 5.37 g/m*3 19.5 C 0 km/h
90 24-03-2010 17:55:02 19.1 C 5.08 g/m*3 19.1 C 0 km/h
91 24-03-2010 18:07:01 18.5 C 5.22 g/m*3 18.5 C 0 km/h
92 24-03-2010 18:19:02 17.9 C 5.65 g/m*3 17.9 C 0 km/h
93 24-03-2010 18:31:01 17.4 C 5.48 g/m*3 17.4 C 0 km/h
94 24-03-2010 18:43:01 16.5 C 5.62 g/m*3 16.5 C 0 km/h
95 24-03-2010 18:55:02 15.8 C 5.38 g/m*3 15.8 C 0 km/h
96 24-03-2010 19:07:02 15.4 C 5.52 g/m*3 15.4 C 0 km/h
97 24-03-2010 19:19:02 15 C 5.51 g/m*3 15 C 0 km/h
98 24-03-2010 19:31:03 14.5 C 5.6 g/m*3 14.5 C 0 km/h
99 24-03-2010 19:43:03 14.4 C 5.56 g/m*3 14.4 C 0 km/h
100 24-03-2010 19:55:02 14.2 C 5.49 g/m*3 14.2 C 0 km/h
Sensor: Nr:Datum:Temp:Abs-Feuchte:Windchill:Wind:
Aussen-T/F 101 24-03-2010 20:07:01 14 C 5.67 g/m*3 14 C 0 km/h
102 24-03-2010 20:19:02 14 C 5.55 g/m*3 14 C 0 km/h
103 24-03-2010 20:31:02 13.8 C 5.48 g/m*3 13.8 C 0 km/h
104 24-03-2010 20:43:02 13.8 C 5.6 g/m*3 13.8 C 0 km/h
105 24-03-2010 20:55:02 13.4 C 5.58 g/m*3 13.4 C 0 km/h
106 24-03-2010 21:07:01 13.4 C 5.58 g/m*3 13.4 C 0 km/h
107 24-03-2010 21:19:01 13.2 C 5.51 g/m*3 13.2 C 0 km/h
108 24-03-2010 21:31:02 13.1 C 5.59 g/m*3 13.1 C 0 km/h
109 24-03-2010 21:43:02 12.9 C 5.75 g/m*3 12.9 C 0 km/h
110 24-03-2010 21:55:02 12.8 C 5.71 g/m*3 12.8 C 0 km/h
111 24-03-2010 22:07:02 12.4 C 5.68 g/m*3 12.4 C 0 km/h
112 24-03-2010 22:19:02 12.7 C 5.68 g/m*3 12.7 C 0 km/h
113 24-03-2010 22:31:02 12.6 C 5.64 g/m*3 12.6 C 0 km/h
114 24-03-2010 22:43:02 12.4 C 5.68 g/m*3 12.4 C 0 km/h
115 24-03-2010 22:55:02 12 C 5.86 g/m*3 12 C 0 km/h
116 24-03-2010 23:07:02 11.7 C 6.07 g/m*3 11.7 C 0 km/h
117 24-03-2010 23:19:02 11.4 C 5.95 g/m*3 11.4 C 0 km/h
118 24-03-2010 23:31:02 10.9 C 6.07 g/m*3 10.9 C 0 km/h
119 24-03-2010 23:43:02 10.8 C 6.13 g/m*3 10.8 C 0 km/h
120 24-03-2010 23:55:02 10.6 C 6.15 g/m*3 10.6 C 0 km/h
121 25-03-2010 00:07:02 10.6 C 6.25 g/m*3 10.6 C 0 km/h
122 25-03-2010 00:19:02 10.5 C 6.21 g/m*3 10.5 C 0 km/h
123 25-03-2010 00:31:02 10.4 C 6.07 g/m*3 10.4 C 0 km/h
124 25-03-2010 00:43:02 10.1 C 6.05 g/m*3 10.1 C 0 km/h
125 25-03-2010 00:55:01 9.7 C 6.08 g/m*3 9.7 C 0 km/h
Sensor: Nr:Datum:Temp:Abs-Feuchte:Windchill:Wind:
Aussen-T/F 126 25-03-2010 01:07:02 9.4 C 6.06 g/m*3 9.4 C 0 km/h
127 25-03-2010 01:19:01 9.3 C 6.11 g/m*3 9.3 C 0 km/h
128 25-03-2010 01:31:01 9.2 C 6.16 g/m*3 9.2 C 0 km/h
129 25-03-2010 01:43:01 9 C 6.08 g/m*3 9 C 0 km/h
130 25-03-2010 01:55:01 8.9 C 6.13 g/m*3 8.9 C 0 km/h
131 25-03-2010 02:07:02 8.9 C 6.22 g/m*3 8.9 C 0 km/h
132 25-03-2010 02:19:02 8.8 C 6.18 g/m*3 8.8 C 0 km/h
133 25-03-2010 02:31:01 8.6 C 6.19 g/m*3 8.6 C 0 km/h
134 25-03-2010 02:43:01 8.7 C 6.23 g/m*3 8.7 C 0 km/h
135 25-03-2010 02:55:01 8.6 C 6.27 g/m*3 8.6 C 0 km/h
136 25-03-2010 03:07:01 8.7 C 6.31 g/m*3 8.7 C 0 km/h
137 25-03-2010 03:19:01 8.6 C 6.27 g/m*3 8.6 C 0 km/h
138 25-03-2010 03:31:01 8.4 C 6.28 g/m*3 8.4 C 0 km/h
139 25-03-2010 03:43:01 8.1 C 6.16 g/m*3 8.1 C 0 km/h
140 25-03-2010 03:55:01 7.9 C 6.24 g/m*3 7.9 C 0 km/h
141 25-03-2010 04:07:02 7.7 C 6.24 g/m*3 7.7 C 0 km/h
142 25-03-2010 04:19:01 7.6 C 6.28 g/m*3 7.6 C 0 km/h
143 25-03-2010 04:31:01 7.7 C 6.32 g/m*3 7.7 C 0 km/h
144 25-03-2010 04:43:01 7.9 C 6.49 g/m*3 7.9 C 0 km/h
145 25-03-2010 04:55:01 7.8 C 6.45 g/m*3 7.8 C 0 km/h
146 25-03-2010 05:07:01 7.6 C 6.44 g/m*3 7.6 C 0 km/h
147 25-03-2010 05:19:01 7.5 C 6.4 g/m*3 7.5 C 0 km/h
148 25-03-2010 05:31:01 7.3 C 6.4 g/m*3 7.3 C 0 km/h
149 25-03-2010 05:43:01 7.2 C 6.36 g/m*3 7.2 C 0 km/h
150 25-03-2010 05:55:01 7.2 C 6.36 g/m*3 7.2 C 0 km/h
Sensor: Nr:Datum:Temp:Abs-Feuchte:Windchill:Wind:
Aussen-T/F 151 25-03-2010 06:07:01 7.3 C 6.48 g/m*3 7.3 C 0 km/h
152 25-03-2010 06:19:02 7.4 C 6.44 g/m*3 7.4 C 0 km/h
153 25-03-2010 06:31:01 7.4 C 6.44 g/m*3 7.4 C 0 km/h
154 25-03-2010 06:43:01 7.5 C 6.48 g/m*3 7.5 C 0 km/h
155 25-03-2010 06:55:01 7.6 C 6.53 g/m*3 7.6 C 0 km/h
156 25-03-2010 07:07:01 7.8 C 6.53 g/m*3 7.8 C 0 km/h
157 25-03-2010 07:19:02 7.9 C 6.57 g/m*3 7.9 C 0 km/h
158 25-03-2010 07:31:01 7.6 C 6.61 g/m*3 7.6 C 0 km/h
159 25-03-2010 07:43:01 7.9 C 6.9 g/m*3 7.9 C 0 km/h
160 25-03-2010 07:55:02 8.2 C 6.95 g/m*3 8.2 C 0 km/h
161 25-03-2010 08:07:01 8.2 C 6.87 g/m*3 8.2 C 0 km/h
162 25-03-2010 08:19:02 8.1 C 6.82 g/m*3 8.1 C 0 km/h
163 25-03-2010 08:31:01 8.2 C 6.95 g/m*3 8.2 C 0 km/h
164 25-03-2010 08:43:01 8.4 C 7.04 g/m*3 8.4 C 0 km/h
165 25-03-2010 08:55:02 8.8 C 7.22 g/m*3 8.8 C 0 km/h
166 25-03-2010 09:07:01 9.5 C 7.46 g/m*3 9.5 C 0 km/h
167 25-03-2010 09:19:01 10.4 C 7.61 g/m*3 10.4 C 0 km/h
168 25-03-2010 09:31:02 11 C 7.31 g/m*3 11 C 0 km/h
169 25-03-2010 09:43:02 11.5 C 7.33 g/m*3 11.5 C 0 km/h
170 25-03-2010 09:55:02 11.9 C 7.31 g/m*3 11.9 C 0 km/h
171 25-03-2010 10:07:01 12.4 C 7.21 g/m*3 12.4 C 0 km/h
172 25-03-2010 10:19:01 12.6 C 7.08 g/m*3 12.6 C 0 km/h
173 25-03-2010 10:31:02 13.1 C 7.3 g/m*3 13.1 C 0 km/h
174 25-03-2010 10:43:02 14.1 C 7.4 g/m*3 14.1 C 0 km/h
175 25-03-2010 10:55:01 14.7 C 7.05 g/m*3 14.7 C 0 km/h
Sensor: Nr:Datum:Temp:Abs-Feuchte:Windchill:Wind:
Aussen-T/F 176 25-03-2010 11:07:02 15.7 C 6.69 g/m*3 15.7 C 0 km/h
177 25-03-2010 11:19:01 16.8 C 6.43 g/m*3 16.8 C 0 km/h
178 25-03-2010 11:31:02 17.9 C 5.95 g/m*3 17.9 C 0 km/h
179 25-03-2010 11:43:02 18.5 C 5.85 g/m*3 18.5 C 0 km/h
180 25-03-2010 11:55:01 18.8 C 5.64 g/m*3 18.8 C 0 km/h
181 25-03-2010 12:07:02 19.5 C 5.2 g/m*3 19.5 C 0 km/h
182 25-03-2010 12:19:01 19.3 C 4.64 g/m*3 19.3 C 0 km/h
183 25-03-2010 12:31:01 20.2 C 4.55 g/m*3 20.2 C 0 km/h
184 25-03-2010 12:43:01 21 C 4.4 g/m*3 21 C 0 km/h
185 25-03-2010 12:55:01 21.6 C 4.55 g/m*3 21.6 C 0 km/h
186 25-03-2010 13:07:02 22 C 4.27 g/m*3 22 C 0 km/h
187 25-03-2010 13:19:01 22.2 C 3.93 g/m*3 22.2 C 0 km/h
188 25-03-2010 13:31:01 22.8 C 4.06 g/m*3 22.8 C 0 km/h
189 25-03-2010 13:43:01 22.7 C 4.04 g/m*3 22.7 C 0 km/h
190 25-03-2010 13:55:01 23.2 C 4.16 g/m*3 23.2 C 0 km/h
191 25-03-2010 14:07:01 22.8 C 4.06 g/m*3 22.8 C 0 km/h
192 25-03-2010 14:19:02 22.9 C 4.09 g/m*3 22.9 C 0 km/h
193 25-03-2010 14:31:01 23.3 C 4.18 g/m*3 23.3 C 0 km/h
194 25-03-2010 14:43:01 23.8 C 4.3 g/m*3 23.8 C 0 km/h
195 25-03-2010 14:55:01 23.7 C 4.28 g/m*3 23.7 C 0 km/h
196 25-03-2010 15:07:01 23.2 C 4.16 g/m*3 23.2 C 0 km/h
197 25-03-2010 15:19:02 22.8 C 4.06 g/m*3 22.8 C 0 km/h
198 25-03-2010 15:31:01 23.4 C 4.21 g/m*3 23.4 C 0 km/h
199 25-03-2010 15:43:01 23.6 C 4.25 g/m*3 23.6 C 0 km/h
200 25-03-2010 15:55:02 23.7 C 4.28 g/m*3 23.7 C 0 km/h
Sensor: Nr:Datum:Temp:Abs-Feuchte:Windchill:Wind:
Aussen-T/F 201 25-03-2010 16:07:01 23.6 C 4.25 g/m*3 23.6 C 0 km/h
202 25-03-2010 16:19:02 24.1 C 4.38 g/m*3 24.1 C 0 km/h
203 25-03-2010 16:31:01 23.6 C 4.25 g/m*3 23.6 C 0 km/h
204 25-03-2010 16:43:01 22.8 C 4.06 g/m*3 22.8 C 0 km/h
205 25-03-2010 16:55:02 21.9 C 4.44 g/m*3 21.9 C 0 km/h
206 25-03-2010 17:07:01 21.5 C 4.71 g/m*3 21.5 C 0 km/h
207 25-03-2010 17:19:01 20.9 C 4.55 g/m*3 20.9 C 0 km/h
208 25-03-2010 17:31:01 20.7 C 4.68 g/m*3 20.7 C 0 km/h
209 25-03-2010 17:43:01 20 C 5.01 g/m*3 20 C 0 km/h
210 25-03-2010 17:55:01 19.5 C 5.37 g/m*3 19.5 C 0 km/h
211 25-03-2010 18:07:02 19.6 C 5.23 g/m*3 19.6 C 0 km/h
212 25-03-2010 18:19:02 19.5 C 5.87 g/m*3 19.5 C 0 km/h
213 25-03-2010 18:31:01 19.3 C 5.31 g/m*3 19.3 C 0 km/h
214 25-03-2010 18:43:01 18.7 C 5.6 g/m*3 18.7 C 0 km/h
215 25-03-2010 18:55:02 18.5 C 5.85 g/m*3 18.5 C 0 km/h
216 25-03-2010 19:07:01 18.3 C 5.79 g/m*3 18.3 C 0 km/h
217 25-03-2010 19:19:02 17.8 C 5.62 g/m*3 17.8 C 0 km/h
218 25-03-2010 19:31:01 17.2 C 5.86 g/m*3 17.2 C 0 km/h
219 25-03-2010 19:43:01 16.8 C 5.86 g/m*3 16.8 C 0 km/h
220 25-03-2010 19:55:02 16.4 C 5.72 g/m*3 16.4 C 0 km/h
221 25-03-2010 20:07:01 16.1 C 5.76 g/m*3 16.1 C 0 km/h
222 25-03-2010 20:19:01 15.8 C 5.79 g/m*3 15.8 C 0 km/h
223 25-03-2010 20:31:02 15.4 C 5.91 g/m*3 15.4 C 0 km/h
224 25-03-2010 20:43:02 15.2 C 5.97 g/m*3 15.2 C 0 km/h
225 25-03-2010 20:55:02 15 C 5.9 g/m*3 15 C 0 km/h
Sensor: Nr:Datum:Temp:Abs-Feuchte:Windchill:Wind:
Aussen-T/F 226 25-03-2010 21:07:01 14.9 C 5.99 g/m*3 14.9 C 0 km/h
227 25-03-2010 21:19:01 14.7 C 6.04 g/m*3 14.7 C 0 km/h
228 25-03-2010 21:31:02 14.5 C 6.09 g/m*3 14.5 C 0 km/h
229 25-03-2010 21:43:02 14.1 C 6.07 g/m*3 14.1 C 0 km/h
230 25-03-2010 21:55:01 13.8 C 6.2 g/m*3 13.8 C 0 km/h
231 25-03-2010 22:07:02 13.6 C 6.24 g/m*3 13.6 C 0 km/h
232 25-03-2010 22:19:01 13.4 C 6.28 g/m*3 13.4 C 0 km/h
233 25-03-2010 22:31:01 13.1 C 6.39 g/m*3 13.1 C 0 km/h
234 25-03-2010 22:43:01 13 C 6.35 g/m*3 13 C 0 km/h
235 25-03-2010 22:55:01 13 C 6.24 g/m*3 13 C 0 km/h
236 25-03-2010 23:07:02 13 C 6.46 g/m*3 13 C 0 km/h
237 25-03-2010 23:19:01 12.6 C 6.31 g/m*3 12.6 C 0 km/h
238 25-03-2010 23:31:02 12.7 C 6.57 g/m*3 12.7 C 0 km/h
239 25-03-2010 23:43:02 12.6 C 6.53 g/m*3 12.6 C 0 km/h
240 25-03-2010 23:55:01 12.5 C 6.6 g/m*3 12.5 C 0 km/h
241 26-03-2010 00:07:02 12.5 C 6.71 g/m*3 12.5 C 0 km/h
242 26-03-2010 00:19:02 12.4 C 6.66 g/m*3 12.4 C 0 km/h
243 26-03-2010 00:31:01 12.4 C 6.66 g/m*3 12.4 C 0 km/h
244 26-03-2010 00:43:01 12.2 C 6.58 g/m*3 12.2 C 0 km/h
245 26-03-2010 00:55:02 12.1 C 6.65 g/m*3 12.1 C 0 km/h
246 26-03-2010 01:07:01 12.3 C 6.62 g/m*3 12.3 C 0 km/h
247 26-03-2010 01:19:02 12.2 C 6.58 g/m*3 12.2 C 0 km/h
248 26-03-2010 01:31:01 12.5 C 6.6 g/m*3 12.5 C 0 km/h
249 26-03-2010 01:43:01 13 C 6.58 g/m*3 13 C 0 km/h
250 26-03-2010 01:55:02 13.8 C 6.55 g/m*3 13.8 C 0 km/h
Sensor: Nr:Datum:Temp:Abs-Feuchte:Windchill:Wind:
Aussen-T/F 251 26-03-2010 02:07:01 13.4 C 6.28 g/m*3 13.4 C 0 km/h
252 26-03-2010 02:19:01 12.7 C 6.46 g/m*3 12.7 C 0 km/h
253 26-03-2010 02:31:02 12.4 C 6.66 g/m*3 12.4 C 0 km/h
254 26-03-2010 02:43:02 12.1 C 6.76 g/m*3 12.1 C 0 km/h
255 26-03-2010 02:56:05 12 C 6.82 g/m*3 12 C 0 km/h
256 26-03-2010 03:08:06 11.6 C 6.76 g/m*3 11.6 C 0 km/h
257 26-03-2010 03:20:05 11.6 C 6.86 g/m*3 11.6 C 0 km/h
258 26-03-2010 03:32:03 11.8 C 6.95 g/m*3 11.8 C 0 km/h
259 26-03-2010 03:44:03 12 C 6.82 g/m*3 12 C 0 km/h
260 26-03-2010 03:56:03 12.1 C 6.86 g/m*3 12.1 C 0 km/h
261 26-03-2010 04:08:02 11.7 C 6.9 g/m*3 11.7 C 0 km/h
262 26-03-2010 04:20:02 11.2 C 6.79 g/m*3 11.2 C 0 km/h
263 26-03-2010 04:32:02 11.2 C 6.99 g/m*3 11.2 C 0 km/h
264 26-03-2010 04:44:02 11.1 C 6.95 g/m*3 11.1 C 0 km/h
265 26-03-2010 04:56:02 11.2 C 6.89 g/m*3 11.2 C 0 km/h
266 26-03-2010 05:08:02 11 C 6.81 g/m*3 11 C 0 km/h
267 26-03-2010 05:20:02 10.9 C 6.86 g/m*3 10.9 C 0 km/h
268 26-03-2010 05:32:01 10.7 C 6.88 g/m*3 10.7 C 0 km/h
269 26-03-2010 05:44:01 10.9 C 6.96 g/m*3 10.9 C 0 km/h
270 26-03-2010 05:56:02 11 C 7.01 g/m*3 11 C 0 km/h
271 26-03-2010 06:08:01 10.8 C 6.92 g/m*3 10.8 C 0 km/h
272 26-03-2010 06:20:02 10.5 C 6.98 g/m*3 10.5 C 0 km/h
273 26-03-2010 06:32:02 10.2 C 6.85 g/m*3 10.2 C 0 km/h
274 26-03-2010 06:44:02 10.2 C 6.95 g/m*3 10.2 C 0 km/h
275 26-03-2010 06:56:02 10.2 C 6.95 g/m*3 10.2 C 0 km/h
Sensor: Nr:Datum:Temp:Abs-Feuchte:Windchill:Wind:
Aussen-T/F 276 26-03-2010 07:08:02 10.3 C 6.99 g/m*3 10.3 C 0 km/h
277 26-03-2010 07:20:02 10.6 C 7.22 g/m*3 10.6 C 0 km/h
278 26-03-2010 07:32:02 10.7 C 7.17 g/m*3 10.7 C 0 km/h
279 26-03-2010 07:44:02 10.8 C 7.22 g/m*3 10.8 C 0 km/h
280 26-03-2010 07:56:02 11 C 7.11 g/m*3 11 C 0 km/h
281 26-03-2010 08:08:02 11.5 C 7.23 g/m*3 11.5 C 0 km/h
282 26-03-2010 08:20:01 11.5 C 7.13 g/m*3 11.5 C 0 km/h
283 26-03-2010 08:32:02 11.7 C 7.22 g/m*3 11.7 C 0 km/h
284 26-03-2010 08:44:02 12.3 C 7.28 g/m*3 12.3 C 0 km/h
285 26-03-2010 08:56:02 12.2 C 7.12 g/m*3 12.2 C 0 km/h
286 26-03-2010 09:08:02 12.4 C 7.21 g/m*3 12.4 C 0 km/h
287 26-03-2010 09:20:02 12.8 C 7.28 g/m*3 12.8 C 0 km/h
288 26-03-2010 09:32:02 13.2 C 7.23 g/m*3 13.2 C 0 km/h
289 26-03-2010 09:44:02 13.7 C 7.22 g/m*3 13.7 C 0 km/h
290 26-03-2010 09:56:02 13.8 C 7.03 g/m*3 13.8 C 0 km/h
291 26-03-2010 10:08:02 13.8 C 7.15 g/m*3 13.8 C 0 km/h
292 26-03-2010 10:20:02 13.8 C 7.03 g/m*3 13.8 C 0 km/h
293 26-03-2010 10:32:02 13.8 C 7.15 g/m*3 13.8 C 0 km/h
294 26-03-2010 10:44:02 13.6 C 6.83 g/m*3 13.6 C 0 km/h
295 26-03-2010 10:56:02 13.3 C 6.82 g/m*3 13.3 C 0 km/h
296 26-03-2010 11:08:02 12.5 C 6.6 g/m*3 12.5 C 0 km/h
297 26-03-2010 11:20:02 12.2 C 6.58 g/m*3 12.2 C 0 km/h
298 26-03-2010 11:32:02 11 C 7.01 g/m*3 11 C 0 km/h
299 26-03-2010 11:44:02 9.9 C 7.28 g/m*3 9.9 C 0 km/h
300 26-03-2010 11:56:01 9 C 6.96 g/m*3 9 C 0 km/h
Sensor: Nr:Datum:Temp:Abs-Feuchte:Windchill:Wind:
Aussen-T/F 301 26-03-2010 12:08:01 8.5 C 7.17 g/m*3 8.5 C 0 km/h
302 26-03-2010 12:20:01 8.2 C 7.2 g/m*3 8.2 C 0 km/h
303 26-03-2010 12:32:01 7.9 C 7.23 g/m*3 7.9 C 0 km/h
304 26-03-2010 12:44:01 7.5 C 6.96 g/m*3 7.5 C 0 km/h
305 26-03-2010 12:56:01 7.4 C 7 g/m*3 7.4 C 0 km/h
306 26-03-2010 13:08:01 7.5 C 7.12 g/m*3 7.5 C 0 km/h
307 26-03-2010 13:20:02 7.4 C 7.08 g/m*3 7.4 C 0 km/h
308 26-03-2010 13:32:01 7.5 C 7.2 g/m*3 7.5 C 0 km/h
309 26-03-2010 13:44:01 7.8 C 7.43 g/m*3 7.8 C 0 km/h
310 26-03-2010 13:56:02 7.7 C 7.38 g/m*3 7.7 C 0 km/h
311 26-03-2010 14:08:02 7.5 C 7.28 g/m*3 7.5 C 0 km/h
312 26-03-2010 14:20:02 7.4 C 7.16 g/m*3 7.4 C 0 km/h
313 26-03-2010 14:32:02 7.5 C 7.2 g/m*3 7.5 C 0 km/h
314 26-03-2010 14:44:02 8.1 C 7.49 g/m*3 8.1 C 0 km/h
315 26-03-2010 14:56:02 8.2 C 7.54 g/m*3 8.2 C 0 km/h
316 26-03-2010 15:08:01 8.1 C 7.41 g/m*3 8.1 C 0 km/h
317 26-03-2010 15:20:01 8.2 C 7.45 g/m*3 8.2 C 0 km/h
318 26-03-2010 15:32:01 8.1 C 7.32 g/m*3 8.1 C 0 km/h
319 26-03-2010 15:44:01 8.3 C 7.42 g/m*3 8.3 C 0 km/h
320 26-03-2010 15:56:02 8.6 C 7.65 g/m*3 8.6 C 0 km/h
321 26-03-2010 16:08:02 8.7 C 7.7 g/m*3 8.7 C 0 km/h
322 26-03-2010 16:20:01 8.5 C 7.51 g/m*3 8.5 C 0 km/h
323 26-03-2010 16:32:01 8.6 C 7.56 g/m*3 8.6 C 0 km/h
324 26-03-2010 16:44:01 8.5 C 7.51 g/m*3 8.5 C 0 km/h
325 26-03-2010 16:56:01 8.4 C 7.38 g/m*3 8.4 C 0 km/h
Sensor: Nr:Datum:Temp:Abs-Feuchte:Windchill:Wind:
Aussen-T/F 326 26-03-2010 17:08:02 8.6 C 7.3 g/m*3 8.6 C 0 km/h
327 26-03-2010 17:20:02 8.6 C 7.22 g/m*3 8.6 C 0 km/h
328 26-03-2010 17:32:02 8.6 C 7.22 g/m*3 8.6 C 0 km/h
329 26-03-2010 17:44:02 8.6 C 7.22 g/m*3 8.6 C 0 km/h
330 26-03-2010 17:56:01 8.6 C 7.22 g/m*3 8.6 C 0 km/h
331 26-03-2010 18:08:02 8.5 C 7.17 g/m*3 8.5 C 0 km/h
332 26-03-2010 18:20:02 8.8 C 7.22 g/m*3 8.8 C 0 km/h
333 26-03-2010 18:32:01 8.7 C 7.01 g/m*3 8.7 C 0 km/h
334 26-03-2010 18:44:01 8.6 C 6.87 g/m*3 8.6 C 0 km/h
335 26-03-2010 18:56:02 8.6 C 6.96 g/m*3 8.6 C 0 km/h
336 26-03-2010 19:08:01 8.4 C 6.96 g/m*3 8.4 C 0 km/h
337 26-03-2010 19:20:02 8.4 C 7.04 g/m*3 8.4 C 0 km/h
338 26-03-2010 19:32:01 8.5 C 7.09 g/m*3 8.5 C 0 km/h
339 26-03-2010 19:44:01 8.4 C 7.04 g/m*3 8.4 C 0 km/h
340 26-03-2010 19:56:01 8.4 C 7.13 g/m*3 8.4 C 0 km/h
341 26-03-2010 20:08:01 8.5 C 7.09 g/m*3 8.5 C 0 km/h
342 26-03-2010 20:20:01 8.7 C 7.09 g/m*3 8.7 C 0 km/h
343 26-03-2010 20:32:02 8.7 C 6.92 g/m*3 8.7 C 0 km/h
344 26-03-2010 20:44:02 8.6 C 6.7 g/m*3 8.6 C 0 km/h
345 26-03-2010 20:56:02 8.4 C 6.53 g/m*3 8.4 C 0 km/h
346 26-03-2010 21:08:02 8.3 C 6.41 g/m*3 8.3 C 0 km/h
347 26-03-2010 21:20:01 8.5 C 6.15 g/m*3 8.5 C 0 km/h
348 26-03-2010 21:33:02 8.5 C 6.15 g/m*3 8.5 C 0 km/h
349 26-03-2010 21:45:03 8.3 C 6.15 g/m*3 8.3 C 0 km/h
350 26-03-2010 21:57:03 8.4 C 6.19 g/m*3 8.4 C 0 km/h
Sensor: Nr:Datum:Temp:Abs-Feuchte:Windchill:Wind:
Aussen-T/F 351 26-03-2010 22:09:03 8.3 C 6.32 g/m*3 8.3 C 0 km/h
352 26-03-2010 22:21:03 8.3 C 6.32 g/m*3 8.3 C 0 km/h
353 26-03-2010 22:33:03 8.2 C 6.36 g/m*3 8.2 C 0 km/h
354 26-03-2010 22:45:03 8.1 C 6.41 g/m*3 8.1 C 0 km/h
355 26-03-2010 22:57:03 7.8 C 6.37 g/m*3 7.8 C 0 km/h
356 26-03-2010 23:09:03 7.7 C 6.49 g/m*3 7.7 C 0 km/h
357 26-03-2010 23:21:03 7.8 C 6.53 g/m*3 7.8 C 0 km/h
358 26-03-2010 23:33:03 7.8 C 6.45 g/m*3 7.8 C 0 km/h
359 26-03-2010 23:45:03 7.6 C 6.44 g/m*3 7.6 C 0 km/h
360 26-03-2010 23:57:03 7.7 C 6.49 g/m*3 7.7 C 0 km/h
361 27-03-2010 00:09:03 7.7 C 6.41 g/m*3 7.7 C 0 km/h
362 27-03-2010 00:21:03 7.9 C 6.49 g/m*3 7.9 C 0 km/h
363 27-03-2010 00:33:03 7.9 C 6.49 g/m*3 7.9 C 0 km/h
364 27-03-2010 00:45:03 8 C 6.45 g/m*3 8 C 0 km/h
365 27-03-2010 00:57:03 8.2 C 6.45 g/m*3 8.2 C 0 km/h
366 27-03-2010 01:09:03 8.4 C 6.45 g/m*3 8.4 C 0 km/h
367 27-03-2010 01:21:03 8.4 C 6.36 g/m*3 8.4 C 0 km/h
368 27-03-2010 01:33:03 8.5 C 6.4 g/m*3 8.5 C 0 km/h
369 27-03-2010 01:45:03 8.5 C 6.23 g/m*3 8.5 C 0 km/h
370 27-03-2010 01:57:03 8.5 C 6.23 g/m*3 8.5 C 0 km/h
371 27-03-2010 02:09:03 8.5 C 6.06 g/m*3 8.5 C 0 km/h
372 27-03-2010 02:21:04 8.2 C 6.11 g/m*3 8.2 C 0 km/h
373 27-03-2010 02:33:04 8.1 C 5.99 g/m*3 8.1 C 0 km/h
374 27-03-2010 02:45:04 8 C 6.04 g/m*3 8 C 0 km/h
375 27-03-2010 02:57:04 8.3 C 6.15 g/m*3 8.3 C 0 km/h
Sensor: Nr:Datum:Temp:Abs-Feuchte:Windchill:Wind:
Aussen-T/F 376 27-03-2010 03:09:04 8.4 C 6.19 g/m*3 8.4 C 0 km/h
377 27-03-2010 03:21:04 8.1 C 6.07 g/m*3 8.1 C 0 km/h
378 27-03-2010 03:33:04 7.9 C 6.16 g/m*3 7.9 C 0 km/h
379 27-03-2010 03:45:04 8 C 6.2 g/m*3 8 C 0 km/h
380 27-03-2010 03:57:04 8.1 C 6.07 g/m*3 8.1 C 0 km/h
381 27-03-2010 04:09:04 8.1 C 6.07 g/m*3 8.1 C 0 km/h
382 27-03-2010 04:21:04 8.2 C 6.03 g/m*3 8.2 C 0 km/h
383 27-03-2010 04:33:04 8.2 C 6.03 g/m*3 8.2 C 0 km/h
384 27-03-2010 04:45:04 8.2 C 5.95 g/m*3 8.2 C 0 km/h
385 27-03-2010 04:57:04 8.2 C 5.95 g/m*3 8.2 C 0 km/h
386 27-03-2010 05:09:05 8.1 C 5.91 g/m*3 8.1 C 0 km/h
387 27-03-2010 05:21:05 8.1 C 5.99 g/m*3 8.1 C 0 km/h
388 27-03-2010 05:33:05 8.1 C 5.99 g/m*3 8.1 C 0 km/h
389 27-03-2010 05:45:05 8 C 5.95 g/m*3 8 C 0 km/h
390 27-03-2010 05:57:05 8 C 5.87 g/m*3 8 C 0 km/h
391 27-03-2010 06:09:05 8 C 5.79 g/m*3 8 C 0 km/h
392 27-03-2010 06:21:05 8 C 5.7 g/m*3 8 C 0 km/h
393 27-03-2010 06:33:02 8.1 C 5.74 g/m*3 8.1 C 0 km/h
394 27-03-2010 06:45:02 8.1 C 5.74 g/m*3 8.1 C 0 km/h
395 27-03-2010 06:57:02 8.2 C 5.69 g/m*3 8.2 C 0 km/h
396 27-03-2010 07:09:01 8.3 C 5.65 g/m*3 8.3 C 0 km/h
397 27-03-2010 07:21:02 8.4 C 5.68 g/m*3 8.4 C 0 km/h
398 27-03-2010 07:33:02 8.5 C 5.72 g/m*3 8.5 C 0 km/h
399 27-03-2010 07:45:02 8.5 C 5.64 g/m*3 8.5 C 0 km/h
400 27-03-2010 07:57:02 8.5 C 5.72 g/m*3 8.5 C 0 km/h
Sensor: Nr:Datum:Temp:Abs-Feuchte:Windchill:Wind:
Aussen-T/F 401 27-03-2010 08:09:02 8.5 C 5.72 g/m*3 8.5 C 0 km/h
402 27-03-2010 08:21:02 8.7 C 5.79 g/m*3 8.7 C 0 km/h
403 27-03-2010 08:33:02 8.9 C 5.69 g/m*3 8.9 C 0 km/h
404 27-03-2010 08:45:01 9.3 C 5.75 g/m*3 9.3 C 0 km/h
405 27-03-2010 08:57:01 9.6 C 5.68 g/m*3 9.6 C 0 km/h
406 27-03-2010 09:09:02 10 C 5.54 g/m*3 10 C 0 km/h
407 27-03-2010 09:21:01 9.8 C 5.57 g/m*3 9.8 C 0 km/h
408 27-03-2010 09:33:02 9.5 C 5.55 g/m*3 9.5 C 0 km/h
409 27-03-2010 09:45:02 9.7 C 5.62 g/m*3 9.7 C 0 km/h
410 27-03-2010 09:57:02 9.7 C 5.72 g/m*3 9.7 C 0 km/h
411 27-03-2010 10:09:02 9.7 C 5.62 g/m*3 9.7 C 0 km/h
412 27-03-2010 10:21:02 9.8 C 5.66 g/m*3 9.8 C 0 km/h
413 27-03-2010 10:33:02 10.1 C 5.2 g/m*3 10.1 C 0 km/h
414 27-03-2010 10:45:01 10.6 C 5.17 g/m*3 10.6 C 0 km/h
415 27-03-2010 10:57:01 11.1 C 5.14 g/m*3 11.1 C 0 km/h
416 27-03-2010 11:09:02 11.5 C 4.96 g/m*3 11.5 C 0 km/h
417 27-03-2010 11:21:01 11.3 C 4.79 g/m*3 11.3 C 0 km/h
418 27-03-2010 11:33:02 11.3 C 5 g/m*3 11.3 C 0 km/h
419 27-03-2010 11:45:02 11.7 C 4.92 g/m*3 11.7 C 0 km/h
420 27-03-2010 11:57:02 11.8 C 4.95 g/m*3 11.8 C 0 km/h
421 27-03-2010 12:09:02 11.9 C 4.87 g/m*3 11.9 C 0 km/h
422 27-03-2010 12:21:01 11.8 C 4.74 g/m*3 11.8 C 0 km/h
423 27-03-2010 12:33:02 11.9 C 4.98 g/m*3 11.9 C 0 km/h
424 27-03-2010 12:45:03 11.6 C 5.3 g/m*3 11.6 C 0 km/h
425 27-03-2010 12:57:03 10.8 C 5.73 g/m*3 10.8 C 0 km/h
Sensor: Nr:Datum:Temp:Abs-Feuchte:Windchill:Wind:
Aussen-T/F 426 27-03-2010 13:09:02 10.7 C 5.89 g/m*3 10.7 C 0 km/h
427 27-03-2010 13:21:02 11.4 C 5.85 g/m*3 11.4 C 0 km/h
428 27-03-2010 13:33:02 11.3 C 5.61 g/m*3 11.3 C 0 km/h
429 27-03-2010 13:45:02 11.4 C 5.34 g/m*3 11.4 C 0 km/h
430 27-03-2010 13:57:02 12 C 5.12 g/m*3 12 C 0 km/h
431 27-03-2010 14:09:02 11.8 C 5.16 g/m*3 11.8 C 0 km/h
432 27-03-2010 14:21:02 11.2 C 4.97 g/m*3 11.2 C 0 km/h
433 27-03-2010 14:33:01 11.1 C 5.04 g/m*3 11.1 C 0 km/h
434 27-03-2010 14:45:02 10.9 C 5.07 g/m*3 10.9 C 0 km/h
435 27-03-2010 14:57:03 11 C 5 g/m*3 11 C 0 km/h
436 27-03-2010 15:09:01 11.2 C 4.97 g/m*3 11.2 C 0 km/h
437 27-03-2010 15:21:01 11.2 C 4.87 g/m*3 11.2 C 0 km/h
438 27-03-2010 15:33:02 11.8 C 4.95 g/m*3 11.8 C 0 km/h
439 27-03-2010 15:45:02 12.5 C 4.84 g/m*3 12.5 C 0 km/h
440 27-03-2010 15:57:02 12.1 C 4.72 g/m*3 12.1 C 0 km/h
441 27-03-2010 16:09:02 11.2 C 4.87 g/m*3 11.2 C 0 km/h
442 27-03-2010 16:21:02 10.8 C 5.04 g/m*3 10.8 C 0 km/h
443 27-03-2010 16:33:02 10.8 C 5.04 g/m*3 10.8 C 0 km/h
444 27-03-2010 16:45:02 10.7 C 5.11 g/m*3 10.7 C 0 km/h
445 27-03-2010 16:57:02 10.7 C 5.11 g/m*3 10.7 C 0 km/h
446 27-03-2010 17:09:03 11 C 5.1 g/m*3 11 C 0 km/h
447 27-03-2010 17:21:02 11.6 C 5.09 g/m*3 11.6 C 0 km/h
448 27-03-2010 17:33:02 11.2 C 5.17 g/m*3 11.2 C 0 km/h
449 27-03-2010 17:45:01 11.3 C 5.2 g/m*3 11.3 C 0 km/h
450 27-03-2010 17:57:01 11.8 C 5.05 g/m*3 11.8 C 0 km/h
Sensor: Nr:Datum:Temp:Abs-Feuchte:Windchill:Wind:
Aussen-T/F 451 27-03-2010 18:09:02 11.4 C 5.13 g/m*3 11.4 C 0 km/h
452 27-03-2010 18:21:01 11.4 C 5.13 g/m*3 11.4 C 0 km/h
453 27-03-2010 18:33:01 11.3 C 5 g/m*3 11.3 C 0 km/h
454 27-03-2010 18:45:01 10.5 C 5.14 g/m*3 10.5 C 0 km/h
455 27-03-2010 18:57:01 10 C 5.17 g/m*3 10 C 0 km/h
456 27-03-2010 19:09:01 9.5 C 5.19 g/m*3 9.5 C 0 km/h
457 27-03-2010 19:21:02 9.2 C 5.27 g/m*3 9.2 C 0 km/h
458 27-03-2010 19:33:01 8.9 C 5.34 g/m*3 8.9 C 0 km/h
459 27-03-2010 19:45:02 8.7 C 5.45 g/m*3 8.7 C 0 km/h
460 27-03-2010 19:57:02 8.5 C 5.55 g/m*3 8.5 C 0 km/h
461 27-03-2010 20:09:02 8.3 C 5.56 g/m*3 8.3 C 0 km/h
462 27-03-2010 20:21:02 8.2 C 5.61 g/m*3 8.2 C 0 km/h
463 27-03-2010 20:33:01 7.9 C 5.67 g/m*3 7.9 C 0 km/h
464 27-03-2010 20:45:02 7.7 C 5.76 g/m*3 7.7 C 0 km/h
465 27-03-2010 20:57:02 7.5 C 5.76 g/m*3 7.5 C 0 km/h
466 27-03-2010 21:09:01 7.4 C 5.81 g/m*3 7.4 C 0 km/h
467 27-03-2010 21:21:01 7.4 C 5.96 g/m*3 7.4 C 0 km/h
468 27-03-2010 21:33:02 7.2 C 5.97 g/m*3 7.2 C 0 km/h
469 27-03-2010 21:45:02 7.2 C 6.04 g/m*3 7.2 C 0 km/h
470 27-03-2010 21:57:02 7.1 C 6.08 g/m*3 7.1 C 0 km/h
471 27-03-2010 22:09:02 7.2 C 6.12 g/m*3 7.2 C 0 km/h
472 27-03-2010 22:21:02 7.1 C 6.16 g/m*3 7.1 C 0 km/h
473 27-03-2010 22:33:02 7.2 C 6.2 g/m*3 7.2 C 0 km/h
474 27-03-2010 22:45:02 7.4 C 6.28 g/m*3 7.4 C 0 km/h
475 27-03-2010 22:57:02 7.4 C 6.2 g/m*3 7.4 C 0 km/h
Sensor: Nr:Datum:Temp:Abs-Feuchte:Windchill:Wind:
Aussen-T/F 476 27-03-2010 23:09:03 7.7 C 6.16 g/m*3 7.7 C 0 km/h
477 27-03-2010 23:21:02 7.8 C 6.04 g/m*3 7.8 C 0 km/h
478 27-03-2010 23:33:03 8 C 5.87 g/m*3 8 C 0 km/h
479 27-03-2010 23:45:02 7.7 C 6 g/m*3 7.7 C 0 km/h
480 27-03-2010 23:57:02 7.7 C 6 g/m*3 7.7 C 0 km/h
481 28-03-2010 00:09:02 7.7 C 6 g/m*3 7.7 C 0 km/h
482 28-03-2010 00:21:02 7.4 C 5.96 g/m*3 7.4 C 0 km/h
483 28-03-2010 00:33:02 7.5 C 6.08 g/m*3 7.5 C 0 km/h
484 28-03-2010 00:45:02 7.7 C 6.08 g/m*3 7.7 C 0 km/h
485 28-03-2010 00:57:02 7.7 C 6.08 g/m*3 7.7 C 0 km/h
486 28-03-2010 01:09:02 7.9 C 6.08 g/m*3 7.9 C 0 km/h
487 28-03-2010 01:21:02 8.2 C 5.95 g/m*3 8.2 C 0 km/h
488 28-03-2010 01:33:01 8.4 C 5.85 g/m*3 8.4 C 0 km/h
489 28-03-2010 01:45:02 8.4 C 5.85 g/m*3 8.4 C 0 km/h
490 28-03-2010 01:57:02 8.1 C 5.82 g/m*3 8.1 C 0 km/h
491 28-03-2010 02:09:01 7.9 C 5.91 g/m*3 7.9 C 0 km/h
492 28-03-2010 02:21:02 8.1 C 5.99 g/m*3 8.1 C 0 km/h
493 28-03-2010 02:33:01 8.4 C 6.02 g/m*3 8.4 C 0 km/h
494 28-03-2010 02:45:01 8.3 C 5.9 g/m*3 8.3 C 0 km/h
495 28-03-2010 02:57:01 8.2 C 5.95 g/m*3 8.2 C 0 km/h
496 28-03-2010 04:09:02 8.2 C 6.03 g/m*3 8.2 C 0 km/h
497 28-03-2010 04:21:01 8.1 C 5.99 g/m*3 8.1 C 0 km/h
498 28-03-2010 04:33:01 8.2 C 6.11 g/m*3 8.2 C 0 km/h
499 28-03-2010 04:45:01 8.2 C 6.11 g/m*3 8.2 C 0 km/h
500 28-03-2010 04:57:01 8.2 C 6.11 g/m*3 8.2 C 0 km/h
Sensor: Nr:Datum:Temp:Abs-Feuchte:Windchill:Wind:
Aussen-T/F 501 28-03-2010 05:09:01 8.2 C 6.03 g/m*3 8.2 C 0 km/h
502 28-03-2010 05:21:02 8.2 C 6.11 g/m*3 8.2 C 0 km/h
503 28-03-2010 05:33:01 8.1 C 6.24 g/m*3 8.1 C 0 km/h
504 28-03-2010 05:45:01 8.1 C 6.32 g/m*3 8.1 C 0 km/h
505 28-03-2010 05:57:01 8.1 C 6.32 g/m*3 8.1 C 0 km/h
506 28-03-2010 06:09:01 8.2 C 6.28 g/m*3 8.2 C 0 km/h
507 28-03-2010 06:21:02 8.4 C 6.36 g/m*3 8.4 C 0 km/h
508 28-03-2010 06:33:01 8.4 C 6.28 g/m*3 8.4 C 0 km/h
509 28-03-2010 06:45:02 8.4 C 6.36 g/m*3 8.4 C 0 km/h
510 28-03-2010 06:57:02 8.3 C 6.32 g/m*3 8.3 C 0 km/h
511 28-03-2010 07:09:01 8.2 C 6.28 g/m*3 8.2 C 0 km/h
512 28-03-2010 07:21:01 8.2 C 6.28 g/m*3 8.2 C 0 km/h
513 28-03-2010 07:33:01 8.2 C 6.11 g/m*3 8.2 C 0 km/h
514 28-03-2010 07:45:01 8.2 C 6.11 g/m*3 8.2 C 0 km/h
515 28-03-2010 07:57:02 8.3 C 6.15 g/m*3 8.3 C 0 km/h
516 28-03-2010 08:09:01 8.6 C 6.27 g/m*3 8.6 C 0 km/h
517 28-03-2010 08:21:01 8.7 C 6.23 g/m*3 8.7 C 0 km/h
518 28-03-2010 08:33:02 8.9 C 6.22 g/m*3 8.9 C 0 km/h
519 28-03-2010 08:45:01 9 C 6.08 g/m*3 9 C 0 km/h
520 28-03-2010 08:57:01 9.1 C 6.03 g/m*3 9.1 C 0 km/h
521 28-03-2010 09:09:02 9.1 C 5.94 g/m*3 9.1 C 0 km/h
522 28-03-2010 09:21:01 9.2 C 5.98 g/m*3 9.2 C 0 km/h
523 28-03-2010 09:33:02 9.8 C 5.94 g/m*3 9.8 C 0 km/h
524 28-03-2010 09:45:01 10.2 C 5.9 g/m*3 10.2 C 0 km/h
525 28-03-2010 09:57:01 10.4 C 5.88 g/m*3 10.4 C 0 km/h
Sensor: Nr:Datum:Temp:Abs-Feuchte:Windchill:Wind:
Aussen-T/F 526 28-03-2010 10:09:02 10.2 C 5.71 g/m*3 10.2 C 0 km/h
527 28-03-2010 10:21:01 10.1 C 5.77 g/m*3 10.1 C 0 km/h
528 28-03-2010 10:33:01 10.5 C 5.82 g/m*3 10.5 C 0 km/h
529 28-03-2010 10:45:01 10.7 C 5.8 g/m*3 10.7 C 0 km/h
530 28-03-2010 10:57:01 10.7 C 5.8 g/m*3 10.7 C 0 km/h
531 28-03-2010 11:09:01 11.2 C 5.47 g/m*3 11.2 C 0 km/h
532 28-03-2010 11:21:01 10.9 C 5.37 g/m*3 10.9 C 0 km/h
533 28-03-2010 11:33:01 10.9 C 5.57 g/m*3 10.9 C 0 km/h
534 28-03-2010 11:45:01 11.7 C 5.54 g/m*3 11.7 C 0 km/h
535 28-03-2010 11:57:01 11.3 C 5.41 g/m*3 11.3 C 0 km/h
536 28-03-2010 12:09:01 11 C 5.31 g/m*3 11 C 0 km/h
537 28-03-2010 12:21:02 10.8 C 5.63 g/m*3 10.8 C 0 km/h
538 28-03-2010 12:33:01 11.8 C 5.79 g/m*3 11.8 C 0 km/h
539 28-03-2010 12:45:02 12 C 5.44 g/m*3 12 C 0 km/h
540 28-03-2010 12:57:02 11.6 C 5.4 g/m*3 11.6 C 0 km/h
541 28-03-2010 13:09:01 11.6 C 5.51 g/m*3 11.6 C 0 km/h
542 28-03-2010 13:21:02 12.3 C 5.21 g/m*3 12.3 C 0 km/h
543 28-03-2010 13:33:01 11.9 C 5.3 g/m*3 11.9 C 0 km/h
544 28-03-2010 13:45:02 11.7 C 5.23 g/m*3 11.7 C 0 km/h
545 28-03-2010 13:57:02 11.5 C 5.37 g/m*3 11.5 C 0 km/h
546 28-03-2010 14:09:01 11.7 C 5.44 g/m*3 11.7 C 0 km/h
547 28-03-2010 14:21:01 12 C 5.22 g/m*3 12 C 0 km/h
548 28-03-2010 14:33:02 11.9 C 5.3 g/m*3 11.9 C 0 km/h
549 28-03-2010 14:45:01 10.2 C 6.19 g/m*3 10.2 C 0 km/h
550 28-03-2010 14:57:01 9.3 C 6.47 g/m*3 9.3 C 0 km/h
Sensor: Nr:Datum:Temp:Abs-Feuchte:Windchill:Wind:
Aussen-T/F 551 28-03-2010 15:09:01 10.1 C 6.81 g/m*3 10.1 C 0 km/h
552 28-03-2010 15:21:01 11.3 C 6.43 g/m*3 11.3 C 0 km/h
553 28-03-2010 15:33:02 11.7 C 6.48 g/m*3 11.7 C 0 km/h
554 28-03-2010 15:45:01 13.1 C 6.5 g/m*3 13.1 C 0 km/h
555 28-03-2010 15:57:01 13.7 C 6.16 g/m*3 13.7 C 0 km/h
556 28-03-2010 16:09:02 13.7 C 5.68 g/m*3 13.7 C 0 km/h
557 28-03-2010 16:21:01 13.4 C 4.88 g/m*3 13.4 C 0 km/h
558 28-03-2010 16:33:01 13.1 C 4.91 g/m*3 13.1 C 0 km/h
559 28-03-2010 16:45:01 12.6 C 5.09 g/m*3 12.6 C 0 km/h
560 28-03-2010 16:57:01 11 C 6.51 g/m*3 11 C 0 km/h
561 28-03-2010 17:09:02 11.1 C 7.15 g/m*3 11.1 C 0 km/h
562 28-03-2010 17:21:01 11.4 C 6.88 g/m*3 11.4 C 0 km/h
563 28-03-2010 17:33:01 11.6 C 6.86 g/m*3 11.6 C 0 km/h
564 28-03-2010 17:45:01 11.7 C 7.01 g/m*3 11.7 C 0 km/h
565 28-03-2010 17:57:01 11.7 C 6.07 g/m*3 11.7 C 0 km/h
566 28-03-2010 18:09:01 11.6 C 6.03 g/m*3 11.6 C 0 km/h
567 28-03-2010 18:21:02 11.5 C 5.78 g/m*3 11.5 C 0 km/h
568 28-03-2010 18:33:01 11.4 C 5.85 g/m*3 11.4 C 0 km/h
569 28-03-2010 18:45:01 11.3 C 5.92 g/m*3 11.3 C 0 km/h
570 28-03-2010 18:57:01 11.3 C 6.12 g/m*3 11.3 C 0 km/h
571 28-03-2010 19:09:01 11.2 C 6.08 g/m*3 11.2 C 0 km/h
572 28-03-2010 19:21:02 11.1 C 6.25 g/m*3 11.1 C 0 km/h
573 28-03-2010 19:33:01 10.9 C 6.37 g/m*3 10.9 C 0 km/h
574 28-03-2010 19:45:02 10.3 C 6.61 g/m*3 10.3 C 0 km/h
575 28-03-2010 19:57:02 10 C 6.77 g/m*3 10 C 0 km/h
Sensor: Nr:Datum:Temp:Abs-Feuchte:Windchill:Wind:
Aussen-T/F 576 28-03-2010 20:09:01 9.9 C 6.91 g/m*3 9.9 C 0 km/h
577 28-03-2010 20:21:01 9.8 C 6.96 g/m*3 9.8 C 0 km/h
578 28-03-2010 20:33:01 9.8 C 6.96 g/m*3 9.8 C 0 km/h
579 28-03-2010 20:45:01 9.9 C 6.91 g/m*3 9.9 C 0 km/h
580 28-03-2010 20:57:02 9.9 C 6.91 g/m*3 9.9 C 0 km/h
581 28-03-2010 21:09:01 9.9 C 6.91 g/m*3 9.9 C 0 km/h
582 28-03-2010 21:21:01 9.9 C 6.82 g/m*3 9.9 C 0 km/h
583 28-03-2010 21:33:02 9.9 C 6.82 g/m*3 9.9 C 0 km/h
584 28-03-2010 21:45:01 9.8 C 6.87 g/m*3 9.8 C 0 km/h
585 28-03-2010 21:57:01 9.8 C 6.87 g/m*3 9.8 C 0 km/h
586 28-03-2010 22:10:04 9.7 C 6.91 g/m*3 9.7 C 0 km/h
587 28-03-2010 22:22:04 9.6 C 6.78 g/m*3 9.6 C 0 km/h
588 28-03-2010 22:34:04 9.5 C 6.74 g/m*3 9.5 C 0 km/h
589 28-03-2010 22:46:04 9.4 C 6.87 g/m*3 9.4 C 0 km/h
590 28-03-2010 22:58:04 9.4 C 6.87 g/m*3 9.4 C 0 km/h
591 28-03-2010 23:10:04 9.5 C 6.92 g/m*3 9.5 C 0 km/h
592 28-03-2010 23:22:04 9.3 C 6.83 g/m*3 9.3 C 0 km/h
593 28-03-2010 23:34:04 9.4 C 6.96 g/m*3 9.4 C 0 km/h
594 28-03-2010 23:46:04 9.7 C 6.91 g/m*3 9.7 C 0 km/h
595 28-03-2010 23:58:04 9.8 C 6.87 g/m*3 9.8 C 0 km/h
596 29-03-2010 00:10:04 10 C 6.86 g/m*3 10 C 0 km/h
597 29-03-2010 00:22:04 10 C 6.77 g/m*3 10 C 0 km/h
598 29-03-2010 00:34:04 9.8 C 6.87 g/m*3 9.8 C 0 km/h
599 29-03-2010 00:46:04 9.8 C 6.87 g/m*3 9.8 C 0 km/h
600 29-03-2010 00:58:04 9.8 C 6.87 g/m*3 9.8 C 0 km/h
Sensor: Nr:Datum:Temp:Abs-Feuchte:Windchill:Wind:
Aussen-T/F 601 29-03-2010 01:10:04 9.8 C 7.05 g/m*3 9.8 C 0 km/h
602 29-03-2010 01:22:04 9.7 C 7.1 g/m*3 9.7 C 0 km/h
603 29-03-2010 01:34:04 9.6 C 7.15 g/m*3 9.6 C 0 km/h
604 29-03-2010 01:46:05 9.6 C 7.15 g/m*3 9.6 C 0 km/h
605 29-03-2010 01:58:05 9.6 C 7.24 g/m*3 9.6 C 0 km/h
606 29-03-2010 02:10:05 9.5 C 7.28 g/m*3 9.5 C 0 km/h
607 29-03-2010 02:22:05 9.3 C 7.28 g/m*3 9.3 C 0 km/h
608 29-03-2010 02:34:05 9.3 C 7.46 g/m*3 9.3 C 0 km/h
609 29-03-2010 02:46:05 9.3 C 7.55 g/m*3 9.3 C 0 km/h
610 29-03-2010 02:58:05 9.3 C 7.64 g/m*3 9.3 C 0 km/h
611 29-03-2010 03:10:05 9.3 C 7.73 g/m*3 9.3 C 0 km/h
612 29-03-2010 03:22:05 9.4 C 7.87 g/m*3 9.4 C 0 km/h
613 29-03-2010 03:34:05 10 C 7.99 g/m*3 10 C 0 km/h
614 29-03-2010 03:46:05 10.4 C 8.1 g/m*3 10.4 C 0 km/h
615 29-03-2010 03:58:05 10.6 C 8 g/m*3 10.6 C 0 km/h
616 29-03-2010 04:10:05 11 C 8.01 g/m*3 11 C 0 km/h
617 29-03-2010 04:22:05 11.1 C 7.96 g/m*3 11.1 C 0 km/h
618 29-03-2010 04:34:05 11.3 C 7.96 g/m*3 11.3 C 0 km/h
619 29-03-2010 04:46:05 11.5 C 7.95 g/m*3 11.5 C 0 km/h
620 29-03-2010 04:58:05 11.5 C 7.95 g/m*3 11.5 C 0 km/h
621 29-03-2010 05:10:05 11.5 C 7.95 g/m*3 11.5 C 0 km/h
622 29-03-2010 05:22:05 11.5 C 7.95 g/m*3 11.5 C 0 km/h
623 29-03-2010 05:34:05 11.5 C 8.06 g/m*3 11.5 C 0 km/h
624 29-03-2010 05:46:05 11.4 C 8.01 g/m*3 11.4 C 0 km/h
625 29-03-2010 05:58:05 11.5 C 8.06 g/m*3 11.5 C 0 km/h
Sensor: Nr:Datum:Temp:Abs-Feuchte:Windchill:Wind:
Aussen-T/F 626 29-03-2010 06:10:05 11.5 C 8.06 g/m*3 11.5 C 0 km/h
627 29-03-2010 06:22:06 11.5 C 8.06 g/m*3 11.5 C 0 km/h
628 29-03-2010 06:34:06 11.5 C 7.95 g/m*3 11.5 C 0 km/h
629 29-03-2010 06:46:01 11.4 C 7.9 g/m*3 11.4 C 0 km/h
630 29-03-2010 06:58:01 11.4 C 8.11 g/m*3 11.4 C 0 km/h
631 29-03-2010 07:10:02 11.2 C 8.11 g/m*3 11.2 C 0 km/h
632 29-03-2010 07:22:02 10.9 C 8.26 g/m*3 10.9 C 0 km/h
633 29-03-2010 07:34:02 10.7 C 8.35 g/m*3 10.7 C 0 km/h
634 29-03-2010 07:46:02 10.6 C 8.49 g/m*3 10.6 C 0 km/h
635 29-03-2010 07:58:02 10.6 C 8.59 g/m*3 10.6 C 0 km/h
636 29-03-2010 08:10:02 10.7 C 8.55 g/m*3 10.7 C 0 km/h
637 29-03-2010 08:22:01 10.8 C 8.5 g/m*3 10.8 C 0 km/h
638 29-03-2010 08:34:02 11.2 C 8.41 g/m*3 11.2 C 0 km/h
639 29-03-2010 08:46:02 11.4 C 8.11 g/m*3 11.4 C 0 km/h
640 29-03-2010 08:58:02 11.6 C 8 g/m*3 11.6 C 0 km/h
641 29-03-2010 09:10:02 11.8 C 7.89 g/m*3 11.8 C 0 km/h
642 29-03-2010 09:22:01 11.9 C 7.84 g/m*3 11.9 C 0 km/h
643 29-03-2010 09:34:02 12 C 7.78 g/m*3 12 C 0 km/h
644 29-03-2010 09:46:01 12.1 C 7.72 g/m*3 12.1 C 0 km/h
645 29-03-2010 09:58:01 12.2 C 7.77 g/m*3 12.2 C 0 km/h
646 29-03-2010 10:10:02 12.4 C 7.87 g/m*3 12.4 C 0 km/h
647 29-03-2010 10:22:02 12.6 C 7.85 g/m*3 12.6 C 0 km/h
648 29-03-2010 10:34:02 12.7 C 7.9 g/m*3 12.7 C 0 km/h
649 29-03-2010 10:46:02 12.5 C 7.7 g/m*3 12.5 C 0 km/h
650 29-03-2010 10:58:02 13 C 7.83 g/m*3 13 C 0 km/h
Sensor: Nr:Datum:Temp:Abs-Feuchte:Windchill:Wind:
Aussen-T/F 651 29-03-2010 11:10:02 13.1 C 7.87 g/m*3 13.1 C 0 km/h
652 29-03-2010 11:22:02 13.3 C 7.86 g/m*3 13.3 C 0 km/h
653 29-03-2010 11:34:01 13.5 C 7.84 g/m*3 13.5 C 0 km/h
654 29-03-2010 11:46:02 13.9 C 7.91 g/m*3 13.9 C 0 km/h
655 29-03-2010 11:58:02 14 C 7.72 g/m*3 14 C 0 km/h
656 29-03-2010 12:10:01 14.4 C 7.66 g/m*3 14.4 C 0 km/h
657 29-03-2010 12:22:02 15 C 7.57 g/m*3 15 C 0 km/h
658 29-03-2010 12:34:01 15.3 C 7.44 g/m*3 15.3 C 0 km/h
659 29-03-2010 12:46:02 14.9 C 7.52 g/m*3 14.9 C 0 km/h
660 29-03-2010 12:58:02 14.9 C 7.39 g/m*3 14.9 C 0 km/h
661 29-03-2010 13:10:02 15.3 C 7.18 g/m*3 15.3 C 0 km/h
662 29-03-2010 13:22:02 14.8 C 7.09 g/m*3 14.8 C 0 km/h
663 29-03-2010 13:34:03 14.6 C 7.38 g/m*3 14.6 C 0 km/h
664 29-03-2010 13:46:02 14.4 C 7.54 g/m*3 14.4 C 0 km/h
665 29-03-2010 13:58:02 13.8 C 8.1 g/m*3 13.8 C 0 km/h
666 29-03-2010 14:10:01 14.2 C 8.91 g/m*3 14.2 C 0 km/h
667 29-03-2010 14:22:02 14.7 C 8.69 g/m*3 14.7 C 0 km/h
668 29-03-2010 14:34:02 14.2 C 7.82 g/m*3 14.2 C 0 km/h
669 29-03-2010 14:46:02 13.1 C 8.33 g/m*3 13.1 C 0 km/h
670 29-03-2010 14:58:02 12.7 C 8.13 g/m*3 12.7 C 0 km/h
671 29-03-2010 15:10:02 13.2 C 8.38 g/m*3 13.2 C 0 km/h
672 29-03-2010 15:22:02 12.8 C 8.4 g/m*3 12.8 C 0 km/h
673 29-03-2010 15:34:02 12.8 C 8.62 g/m*3 12.8 C 0 km/h
674 29-03-2010 15:46:02 12.7 C 8.68 g/m*3 12.7 C 0 km/h
675 29-03-2010 15:58:02 13.4 C 8.6 g/m*3 13.4 C 0 km/h
Sensor: Nr:Datum:Temp:Abs-Feuchte:Windchill:Wind:
Aussen-T/F 676 29-03-2010 16:10:02 14 C 8.2 g/m*3 14 C 0 km/h
677 29-03-2010 16:22:02 14.2 C 7.69 g/m*3 14.2 C 0 km/h
678 29-03-2010 16:34:02 14.3 C 7.62 g/m*3 14.3 C 0 km/h
679 29-03-2010 16:46:02 14 C 7.96 g/m*3 14 C 0 km/h
680 29-03-2010 16:58:02 13.8 C 8.22 g/m*3 13.8 C 0 km/h
681 29-03-2010 17:10:02 12.2 C 8.31 g/m*3 12.2 C 0 km/h
682 29-03-2010 17:22:03 12.2 C 8.96 g/m*3 12.2 C 0 km/h
683 29-03-2010 17:34:02 12.6 C 9.4 g/m*3 12.6 C 0 km/h
684 29-03-2010 17:46:02 14.2 C 10.14 g/m*3 14.2 C 0 km/h
685 29-03-2010 17:58:02 14.5 C 9.45 g/m*3 14.5 C 0 km/h
686 29-03-2010 18:10:02 14.7 C 9.44 g/m*3 14.7 C 0 km/h
687 29-03-2010 18:22:02 14.9 C 8.92 g/m*3 14.9 C 0 km/h
688 29-03-2010 18:34:02 14.8 C 8.87 g/m*3 14.8 C 0 km/h
689 29-03-2010 18:46:02 14.5 C 8.83 g/m*3 14.5 C 0 km/h
690 29-03-2010 18:58:02 14.4 C 9.02 g/m*3 14.4 C 0 km/h
691 29-03-2010 19:10:01 14.2 C 8.91 g/m*3 14.2 C 0 km/h
692 29-03-2010 19:22:02 13.7 C 8.76 g/m*3 13.7 C 0 km/h
693 29-03-2010 19:34:01 13 C 8.73 g/m*3 13 C 0 km/h
694 29-03-2010 19:46:02 12.2 C 8.52 g/m*3 12.2 C 0 km/h
695 29-03-2010 19:58:02 11.7 C 8.37 g/m*3 11.7 C 0 km/h
696 29-03-2010 20:10:01 11.2 C 8.21 g/m*3 11.2 C 0 km/h
697 29-03-2010 20:22:01 10.8 C 8.2 g/m*3 10.8 C 0 km/h
698 29-03-2010 20:34:02 10.6 C 8.2 g/m*3 10.6 C 0 km/h
699 29-03-2010 20:46:02 10.5 C 8.15 g/m*3 10.5 C 0 km/h
700 29-03-2010 20:58:02 10.4 C 8.1 g/m*3 10.4 C 0 km/h
Sensor: Nr:Datum:Temp:Abs-Feuchte:Windchill:Wind:
Aussen-T/F 701 29-03-2010 21:10:01 10.3 C 8.04 g/m*3 10.3 C 0 km/h
702 29-03-2010 21:22:02 10.2 C 7.99 g/m*3 10.2 C 0 km/h
703 29-03-2010 21:34:02 10.3 C 8.04 g/m*3 10.3 C 0 km/h
704 29-03-2010 21:47:02 10.3 C 8.04 g/m*3 10.3 C 0 km/h
705 29-03-2010 21:59:02 10.2 C 7.99 g/m*3 10.2 C 0 km/h
706 29-03-2010 22:11:02 10 C 7.89 g/m*3 10 C 0 km/h
707 29-03-2010 22:23:03 10 C 7.89 g/m*3 10 C 0 km/h
708 29-03-2010 22:35:03 9.9 C 7.94 g/m*3 9.9 C 0 km/h
709 29-03-2010 22:47:03 9.8 C 7.89 g/m*3 9.8 C 0 km/h
710 29-03-2010 22:59:03 9.9 C 8.03 g/m*3 9.9 C 0 km/h
711 29-03-2010 23:11:03 9.9 C 7.94 g/m*3 9.9 C 0 km/h
712 29-03-2010 23:23:03 9.9 C 7.94 g/m*3 9.9 C 0 km/h
713 29-03-2010 23:35:03 10.1 C 7.85 g/m*3 10.1 C 0 km/h
714 29-03-2010 23:47:03 10.1 C 7.66 g/m*3 10.1 C 0 km/h
715 29-03-2010 23:59:03 10.2 C 7.71 g/m*3 10.2 C 0 km/h
716 30-03-2010 00:11:03 10.2 C 7.61 g/m*3 10.2 C 0 km/h
717 30-03-2010 00:23:03 10.3 C 7.66 g/m*3 10.3 C 0 km/h
718 30-03-2010 00:35:03 10.6 C 7.71 g/m*3 10.6 C 0 km/h
719 30-03-2010 00:47:03 10.7 C 7.66 g/m*3 10.7 C 0 km/h
720 30-03-2010 00:59:03 11.1 C 7.66 g/m*3 11.1 C 0 km/h
721 30-03-2010 01:11:03 11.3 C 7.65 g/m*3 11.3 C 0 km/h
722 30-03-2010 01:23:03 11.3 C 7.65 g/m*3 11.3 C 0 km/h
723 30-03-2010 01:35:03 11.3 C 7.55 g/m*3 11.3 C 0 km/h
724 30-03-2010 01:47:03 11 C 7.41 g/m*3 11 C 0 km/h
725 30-03-2010 01:59:03 11.1 C 7.35 g/m*3 11.1 C 0 km/h
Sensor: Nr:Datum:Temp:Abs-Feuchte:Windchill:Wind:
Aussen-T/F 726 30-03-2010 02:11:03 11.3 C 7.24 g/m*3 11.3 C 0 km/h
727 30-03-2010 02:23:03 11.3 C 7.24 g/m*3 11.3 C 0 km/h
728 30-03-2010 02:35:03 11.1 C 7.25 g/m*3 11.1 C 0 km/h
729 30-03-2010 02:47:04 11.7 C 7.22 g/m*3 11.7 C 0 km/h
730 30-03-2010 02:59:04 11.6 C 7.17 g/m*3 11.6 C 0 km/h
731 30-03-2010 03:11:04 11.3 C 7.14 g/m*3 11.3 C 0 km/h
732 30-03-2010 03:23:04 11.3 C 7.24 g/m*3 11.3 C 0 km/h
733 30-03-2010 03:35:04 10.9 C 7.16 g/m*3 10.9 C 0 km/h
734 30-03-2010 03:47:04 10.8 C 7.22 g/m*3 10.8 C 0 km/h
735 30-03-2010 03:59:04 11 C 7.21 g/m*3 11 C 0 km/h
736 30-03-2010 04:11:04 11.4 C 7.29 g/m*3 11.4 C 0 km/h
737 30-03-2010 04:23:04 11.4 C 7.19 g/m*3 11.4 C 0 km/h
738 30-03-2010 04:35:04 11.5 C 7.13 g/m*3 11.5 C 0 km/h
739 30-03-2010 04:47:04 11.4 C 7.08 g/m*3 11.4 C 0 km/h
740 30-03-2010 04:59:04 11.3 C 7.14 g/m*3 11.3 C 0 km/h
741 30-03-2010 05:11:04 11.4 C 7.29 g/m*3 11.4 C 0 km/h
742 30-03-2010 05:23:04 11.1 C 7.05 g/m*3 11.1 C 0 km/h
743 30-03-2010 05:35:04 11 C 7.01 g/m*3 11 C 0 km/h
744 30-03-2010 05:47:04 10.7 C 7.07 g/m*3 10.7 C 0 km/h
745 30-03-2010 05:59:04 10.5 C 6.98 g/m*3 10.5 C 0 km/h
746 30-03-2010 06:11:04 10.5 C 7.08 g/m*3 10.5 C 0 km/h
747 30-03-2010 06:23:04 10.3 C 7.09 g/m*3 10.3 C 0 km/h
748 30-03-2010 06:35:04 10 C 6.95 g/m*3 10 C 0 km/h
749 30-03-2010 06:47:04 9.8 C 7.14 g/m*3 9.8 C 0 km/h
750 30-03-2010 06:59:04 9.8 C 7.24 g/m*3 9.8 C 0 km/h
Sensor: Nr:Datum:Temp:Abs-Feuchte:Windchill:Wind:
Aussen-T/F 751 30-03-2010 07:11:01 10 C 7.14 g/m*3 10 C 0 km/h
752 30-03-2010 07:23:02 10.2 C 7.04 g/m*3 10.2 C 0 km/h
753 30-03-2010 07:35:02 10.5 C 6.89 g/m*3 10.5 C 0 km/h
754 30-03-2010 07:47:02 10.6 C 6.83 g/m*3 10.6 C 0 km/h
755 30-03-2010 07:59:02 10.7 C 6.88 g/m*3 10.7 C 0 km/h
756 30-03-2010 08:11:02 10.7 C 6.88 g/m*3 10.7 C 0 km/h
757 30-03-2010 08:23:02 11 C 6.91 g/m*3 11 C 0 km/h
758 30-03-2010 08:35:02 11.1 C 6.85 g/m*3 11.1 C 0 km/h
759 30-03-2010 08:47:01 11.4 C 6.67 g/m*3 11.4 C 0 km/h
760 30-03-2010 08:59:01 11.4 C 6.77 g/m*3 11.4 C 0 km/h
761 30-03-2010 09:11:02 11.8 C 6.95 g/m*3 11.8 C 0 km/h
762 30-03-2010 09:23:01 12.2 C 6.69 g/m*3 12.2 C 0 km/h
763 30-03-2010 09:35:02 12.6 C 6.75 g/m*3 12.6 C 0 km/h
764 30-03-2010 09:47:02 12.9 C 6.54 g/m*3 12.9 C 0 km/h
765 30-03-2010 09:59:02 13.1 C 6.39 g/m*3 13.1 C 0 km/h
766 30-03-2010 10:11:02 13.2 C 6.43 g/m*3 13.2 C 0 km/h
767 30-03-2010 10:23:01 13.1 C 5.93 g/m*3 13.1 C 0 km/h
768 30-03-2010 10:35:02 14.2 C 6.11 g/m*3 14.2 C 0 km/h
769 30-03-2010 10:47:02 14.4 C 5.07 g/m*3 14.4 C 0 km/h
770 30-03-2010 10:59:02 14.1 C 4.85 g/m*3 14.1 C 0 km/h
771 30-03-2010 11:11:02 14.1 C 4.98 g/m*3 14.1 C 0 km/h
772 30-03-2010 11:23:01 15 C 4.74 g/m*3 15 C 0 km/h
773 30-03-2010 11:35:02 15.2 C 4.67 g/m*3 15.2 C 0 km/h
774 30-03-2010 11:47:02 15.3 C 4.57 g/m*3 15.3 C 0 km/h
775 30-03-2010 11:59:02 15.8 C 4.71 g/m*3 15.8 C 0 km/h
Sensor: Nr:Datum:Temp:Abs-Feuchte:Windchill:Wind:
Aussen-T/F 776 30-03-2010 12:11:02 16 C 4.63 g/m*3 16 C 0 km/h
777 30-03-2010 12:23:02 16.2 C 4.55 g/m*3 16.2 C 0 km/h
778 30-03-2010 12:35:02 16.6 C 4.66 g/m*3 16.6 C 0 km/h
779 30-03-2010 12:47:02 16.7 C 4.55 g/m*3 16.7 C 0 km/h
780 30-03-2010 12:59:02 17.2 C 4.69 g/m*3 17.2 C 0 km/h
781 30-03-2010 13:11:02 17.4 C 4.59 g/m*3 17.4 C 0 km/h
782 30-03-2010 13:23:02 17.3 C 4.71 g/m*3 17.3 C 0 km/h
783 30-03-2010 13:35:02 17.7 C 4.83 g/m*3 17.7 C 0 km/h
784 30-03-2010 13:47:02 18.1 C 4.79 g/m*3 18.1 C 0 km/h
785 30-03-2010 13:59:02 18.2 C 4.66 g/m*3 18.2 C 0 km/h
786 30-03-2010 14:11:02 18.5 C 4.9 g/m*3 18.5 C 0 km/h
787 30-03-2010 14:23:02 18.9 C 4.7 g/m*3 18.9 C 0 km/h
788 30-03-2010 14:35:01 18.3 C 4.53 g/m*3 18.3 C 0 km/h
789 30-03-2010 14:47:02 18 C 4.61 g/m*3 18 C 0 km/h
790 30-03-2010 14:59:02 17.7 C 4.68 g/m*3 17.7 C 0 km/h
791 30-03-2010 15:11:01 17.9 C 4.58 g/m*3 17.9 C 0 km/h
792 30-03-2010 15:23:01 17.7 C 4.68 g/m*3 17.7 C 0 km/h
793 30-03-2010 15:35:02 18.6 C 4.62 g/m*3 18.6 C 0 km/h
794 30-03-2010 15:47:02 18.7 C 4.48 g/m*3 18.7 C 0 km/h
795 30-03-2010 15:59:03 18.2 C 4.51 g/m*3 18.2 C 0 km/h
796 30-03-2010 16:11:02 18.7 C 4.64 g/m*3 18.7 C 0 km/h
797 30-03-2010 16:23:02 17.5 C 5.22 g/m*3 17.5 C 0 km/h
798 30-03-2010 16:35:02 16.4 C 5.58 g/m*3 16.4 C 0 km/h
799 30-03-2010 16:47:01 15.9 C 5.55 g/m*3 15.9 C 0 km/h
800 30-03-2010 16:59:01 15.6 C 5.45 g/m*3 15.6 C 0 km/h
Sensor: Nr:Datum:Temp:Abs-Feuchte:Windchill:Wind:
Aussen-T/F 801 30-03-2010 17:11:02 14.9 C 5.48 g/m*3 14.9 C 0 km/h
802 30-03-2010 17:23:01 14.4 C 5.44 g/m*3 14.4 C 0 km/h
803 30-03-2010 17:35:02 14.2 C 5.49 g/m*3 14.2 C 0 km/h
804 30-03-2010 17:47:02 14 C 5.43 g/m*3 14 C 0 km/h
805 30-03-2010 17:59:02 13.8 C 5.48 g/m*3 13.8 C 0 km/h
806 30-03-2010 18:11:02 13.6 C 5.65 g/m*3 13.6 C 0 km/h
807 30-03-2010 18:23:02 13.3 C 5.89 g/m*3 13.3 C 0 km/h
808 30-03-2010 18:35:02 12.9 C 6.2 g/m*3 12.9 C 0 km/h
809 30-03-2010 18:47:02 12 C 6.39 g/m*3 12 C 0 km/h
810 30-03-2010 18:59:02 11.6 C 6.65 g/m*3 11.6 C 0 km/h
811 30-03-2010 19:11:02 11.5 C 6.82 g/m*3 11.5 C 0 km/h
812 30-03-2010 19:23:02 11.1 C 6.65 g/m*3 11.1 C 0 km/h
813 30-03-2010 19:35:02 11.3 C 6.73 g/m*3 11.3 C 0 km/h
814 30-03-2010 19:47:01 11.4 C 6.67 g/m*3 11.4 C 0 km/h
815 30-03-2010 19:59:01 11.3 C 6.43 g/m*3 11.3 C 0 km/h
816 30-03-2010 20:11:02 10.9 C 6.47 g/m*3 10.9 C 0 km/h
817 30-03-2010 20:23:01 10.5 C 6.4 g/m*3 10.5 C 0 km/h
818 30-03-2010 20:35:01 10.6 C 6.44 g/m*3 10.6 C 0 km/h
819 30-03-2010 20:47:01 10.7 C 6.38 g/m*3 10.7 C 0 km/h
820 30-03-2010 20:59:01 10.7 C 6.29 g/m*3 10.7 C 0 km/h
821 30-03-2010 21:11:02 10.4 C 6.36 g/m*3 10.4 C 0 km/h
822 30-03-2010 21:23:01 10.1 C 6.24 g/m*3 10.1 C 0 km/h
823 30-03-2010 21:35:01 10 C 6.3 g/m*3 10 C 0 km/h
824 30-03-2010 21:47:01 9.8 C 6.31 g/m*3 9.8 C 0 km/h
825 30-03-2010 21:59:01 9.7 C 6.27 g/m*3 9.7 C 0 km/h
Sensor: Nr:Datum:Temp:Abs-Feuchte:Windchill:Wind:
Aussen-T/F 826 30-03-2010 22:11:02 9.4 C 6.24 g/m*3 9.4 C 0 km/h
827 30-03-2010 22:23:02 9.3 C 6.29 g/m*3 9.3 C 0 km/h
828 30-03-2010 22:36:04 9.6 C 6.32 g/m*3 9.6 C 0 km/h
829 30-03-2010 22:48:05 9.8 C 6.12 g/m*3 9.8 C 0 km/h
830 30-03-2010 23:00:05 10.2 C 5.8 g/m*3 10.2 C 0 km/h
831 30-03-2010 23:12:05 10.6 C 5.76 g/m*3 10.6 C 0 km/h
832 30-03-2010 23:24:05 7.9 C 5.83 g/m*3 7.9 C 0 km/h
833 30-03-2010 23:36:05 7.4 C 5.49 g/m*3 7.4 C 0 km/h
834 30-03-2010 23:48:05 7.3 C 5.37 g/m*3 7.3 C 0 km/h
835 31-03-2010 00:00:05 7.1 C 5.07 g/m*3 7.1 C 0 km/h
836 31-03-2010 00:12:05 7 C 4.88 g/m*3 7 C 0 km/h
837 31-03-2010 00:24:05 6.9 C 4.93 g/m*3 6.9 C 0 km/h
838 31-03-2010 00:36:05 6.6 C 4.83 g/m*3 6.6 C 0 km/h
839 31-03-2010 00:48:05 6.6 C 4.76 g/m*3 6.6 C 0 km/h
840 31-03-2010 01:00:05 6.3 C 4.74 g/m*3 6.3 C 0 km/h
841 31-03-2010 01:12:05 6.2 C 4.71 g/m*3 6.2 C 0 km/h
842 31-03-2010 01:24:05 6.3 C 4.74 g/m*3 6.3 C 0 km/h
843 31-03-2010 01:36:05 6.2 C 4.63 g/m*3 6.2 C 0 km/h
844 31-03-2010 01:48:05 6.1 C 4.6 g/m*3 6.1 C 0 km/h
845 31-03-2010 02:00:05 6 C 4.57 g/m*3 6 C 0 km/h
846 31-03-2010 02:12:05 6 C 4.65 g/m*3 6 C 0 km/h
847 31-03-2010 02:24:05 6 C 4.65 g/m*3 6 C 0 km/h
848 31-03-2010 02:36:05 6 C 4.65 g/m*3 6 C 0 km/h
849 31-03-2010 02:48:05 5.9 C 4.69 g/m*3 5.9 C 0 km/h
850 31-03-2010 03:00:06 5.7 C 4.7 g/m*3 5.7 C 0 km/h
Sensor: Nr:Datum:Temp:Abs-Feuchte:Windchill:Wind:
Aussen-T/F 851 31-03-2010 03:12:06 5.8 C 4.73 g/m*3 5.8 C 0 km/h
852 31-03-2010 03:24:06 5.8 C 4.8 g/m*3 5.8 C 0 km/h
853 31-03-2010 03:36:06 5.8 C 4.8 g/m*3 5.8 C 0 km/h
854 31-03-2010 03:48:06 5.5 C 4.78 g/m*3 5.5 C 0 km/h
855 31-03-2010 04:00:06 5.5 C 4.85 g/m*3 5.5 C 0 km/h
856 31-03-2010 04:12:06 5.3 C 4.85 g/m*3 5.3 C 0 km/h
857 31-03-2010 04:24:06 5.3 C 4.99 g/m*3 5.3 C 0 km/h
858 31-03-2010 04:36:06 5.6 C 5.16 g/m*3 5.6 C 0 km/h
859 31-03-2010 04:48:06 5.8 C 5.16 g/m*3 5.8 C 0 km/h
860 31-03-2010 05:00:06 5.7 C 5.12 g/m*3 5.7 C 0 km/h
861 31-03-2010 05:12:06 6.1 C 5.11 g/m*3 6.1 C 0 km/h
862 31-03-2010 05:24:06 6.5 C 4.95 g/m*3 6.5 C 0 km/h
863 31-03-2010 05:36:06 6.6 C 4.91 g/m*3 6.6 C 0 km/h
864 31-03-2010 05:48:06 7.1 C 4.76 g/m*3 7.1 C 0 km/h
865 31-03-2010 06:00:06 7 C 4.65 g/m*3 7 C 0 km/h
866 31-03-2010 06:12:06 7.1 C 4.68 g/m*3 7.1 C 0 km/h
867 31-03-2010 06:24:06 7.3 C 4.58 g/m*3 7.3 C 0 km/h
868 31-03-2010 06:36:06 7.3 C 4.5 g/m*3 7.3 C 0 km/h
869 31-03-2010 06:48:06 7.3 C 4.5 g/m*3 7.3 C 0 km/h
870 31-03-2010 07:00:07 7.3 C 4.42 g/m*3 7.3 C 0 km/h
871 31-03-2010 07:12:04 7.3 C 4.42 g/m*3 7.3 C 0 km/h
872 31-03-2010 07:24:03 7.4 C 4.21 g/m*3 7.4 C 0 km/h
873 31-03-2010 07:36:04 7.4 C 4.06 g/m*3 7.4 C 0 km/h
874 31-03-2010 07:48:02 7.5 C 4.08 g/m*3 7.5 C 0 km/h
875 31-03-2010 08:00:02 7.4 C 4.14 g/m*3 7.4 C 0 km/h
Sensor: Nr:Datum:Temp:Abs-Feuchte:Windchill:Wind:
Aussen-T/F 876 31-03-2010 08:12:02 7.5 C 4.24 g/m*3 7.5 C 0 km/h
877 31-03-2010 08:24:01 7.5 C 4.24 g/m*3 7.5 C 0 km/h
878 31-03-2010 08:36:02 7.5 C 4.24 g/m*3 7.5 C 0 km/h
879 31-03-2010 08:48:02 7.4 C 4.14 g/m*3 7.4 C 0 km/h
880 31-03-2010 09:00:02 7.6 C 4.27 g/m*3 7.6 C 0 km/h
881 31-03-2010 09:12:02 7.8 C 4.41 g/m*3 7.8 C 0 km/h
882 31-03-2010 09:24:02 7.2 C 4.71 g/m*3 7.2 C 0 km/h
883 31-03-2010 09:36:02 7.4 C 4.85 g/m*3 7.4 C 0 km/h
884 31-03-2010 09:48:01 7.8 C 4.9 g/m*3 7.8 C 0 km/h
885 31-03-2010 10:00:01 6.8 C 5.05 g/m*3 6.8 C 0 km/h
886 31-03-2010 10:12:02 6 C 5.3 g/m*3 6 C 0 km/h
887 31-03-2010 10:24:02 6.5 C 5.55 g/m*3 6.5 C 0 km/h
888 31-03-2010 10:36:01 7.4 C 5.33 g/m*3 7.4 C 0 km/h
889 31-03-2010 10:48:02 8.5 C 4.7 g/m*3 8.5 C 0 km/h
890 31-03-2010 11:00:02 9.4 C 4.16 g/m*3 9.4 C 0 km/h
891 31-03-2010 11:12:01 10.1 C 4.26 g/m*3 10.1 C 0 km/h
892 31-03-2010 11:24:02 10.1 C 3.78 g/m*3 10.1 C 0 km/h
893 31-03-2010 11:36:01 10.2 C 3.81 g/m*3 10.2 C 0 km/h
894 31-03-2010 11:48:02 10.4 C 3.76 g/m*3 10.4 C 0 km/h
895 31-03-2010 12:00:02 10.8 C 3.85 g/m*3 10.8 C 0 km/h
896 31-03-2010 12:12:02 10.7 C 3.54 g/m*3 10.7 C 0 km/h
897 31-03-2010 12:24:02 10.2 C 3.52 g/m*3 10.2 C 0 km/h
898 31-03-2010 12:36:02 10.3 C 3.93 g/m*3 10.3 C 0 km/h
899 31-03-2010 12:48:02 10.6 C 3.71 g/m*3 10.6 C 0 km/h
900 31-03-2010 13:00:03 10.9 C 3.48 g/m*3 10.9 C 0 km/h
Sensor: Nr:Datum:Temp:Abs-Feuchte:Windchill:Wind:
Aussen-T/F 901 31-03-2010 13:12:01 11.6 C 3.22 g/m*3 11.6 C 0 km/h
902 31-03-2010 13:24:01 11.4 C 3.08 g/m*3 11.4 C 0 km/h
903 31-03-2010 13:36:02 11.8 C 3.16 g/m*3 11.8 C 0 km/h
904 31-03-2010 13:48:02 11.8 C 3.16 g/m*3 11.8 C 0 km/h
905 31-03-2010 14:00:02 11.6 C 3.22 g/m*3 11.6 C 0 km/h
906 31-03-2010 14:12:02 11.5 C 3.1 g/m*3 11.5 C 0 km/h
907 31-03-2010 14:24:02 11.8 C 3.05 g/m*3 11.8 C 0 km/h
908 31-03-2010 14:36:02 12.3 C 3.04 g/m*3 12.3 C 0 km/h
909 31-03-2010 14:48:02 11.9 C 3.18 g/m*3 11.9 C 0 km/h
910 31-03-2010 15:00:02 11.2 C 3.45 g/m*3 11.2 C 0 km/h
911 31-03-2010 15:12:02 11.9 C 4.13 g/m*3 11.9 C 0 km/h
912 31-03-2010 15:24:02 11.7 C 3.56 g/m*3 11.7 C 0 km/h
913 31-03-2010 15:36:02 8.6 C 5.41 g/m*3 8.6 C 0 km/h
914 31-03-2010 15:48:01 9.3 C 6.02 g/m*3 9.3 C 0 km/h
915 31-03-2010 16:00:01 11.2 C 5.17 g/m*3 11.2 C 0 km/h
916 31-03-2010 16:12:01 12.2 C 4.21 g/m*3 12.2 C 0 km/h
917 31-03-2010 16:24:01 12.7 C 4.01 g/m*3 12.7 C 0 km/h
918 31-03-2010 16:36:01 13.6 C 3.77 g/m*3 13.6 C 0 km/h
919 31-03-2010 16:48:01 13.4 C 3.25 g/m*3 13.4 C 0 km/h
920 31-03-2010 17:00:01 13.4 C 3.14 g/m*3 13.4 C 0 km/h
921 31-03-2010 17:12:01 13 C 2.84 g/m*3 13 C 0 km/h
922 31-03-2010 17:24:02 12.5 C 2.86 g/m*3 12.5 C 0 km/h
923 31-03-2010 17:36:01 13.3 C 2.66 g/m*3 13.3 C 0 km/h
924 31-03-2010 17:48:02 12.5 C 3.3 g/m*3 12.5 C 0 km/h
925 31-03-2010 18:00:02 11.4 C 4 g/m*3 11.4 C 0 km/h
Sensor: Nr:Datum:Temp:Abs-Feuchte:Windchill:Wind:
Aussen-T/F 926 31-03-2010 18:12:02 11.9 C 3.71 g/m*3 11.9 C 0 km/h
927 31-03-2010 18:24:02 12.2 C 3.45 g/m*3 12.2 C 0 km/h
928 31-03-2010 18:36:02 10.3 C 3.35 g/m*3 10.3 C 0 km/h
929 31-03-2010 18:48:02 9.3 C 4.58 g/m*3 9.3 C 0 km/h
930 31-03-2010 19:00:02 9.6 C 4.12 g/m*3 9.6 C 0 km/h
931 31-03-2010 19:12:02 8.4 C 4.58 g/m*3 8.4 C 0 km/h
932 31-03-2010 19:24:02 8.1 C 4.74 g/m*3 8.1 C 0 km/h
933 31-03-2010 19:36:01 8.2 C 4.44 g/m*3 8.2 C 0 km/h
934 31-03-2010 19:48:02 7.9 C 4.19 g/m*3 7.9 C 0 km/h
935 31-03-2010 20:00:02 7.5 C 4.08 g/m*3 7.5 C 0 km/h
936 31-03-2010 20:12:01 7.3 C 4.03 g/m*3 7.3 C 0 km/h
937 31-03-2010 20:24:02 7.1 C 3.98 g/m*3 7.1 C 0 km/h
938 31-03-2010 20:36:02 7 C 3.95 g/m*3 7 C 0 km/h
939 31-03-2010 20:48:02 6.9 C 4.16 g/m*3 6.9 C 0 km/h
940 31-03-2010 21:00:03 7 C 4.26 g/m*3 7 C 0 km/h
941 31-03-2010 21:12:02 6.2 C 4.85 g/m*3 6.2 C 0 km/h
942 31-03-2010 21:24:02 5.7 C 4.98 g/m*3 5.7 C 0 km/h
943 31-03-2010 21:36:02 5.6 C 4.95 g/m*3 5.6 C 0 km/h
944 31-03-2010 21:48:02 5.5 C 4.92 g/m*3 5.5 C 0 km/h
945 31-03-2010 22:00:02 5.6 C 4.74 g/m*3 5.6 C 0 km/h
946 31-03-2010 22:12:01 5.3 C 4.78 g/m*3 5.3 C 0 km/h
947 31-03-2010 22:25:03 5.3 C 4.71 g/m*3 5.3 C 0 km/h
948 31-03-2010 22:37:03 5.2 C 4.68 g/m*3 5.2 C 0 km/h
949 31-03-2010 22:49:03 5.1 C 4.65 g/m*3 5.1 C 0 km/h
950 31-03-2010 23:01:03 5.1 C 4.65 g/m*3 5.1 C 0 km/h
Sensor: Nr:Datum:Temp:Abs-Feuchte:Windchill:Wind:
Aussen-T/F 951 31-03-2010 23:13:03 5.2 C 4.54 g/m*3 5.2 C 0 km/h
952 31-03-2010 23:25:03 5.1 C 4.51 g/m*3 5.1 C 0 km/h
953 31-03-2010 23:37:03 5.5 C 4.28 g/m*3 5.5 C 0 km/h
954 31-03-2010 23:49:03 5.5 C 4.21 g/m*3 5.5 C 0 km/h
955 01-04-2010 00:01:03 5.6 C 4.1 g/m*3 5.6 C 0 km/h
956 01-04-2010 00:13:03 5.6 C 3.96 g/m*3 5.6 C 0 km/h
957 01-04-2010 00:25:03 5.7 C 3.77 g/m*3 5.7 C 0 km/h
958 01-04-2010 00:37:03 5.6 C 3.75 g/m*3 5.6 C 0 km/h
959 01-04-2010 00:49:03 5.5 C 3.65 g/m*3 5.5 C 0 km/h
960 01-04-2010 01:01:03 5.3 C 3.6 g/m*3 5.3 C 0 km/h
961 01-04-2010 01:13:03 5.3 C 3.6 g/m*3 5.3 C 0 km/h
962 01-04-2010 01:25:03 5.2 C 3.51 g/m*3 5.2 C 0 km/h
963 01-04-2010 01:37:04 5 C 3.53 g/m*3 5 C 0 km/h
964 01-04-2010 01:49:04 4.9 C 3.58 g/m*3 4.9 C 0 km/h
965 01-04-2010 02:01:04 4.8 C 3.62 g/m*3 4.8 C 0 km/h
966 01-04-2010 02:13:04 5 C 3.53 g/m*3 5 C 0 km/h
967 01-04-2010 02:25:04 5.1 C 3.49 g/m*3 5.1 C 0 km/h
968 01-04-2010 02:37:04 5 C 3.47 g/m*3 5 C 0 km/h
969 01-04-2010 02:49:04 4.6 C 3.44 g/m*3 4.6 C 0 km/h
970 01-04-2010 03:01:04 4.4 C 3.46 g/m*3 4.4 C 0 km/h
971 01-04-2010 03:13:04 4.7 C 3.46 g/m*3 4.7 C 0 km/h
972 01-04-2010 03:25:04 4.7 C 3.46 g/m*3 4.7 C 0 km/h
973 01-04-2010 03:37:04 4.4 C 3.33 g/m*3 4.4 C 0 km/h
974 01-04-2010 03:49:04 4.2 C 3.35 g/m*3 4.2 C 0 km/h
975 01-04-2010 04:01:04 4.2 C 3.41 g/m*3 4.2 C 0 km/h
Sensor: Nr:Datum:Temp:Abs-Feuchte:Windchill:Wind:
Aussen-T/F 976 01-04-2010 04:13:04 3.8 C 3.45 g/m*3 3.8 C 0 km/h
977 01-04-2010 04:25:04 3.9 C 3.54 g/m*3 3.9 C 0 km/h
978 01-04-2010 04:37:04 3.8 C 3.45 g/m*3 3.8 C 0 km/h
979 01-04-2010 04:49:04 3.8 C 3.45 g/m*3 3.8 C 0 km/h
980 01-04-2010 05:01:04 3.5 C 3.44 g/m*3 3.5 C 0 km/h
981 01-04-2010 05:13:04 3.6 C 3.53 g/m*3 3.6 C 0 km/h
982 01-04-2010 05:25:04 3.6 C 3.53 g/m*3 3.6 C 0 km/h
983 01-04-2010 05:37:04 3.5 C 3.5 g/m*3 3.5 C 0 km/h
984 01-04-2010 05:49:05 3.5 C 3.57 g/m*3 3.5 C 0 km/h
985 01-04-2010 06:01:05 3.6 C 3.53 g/m*3 3.6 C 0 km/h
986 01-04-2010 06:13:05 3.5 C 3.5 g/m*3 3.5 C 0 km/h
987 01-04-2010 06:25:05 3.5 C 3.5 g/m*3 3.5 C 0 km/h
988 01-04-2010 06:37:05 3.5 C 3.5 g/m*3 3.5 C 0 km/h
989 01-04-2010 06:49:05 3.2 C 3.56 g/m*3 3.2 C 0 km/h
990 01-04-2010 07:01:03 3.5 C 3.69 g/m*3 3.5 C 0 km/h
991 01-04-2010 07:13:03 3.5 C 3.69 g/m*3 3.5 C 0 km/h
992 01-04-2010 07:25:03 3.3 C 3.64 g/m*3 3.3 C 0 km/h
993 01-04-2010 07:37:02 3.3 C 3.64 g/m*3 3.3 C 0 km/h
994 01-04-2010 07:49:02 3.4 C 3.66 g/m*3 3.4 C 0 km/h
995 01-04-2010 08:01:01 3.4 C 3.66 g/m*3 3.4 C 0 km/h
996 01-04-2010 08:13:01 3.5 C 3.69 g/m*3 3.5 C 0 km/h
997 01-04-2010 08:25:02 3.5 C 3.63 g/m*3 3.5 C 0 km/h
998 01-04-2010 08:37:01 3.5 C 3.69 g/m*3 3.5 C 0 km/h
999 01-04-2010 08:49:02 3.8 C 3.7 g/m*3 3.8 C 0 km/h
1000 01-04-2010 09:01:02 3.9 C 3.73 g/m*3 3.9 C 0 km/h
Sensor: Nr:Datum:Temp:Abs-Feuchte:Windchill:Wind:
Aussen-T/F 1001 01-04-2010 09:13:02 4.2 C 3.67 g/m*3 4.2 C 0 km/h
1002 01-04-2010 09:25:02 4.5 C 3.68 g/m*3 4.5 C 0 km/h
1003 01-04-2010 09:37:03 5.2 C 3.72 g/m*3 5.2 C 0 km/h
1004 01-04-2010 09:49:02 5.2 C 3.65 g/m*3 5.2 C 0 km/h
1005 01-04-2010 10:01:02 5.1 C 3.69 g/m*3 5.1 C 0 km/h
1006 01-04-2010 10:13:02 5.2 C 3.72 g/m*3 5.2 C 0 km/h
1007 01-04-2010 10:25:02 5.3 C 3.67 g/m*3 5.3 C 0 km/h
1008 01-04-2010 10:37:02 5.6 C 3.68 g/m*3 5.6 C 0 km/h
1009 01-04-2010 10:49:02 6.1 C 3.65 g/m*3 6.1 C 0 km/h
1010 01-04-2010 11:01:02 6.7 C 3.57 g/m*3 6.7 C 0 km/h
1011 01-04-2010 11:13:02 6.9 C 3.46 g/m*3 6.9 C 0 km/h
1012 01-04-2010 11:25:02 6.9 C 3.31 g/m*3 6.9 C 0 km/h
1013 01-04-2010 11:37:02 7.2 C 3.45 g/m*3 7.2 C 0 km/h
1014 01-04-2010 11:49:02 7.5 C 3.52 g/m*3 7.5 C 0 km/h
1015 01-04-2010 12:01:02 8 C 3.39 g/m*3 8 C 0 km/h
1016 01-04-2010 12:13:03 7.9 C 3.29 g/m*3 7.9 C 0 km/h
1017 01-04-2010 12:25:02 7.7 C 3.32 g/m*3 7.7 C 0 km/h
1018 01-04-2010 12:37:02 8 C 3.22 g/m*3 8 C 0 km/h
1019 01-04-2010 12:49:02 9.1 C 3.28 g/m*3 9.1 C 0 km/h
1020 01-04-2010 13:01:02 8.7 C 2.94 g/m*3 8.7 C 0 km/h
1021 01-04-2010 13:13:02 8.5 C 2.73 g/m*3 8.5 C 0 km/h
1022 01-04-2010 13:25:03 8.8 C 2.96 g/m*3 8.8 C 0 km/h
1023 01-04-2010 13:37:02 9.3 C 2.79 g/m*3 9.3 C 0 km/h
1024 01-04-2010 13:49:02 9 C 2.73 g/m*3 9 C 0 km/h
1025 01-04-2010 14:01:02 8.8 C 2.7 g/m*3 8.8 C 0 km/h
Sensor: Nr:Datum:Temp:Abs-Feuchte:Windchill:Wind:
Aussen-T/F 1026 01-04-2010 14:13:02 8.9 C 2.8 g/m*3 8.9 C 0 km/h
1027 01-04-2010 14:25:02 10.2 C 2.66 g/m*3 10.2 C 0 km/h
1028 01-04-2010 14:37:02 11 C 2.6 g/m*3 11 C 0 km/h
1029 01-04-2010 14:49:02 8.2 C 3.43 g/m*3 8.2 C 0 km/h
1030 01-04-2010 15:01:01 8.7 C 3.81 g/m*3 8.7 C 0 km/h
1031 01-04-2010 15:13:01 9.7 C 3.69 g/m*3 9.7 C 0 km/h
1032 01-04-2010 15:25:02 10.7 C 3.54 g/m*3 10.7 C 0 km/h
1033 01-04-2010 15:37:01 10.6 C 3.32 g/m*3 10.6 C 0 km/h
1034 01-04-2010 15:49:02 10.5 C 2.91 g/m*3 10.5 C 0 km/h
1035 01-04-2010 16:01:01 10.4 C 2.89 g/m*3 10.4 C 0 km/h
1036 01-04-2010 16:13:01 10.8 C 2.97 g/m*3 10.8 C 0 km/h
1037 01-04-2010 16:25:01 10.4 C 2.89 g/m*3 10.4 C 0 km/h
1038 01-04-2010 16:37:02 10.4 C 2.99 g/m*3 10.4 C 0 km/h
1039 01-04-2010 16:49:02 11 C 3.1 g/m*3 11 C 0 km/h
1040 01-04-2010 17:01:02 11 C 2.8 g/m*3 11 C 0 km/h
1041 01-04-2010 17:13:02 10.7 C 2.75 g/m*3 10.7 C 0 km/h
1042 01-04-2010 17:25:02 9.9 C 2.61 g/m*3 9.9 C 0 km/h
1043 01-04-2010 17:37:02 9.2 C 3.04 g/m*3 9.2 C 0 km/h
1044 01-04-2010 17:49:02 8.3 C 3.54 g/m*3 8.3 C 0 km/h
1045 01-04-2010 18:01:02 8.1 C 3.41 g/m*3 8.1 C 0 km/h
1046 01-04-2010 18:13:02 9.8 C 3.25 g/m*3 9.8 C 0 km/h
1047 01-04-2010 18:25:02 8.4 C 3.31 g/m*3 8.4 C 0 km/h
1048 01-04-2010 18:37:02 7.8 C 3.43 g/m*3 7.8 C 0 km/h
1049 01-04-2010 18:49:02 5.4 C 3.28 g/m*3 5.4 C 0 km/h
1050 01-04-2010 19:01:02 5.8 C 5.52 g/m*3 5.8 C 0 km/h
Sensor: Nr:Datum:Temp:Abs-Feuchte:Windchill:Wind:
Aussen-T/F 1051 01-04-2010 19:13:03 6.4 C 5.51 g/m*3 6.4 C 0 km/h
1052 01-04-2010 19:25:02 6.7 C 5.24 g/m*3 6.7 C 0 km/h
1053 01-04-2010 19:37:02 6.5 C 4.8 g/m*3 6.5 C 0 km/h
1054 01-04-2010 19:49:01 5.8 C 4.58 g/m*3 5.8 C 0 km/h
1055 01-04-2010 20:01:02 5.3 C 4.44 g/m*3 5.3 C 0 km/h
1056 01-04-2010 20:13:02 5 C 4.35 g/m*3 5 C 0 km/h
1057 01-04-2010 20:25:01 4.7 C 4.53 g/m*3 4.7 C 0 km/h
1058 01-04-2010 20:37:01 4.5 C 4.54 g/m*3 4.5 C 0 km/h
1059 01-04-2010 20:49:01 4.2 C 4.51 g/m*3 4.2 C 0 km/h
1060 01-04-2010 21:01:02 4.1 C 4.48 g/m*3 4.1 C 0 km/h
1061 01-04-2010 21:13:02 3.9 C 4.48 g/m*3 3.9 C 0 km/h
1062 01-04-2010 21:25:01 3.7 C 4.42 g/m*3 3.7 C 0 km/h
1063 01-04-2010 21:37:01 3.6 C 4.46 g/m*3 3.6 C 0 km/h
1064 01-04-2010 21:49:01 3.5 C 4.43 g/m*3 3.5 C 0 km/h
1065 01-04-2010 22:01:02 3.2 C 4.46 g/m*3 3.2 C 0 km/h
1066 01-04-2010 22:13:02 3.2 C 4.46 g/m*3 3.2 C 0 km/h
1067 01-04-2010 22:25:01 3.2 C 4.46 g/m*3 3.2 C 0 km/h
1068 01-04-2010 22:37:02 3.1 C 4.43 g/m*3 3.1 C 0 km/h
1069 01-04-2010 22:50:02 3 C 4.46 g/m*3 3 C 0 km/h
1070 01-04-2010 23:02:02 2.8 C 4.46 g/m*3 2.8 C 0 km/h
1071 01-04-2010 23:14:02 2.6 C 4.46 g/m*3 2.6 C 0 km/h
1072 01-04-2010 23:26:02 2.5 C 4.48 g/m*3 2.5 C 0 km/h
1073 01-04-2010 23:38:02 2.4 C 4.45 g/m*3 2.4 C 0 km/h
1074 01-04-2010 23:50:02 2.3 C 4.42 g/m*3 2.3 C 0 km/h
1075 02-04-2010 00:02:02 2.3 C 4.48 g/m*3 2.3 C 0 km/h
Sensor: Nr:Datum:Temp:Abs-Feuchte:Windchill:Wind:
Aussen-T/F 1076 02-04-2010 00:14:02 2.1 C 4.42 g/m*3 2.1 C 0 km/h
1077 02-04-2010 00:26:02 1.9 C 4.42 g/m*3 1.9 C 0 km/h
1078 02-04-2010 00:38:02 1.8 C 4.44 g/m*3 1.8 C 0 km/h
1079 02-04-2010 00:50:02 1.6 C 4.38 g/m*3 1.6 C 0 km/h
1080 02-04-2010 01:02:02 1.4 C 4.37 g/m*3 1.4 C 0 km/h
1081 02-04-2010 01:14:02 1.2 C 4.31 g/m*3 1.2 C 0 km/h
1082 02-04-2010 01:26:02 1.1 C 4.29 g/m*3 1.1 C 0 km/h
1083 02-04-2010 01:38:02 0.9 C 4.28 g/m*3 0.9 C 0 km/h
1084 02-04-2010 01:50:02 0.7 C 4.22 g/m*3 0.7 C 0 km/h
1085 02-04-2010 02:02:02 0.6 C 4.19 g/m*3 0.6 C 0 km/h
1086 02-04-2010 02:14:02 0.6 C 4.24 g/m*3 0.6 C 0 km/h
1087 02-04-2010 02:26:02 0.5 C 4.26 g/m*3 0.5 C 0 km/h
1088 02-04-2010 02:38:03 0.4 C 4.23 g/m*3 0.4 C 0 km/h
1089 02-04-2010 02:50:03 0.1 C 4.15 g/m*3 0.1 C 0 km/h
1090 02-04-2010 03:02:03 0.1 C 4.15 g/m*3 0.1 C 0 km/h
1091 02-04-2010 03:14:03 -0.1 C 4.14 g/m*3 -0.1 C 0 km/h
1092 02-04-2010 03:26:03 -0.1 C 4.14 g/m*3 -0.1 C 0 km/h
1093 02-04-2010 03:38:03 -0.2 C 4.16 g/m*3 -0.2 C 0 km/h
1094 02-04-2010 03:50:03 -0.3 C 4.13 g/m*3 -0.3 C 0 km/h
1095 02-04-2010 04:02:03 -0.3 C 4.13 g/m*3 -0.3 C 0 km/h
1096 02-04-2010 04:14:03 -0.5 C 4.07 g/m*3 -0.5 C 0 km/h
1097 02-04-2010 04:26:03 -0.4 C 4.1 g/m*3 -0.4 C 0 km/h
1098 02-04-2010 04:38:03 -0.5 C 4.12 g/m*3 -0.5 C 0 km/h
1099 02-04-2010 04:50:03 -0.8 C 3.99 g/m*3 -0.8 C 0 km/h
1100 02-04-2010 05:02:03 -0.9 C 3.96 g/m*3 -0.9 C 0 km/h
Sensor: Nr:Datum:Temp:Abs-Feuchte:Windchill:Wind:
Aussen-T/F 1101 02-04-2010 05:14:03 -0.9 C 4.01 g/m*3 -0.9 C 0 km/h
1102 02-04-2010 05:26:03 -1 C 3.98 g/m*3 -1 C 0 km/h
1103 02-04-2010 05:38:03 -1 C 3.98 g/m*3 -1 C 0 km/h
1104 02-04-2010 05:50:03 -0.9 C 4.05 g/m*3 -0.9 C 0 km/h
1105 02-04-2010 06:02:03 -1 C 4.02 g/m*3 -1 C 0 km/h
1106 02-04-2010 06:14:03 -1 C 4.07 g/m*3 -1 C 0 km/h
1107 02-04-2010 06:26:03 -1 C 4.07 g/m*3 -1 C 0 km/h
1108 02-04-2010 06:38:04 -1 C 4.11 g/m*3 -1 C 0 km/h
1109 02-04-2010 06:50:04 -1 C 4.11 g/m*3 -1 C 0 km/h
1110 02-04-2010 07:02:04 -1 C 4.11 g/m*3 -1 C 0 km/h
1111 02-04-2010 07:14:04 -0.9 C 4.19 g/m*3 -0.9 C 0 km/h
1112 02-04-2010 07:26:04 -0.9 C 4.19 g/m*3 -0.9 C 0 km/h
1113 02-04-2010 07:38:04 -0.8 C 4.22 g/m*3 -0.8 C 0 km/h
1114 02-04-2010 07:50:04 -0.9 C 4.19 g/m*3 -0.9 C 0 km/h
1115 02-04-2010 08:02:04 -0.4 C 4.34 g/m*3 -0.4 C 0 km/h
1116 02-04-2010 08:14:04 -0.3 C 4.41 g/m*3 -0.3 C 0 km/h
1117 02-04-2010 08:26:04 -0.1 C 4.43 g/m*3 -0.1 C 0 km/h
1118 02-04-2010 08:38:04 0.3 C 4.55 g/m*3 0.3 C 0 km/h
1119 02-04-2010 08:50:04 0.2 C 4.52 g/m*3 0.2 C 0 km/h
1120 02-04-2010 09:02:04 0.3 C 4.5 g/m*3 0.3 C 0 km/h
1121 02-04-2010 09:14:04 0.7 C 4.58 g/m*3 0.7 C 0 km/h
1122 02-04-2010 09:26:02 1.2 C 4.68 g/m*3 1.2 C 0 km/h
1123 02-04-2010 09:38:02 1.5 C 4.73 g/m*3 1.5 C 0 km/h
1124 02-04-2010 09:50:01 1.8 C 4.77 g/m*3 1.8 C 0 km/h
1125 02-04-2010 10:02:02 2.2 C 4.79 g/m*3 2.2 C 0 km/h
Sensor: Nr:Datum:Temp:Abs-Feuchte:Windchill:Wind:
Aussen-T/F 1126 02-04-2010 10:14:02 2.7 C 4.89 g/m*3 2.7 C 0 km/h
1127 02-04-2010 10:26:02 3.3 C 4.97 g/m*3 3.3 C 0 km/h
1128 02-04-2010 10:38:01 4.2 C 5.22 g/m*3 4.2 C 0 km/h
1129 02-04-2010 10:50:01 5 C 5.37 g/m*3 5 C 0 km/h
1130 02-04-2010 11:02:01 5.7 C 5.34 g/m*3 5.7 C 0 km/h
1131 02-04-2010 11:14:01 6.9 C 5.62 g/m*3 6.9 C 0 km/h
1132 02-04-2010 11:26:02 8.1 C 4.83 g/m*3 8.1 C 0 km/h
1133 02-04-2010 11:38:01 9 C 4.67 g/m*3 9 C 0 km/h
1134 02-04-2010 11:50:02 9.9 C 4.67 g/m*3 9.9 C 0 km/h
1135 02-04-2010 12:02:02 10 C 4.23 g/m*3 10 C 0 km/h
1136 02-04-2010 12:14:02 10.3 C 4.21 g/m*3 10.3 C 0 km/h
1137 02-04-2010 12:26:02 10.5 C 4.07 g/m*3 10.5 C 0 km/h
1138 02-04-2010 12:38:02 10.9 C 4.08 g/m*3 10.9 C 0 km/h
1139 02-04-2010 12:50:02 11.4 C 4 g/m*3 11.4 C 0 km/h
1140 02-04-2010 13:02:02 11.3 C 3.88 g/m*3 11.3 C 0 km/h
1141 02-04-2010 13:14:02 11.7 C 3.66 g/m*3 11.7 C 0 km/h
1142 02-04-2010 13:26:02 11.5 C 3.41 g/m*3 11.5 C 0 km/h
1143 02-04-2010 13:38:02 11.7 C 3.45 g/m*3 11.7 C 0 km/h
1144 02-04-2010 13:50:01 12.5 C 3.52 g/m*3 12.5 C 0 km/h
1145 02-04-2010 14:02:02 12.5 C 3.41 g/m*3 12.5 C 0 km/h
1146 02-04-2010 14:14:02 12.1 C 3.32 g/m*3 12.1 C 0 km/h
1147 02-04-2010 14:26:01 12.8 C 3.36 g/m*3 12.8 C 0 km/h
1148 02-04-2010 14:38:02 12.7 C 3.23 g/m*3 12.7 C 0 km/h
1149 02-04-2010 14:50:02 13.6 C 3.18 g/m*3 13.6 C 0 km/h
1150 02-04-2010 15:02:02 12.7 C 3.01 g/m*3 12.7 C 0 km/h
Sensor: Nr:Datum:Temp:Abs-Feuchte:Windchill:Wind:
Aussen-T/F 1151 02-04-2010 15:14:02 12.5 C 3.08 g/m*3 12.5 C 0 km/h
1152 02-04-2010 15:26:01 13.6 C 3.06 g/m*3 13.6 C 0 km/h
1153 02-04-2010 15:38:02 12.8 C 3.14 g/m*3 12.8 C 0 km/h
1154 02-04-2010 15:50:02 14.4 C 3.21 g/m*3 14.4 C 0 km/h
1155 02-04-2010 16:02:02 13.7 C 2.72 g/m*3 13.7 C 0 km/h
1156 02-04-2010 16:14:02 14.5 C 2.86 g/m*3 14.5 C 0 km/h
1157 02-04-2010 16:26:01 14.8 C 2.53 g/m*3 14.8 C 0 km/h
1158 02-04-2010 16:38:02 15.6 C 2.66 g/m*3 15.6 C 0 km/h
1159 02-04-2010 16:50:02 14.6 C 2.5 g/m*3 14.6 C 0 km/h
1160 02-04-2010 17:02:02 15.2 C 2.6 g/m*3 15.2 C 0 km/h
1161 02-04-2010 17:14:02 16.6 C 2.83 g/m*3 16.6 C 0 km/h
1162 02-04-2010 17:26:02 15.9 C 2.71 g/m*3 15.9 C 0 km/h
1163 02-04-2010 17:38:02 16 C 2.72 g/m*3 16 C 0 km/h
1164 02-04-2010 17:50:02 15.1 C 2.58 g/m*3 15.1 C 0 km/h
1165 02-04-2010 18:02:02 13.8 C 2.38 g/m*3 13.8 C 0 km/h
1166 02-04-2010 18:14:02 13.3 C 2.31 g/m*3 13.3 C 0 km/h
1167 02-04-2010 18:26:02 13.1 C 2.28 g/m*3 13.1 C 0 km/h
1168 02-04-2010 18:38:02 12.8 C 2.24 g/m*3 12.8 C 0 km/h
1169 02-04-2010 18:50:02 12.3 C 2.39 g/m*3 12.3 C 0 km/h
1170 02-04-2010 19:02:01 12.2 C 2.7 g/m*3 12.2 C 0 km/h
1171 02-04-2010 19:14:01 12 C 2.77 g/m*3 12 C 0 km/h
1172 02-04-2010 19:26:02 11.8 C 2.84 g/m*3 11.8 C 0 km/h
1173 02-04-2010 19:38:01 11.6 C 3.01 g/m*3 11.6 C 0 km/h
1174 02-04-2010 19:50:02 11.4 C 2.98 g/m*3 11.4 C 0 km/h
1175 02-04-2010 20:02:01 11.3 C 3.06 g/m*3 11.3 C 0 km/h
Sensor: Nr:Datum:Temp:Abs-Feuchte:Windchill:Wind:
Aussen-T/F 1176 02-04-2010 20:14:01 11.1 C 3.02 g/m*3 11.1 C 0 km/h
1177 02-04-2010 20:26:01 10.8 C 3.06 g/m*3 10.8 C 0 km/h
1178 02-04-2010 20:38:02 10.7 C 3.24 g/m*3 10.7 C 0 km/h
1179 02-04-2010 20:50:02 10.7 C 3.04 g/m*3 10.7 C 0 km/h
1180 02-04-2010 21:02:02 10.7 C 3.14 g/m*3 10.7 C 0 km/h
1181 02-04-2010 21:14:02 10.5 C 3.3 g/m*3 10.5 C 0 km/h
1182 02-04-2010 21:26:02 10.3 C 3.26 g/m*3 10.3 C 0 km/h
1183 02-04-2010 21:38:02 10.3 C 3.35 g/m*3 10.3 C 0 km/h
1184 02-04-2010 21:50:01 10 C 3.38 g/m*3 10 C 0 km/h
1185 02-04-2010 22:02:01 9.7 C 3.5 g/m*3 9.7 C 0 km/h
1186 02-04-2010 22:14:01 9.5 C 3.64 g/m*3 9.5 C 0 km/h
1187 02-04-2010 22:26:02 9.6 C 3.66 g/m*3 9.6 C 0 km/h
1188 02-04-2010 22:38:01 9.8 C 3.71 g/m*3 9.8 C 0 km/h
1189 02-04-2010 22:50:03 9.9 C 3.83 g/m*3 9.9 C 0 km/h
1190 02-04-2010 23:02:02 9.4 C 4.25 g/m*3 9.4 C 0 km/h
1191 02-04-2010 23:14:02 9 C 4.76 g/m*3 9 C 0 km/h
1192 02-04-2010 23:26:02 8.7 C 4.84 g/m*3 8.7 C 0 km/h
1193 02-04-2010 23:38:02 8.3 C 5.06 g/m*3 8.3 C 0 km/h
1194 02-04-2010 23:50:02 8.1 C 5.33 g/m*3 8.1 C 0 km/h
1195 03-04-2010 00:02:02 8 C 5.37 g/m*3 8 C 0 km/h
1196 03-04-2010 00:14:02 7.6 C 5.8 g/m*3 7.6 C 0 km/h
1197 03-04-2010 00:26:02 7.4 C 6.12 g/m*3 7.4 C 0 km/h
1198 03-04-2010 00:38:02 7.4 C 6.28 g/m*3 7.4 C 0 km/h
1199 03-04-2010 00:50:02 7.4 C 6.36 g/m*3 7.4 C 0 km/h
1200 03-04-2010 01:02:01 7.3 C 6.32 g/m*3 7.3 C 0 km/h
Sensor: Nr:Datum:Temp:Abs-Feuchte:Windchill:Wind:
Aussen-T/F 1201 03-04-2010 01:14:01 7.2 C 6.28 g/m*3 7.2 C 0 km/h
1202 03-04-2010 01:26:02 7.4 C 6.36 g/m*3 7.4 C 0 km/h
1203 03-04-2010 01:38:02 7.3 C 6.24 g/m*3 7.3 C 0 km/h
1204 03-04-2010 01:50:02 7.3 C 6.24 g/m*3 7.3 C 0 km/h
1205 03-04-2010 02:02:03 7.3 C 6.24 g/m*3 7.3 C 0 km/h
1206 03-04-2010 02:14:03 7 C 6.04 g/m*3 7 C 0 km/h
1207 03-04-2010 02:26:02 7.1 C 6.16 g/m*3 7.1 C 0 km/h
1208 03-04-2010 02:38:02 7.3 C 6.16 g/m*3 7.3 C 0 km/h
1209 03-04-2010 02:50:01 7.4 C 6.12 g/m*3 7.4 C 0 km/h
1210 03-04-2010 03:02:01 7.5 C 6.08 g/m*3 7.5 C 0 km/h
1211 03-04-2010 03:14:02 7.7 C 6 g/m*3 7.7 C 0 km/h
1212 03-04-2010 03:26:02 7.6 C 5.88 g/m*3 7.6 C 0 km/h
1213 03-04-2010 03:38:02 7.5 C 5.84 g/m*3 7.5 C 0 km/h
1214 03-04-2010 03:50:02 7.2 C 5.81 g/m*3 7.2 C 0 km/h
1215 03-04-2010 04:02:01 7.3 C 5.93 g/m*3 7.3 C 0 km/h
1216 03-04-2010 04:14:01 7.1 C 5.93 g/m*3 7.1 C 0 km/h
1217 03-04-2010 04:26:01 7 C 5.89 g/m*3 7 C 0 km/h
1218 03-04-2010 04:38:02 7 C 5.89 g/m*3 7 C 0 km/h
1219 03-04-2010 04:50:01 7.1 C 5.93 g/m*3 7.1 C 0 km/h
1220 03-04-2010 05:02:02 6.9 C 5.93 g/m*3 6.9 C 0 km/h
1221 03-04-2010 05:14:02 6.9 C 5.93 g/m*3 6.9 C 0 km/h
1222 03-04-2010 05:26:01 6.8 C 5.81 g/m*3 6.8 C 0 km/h
1223 03-04-2010 05:38:02 6.5 C 5.7 g/m*3 6.5 C 0 km/h
1224 03-04-2010 05:50:01 6.3 C 5.7 g/m*3 6.3 C 0 km/h
1225 03-04-2010 06:02:02 6.1 C 5.7 g/m*3 6.1 C 0 km/h
Sensor: Nr:Datum:Temp:Abs-Feuchte:Windchill:Wind:
Aussen-T/F 1226 03-04-2010 06:14:02 6.4 C 5.81 g/m*3 6.4 C 0 km/h
1227 03-04-2010 06:26:01 6.5 C 5.85 g/m*3 6.5 C 0 km/h
1228 03-04-2010 06:38:01 6.6 C 5.89 g/m*3 6.6 C 0 km/h
1229 03-04-2010 06:50:01 6.8 C 5.97 g/m*3 6.8 C 0 km/h
1230 03-04-2010 07:02:01 6.6 C 5.81 g/m*3 6.6 C 0 km/h
1231 03-04-2010 07:14:02 6.4 C 5.81 g/m*3 6.4 C 0 km/h
1232 03-04-2010 07:26:01 6.4 C 5.81 g/m*3 6.4 C 0 km/h
1233 03-04-2010 07:38:01 6.6 C 5.89 g/m*3 6.6 C 0 km/h
1234 03-04-2010 07:50:01 6.7 C 5.85 g/m*3 6.7 C 0 km/h
1235 03-04-2010 08:02:01 7.1 C 5.85 g/m*3 7.1 C 0 km/h
1236 03-04-2010 08:14:01 7.5 C 5.76 g/m*3 7.5 C 0 km/h
1237 03-04-2010 08:26:01 7.8 C 5.71 g/m*3 7.8 C 0 km/h
1238 03-04-2010 08:38:01 8 C 5.54 g/m*3 8 C 0 km/h
1239 03-04-2010 08:50:01 8.6 C 5.59 g/m*3 8.6 C 0 km/h
1240 03-04-2010 09:02:01 8.9 C 5.43 g/m*3 8.9 C 0 km/h
1241 03-04-2010 09:14:01 9.2 C 5.45 g/m*3 9.2 C 0 km/h
1242 03-04-2010 09:26:01 9.4 C 5.43 g/m*3 9.4 C 0 km/h
1243 03-04-2010 09:38:01 9.9 C 5.51 g/m*3 9.9 C 0 km/h
1244 03-04-2010 09:50:01 10.2 C 5.42 g/m*3 10.2 C 0 km/h
1245 03-04-2010 10:02:01 10.3 C 5.27 g/m*3 10.3 C 0 km/h
1246 03-04-2010 10:14:01 10.4 C 5.3 g/m*3 10.4 C 0 km/h
1247 03-04-2010 10:26:01 10.6 C 5.27 g/m*3 10.6 C 0 km/h
1248 03-04-2010 10:38:01 10.9 C 5.27 g/m*3 10.9 C 0 km/h
1249 03-04-2010 10:50:01 10.9 C 5.17 g/m*3 10.9 C 0 km/h
1250 03-04-2010 11:02:01 11.2 C 4.87 g/m*3 11.2 C 0 km/h
Sensor: Nr:Datum:Temp:Abs-Feuchte:Windchill:Wind:
Aussen-T/F 1251 03-04-2010 11:14:01 11.4 C 4.93 g/m*3 11.4 C 0 km/h
1252 03-04-2010 11:26:02 11.9 C 5.19 g/m*3 11.9 C 0 km/h
1253 03-04-2010 11:38:01 11.9 C 4.98 g/m*3 11.9 C 0 km/h
1254 03-04-2010 11:50:02 12.2 C 4.86 g/m*3 12.2 C 0 km/h
1255 03-04-2010 12:02:01 11.9 C 4.77 g/m*3 11.9 C 0 km/h
1256 03-04-2010 12:14:01 11.9 C 4.77 g/m*3 11.9 C 0 km/h
1257 03-04-2010 12:26:02 11.8 C 4.84 g/m*3 11.8 C 0 km/h
1258 03-04-2010 12:38:01 12.2 C 4.75 g/m*3 12.2 C 0 km/h
1259 03-04-2010 12:50:02 12.2 C 4.64 g/m*3 12.2 C 0 km/h
1260 03-04-2010 13:02:01 11.5 C 4.85 g/m*3 11.5 C 0 km/h
1261 03-04-2010 13:14:01 10.9 C 5.17 g/m*3 10.9 C 0 km/h
1262 03-04-2010 13:26:01 11.7 C 5.12 g/m*3 11.7 C 0 km/h
1263 03-04-2010 13:38:02 12.4 C 4.92 g/m*3 12.4 C 0 km/h
1264 03-04-2010 13:50:01 12.3 C 4.78 g/m*3 12.3 C 0 km/h
1265 03-04-2010 14:02:01 11.9 C 4.66 g/m*3 11.9 C 0 km/h
1266 03-04-2010 14:14:01 12.3 C 4.45 g/m*3 12.3 C 0 km/h
1267 03-04-2010 14:26:01 12.5 C 4.4 g/m*3 12.5 C 0 km/h
1268 03-04-2010 14:38:02 12.5 C 4.29 g/m*3 12.5 C 0 km/h
1269 03-04-2010 14:50:01 12.5 C 4.18 g/m*3 12.5 C 0 km/h
1270 03-04-2010 15:02:02 12.7 C 4.34 g/m*3 12.7 C 0 km/h
1271 03-04-2010 15:14:02 12.7 C 4.45 g/m*3 12.7 C 0 km/h
1272 03-04-2010 15:26:01 12.2 C 4.64 g/m*3 12.2 C 0 km/h
1273 03-04-2010 15:38:01 12.3 C 4.99 g/m*3 12.3 C 0 km/h
1274 03-04-2010 15:50:01 12.9 C 4.62 g/m*3 12.9 C 0 km/h
1275 03-04-2010 16:02:01 13.1 C 4.34 g/m*3 13.1 C 0 km/h
Sensor: Nr:Datum:Temp:Abs-Feuchte:Windchill:Wind:
Aussen-T/F 1276 03-04-2010 16:14:02 13.4 C 4.3 g/m*3 13.4 C 0 km/h
1277 03-04-2010 16:26:01 13.4 C 4.3 g/m*3 13.4 C 0 km/h
1278 03-04-2010 16:38:01 13.1 C 4.34 g/m*3 13.1 C 0 km/h
1279 03-04-2010 16:50:01 13.3 C 4.51 g/m*3 13.3 C 0 km/h
1280 03-04-2010 17:02:01 13.2 C 4.59 g/m*3 13.2 C 0 km/h
1281 03-04-2010 17:14:01 13.5 C 4.44 g/m*3 13.5 C 0 km/h
1282 03-04-2010 17:26:02 13.2 C 4.59 g/m*3 13.2 C 0 km/h
1283 03-04-2010 17:38:01 12.9 C 4.62 g/m*3 12.9 C 0 km/h
1284 03-04-2010 17:50:02 13.3 C 4.74 g/m*3 13.3 C 0 km/h
1285 03-04-2010 18:02:01 12.9 C 4.62 g/m*3 12.9 C 0 km/h
1286 03-04-2010 18:14:01 12 C 4.58 g/m*3 12 C 0 km/h
1287 03-04-2010 18:26:02 12.1 C 4.72 g/m*3 12.1 C 0 km/h
1288 03-04-2010 18:38:01 11.9 C 4.87 g/m*3 11.9 C 0 km/h
1289 03-04-2010 18:50:02 11.7 C 4.92 g/m*3 11.7 C 0 km/h
1290 03-04-2010 19:02:01 11.4 C 4.82 g/m*3 11.4 C 0 km/h
1291 03-04-2010 19:14:01 11.4 C 4.93 g/m*3 11.4 C 0 km/h
1292 03-04-2010 19:26:01 11.2 C 4.87 g/m*3 11.2 C 0 km/h
1293 03-04-2010 19:38:02 11.1 C 4.94 g/m*3 11.1 C 0 km/h
1294 03-04-2010 19:50:01 10.7 C 5.01 g/m*3 10.7 C 0 km/h
1295 03-04-2010 20:02:02 10.7 C 5.11 g/m*3 10.7 C 0 km/h
1296 03-04-2010 20:14:02 10.5 C 5.14 g/m*3 10.5 C 0 km/h
1297 03-04-2010 20:26:01 10.5 C 5.14 g/m*3 10.5 C 0 km/h
1298 03-04-2010 20:38:02 10.4 C 5.2 g/m*3 10.4 C 0 km/h
1299 03-04-2010 20:50:01 10.3 C 5.27 g/m*3 10.3 C 0 km/h
1300 03-04-2010 21:02:02 10.3 C 5.36 g/m*3 10.3 C 0 km/h
Sensor: Nr:Datum:Temp:Abs-Feuchte:Windchill:Wind:
Aussen-T/F 1301 03-04-2010 21:14:02 10.3 C 5.27 g/m*3 10.3 C 0 km/h
1302 03-04-2010 21:26:01 10.2 C 5.33 g/m*3 10.2 C 0 km/h
1303 03-04-2010 21:38:01 10.1 C 5.39 g/m*3 10.1 C 0 km/h
1304 03-04-2010 21:50:01 9.9 C 5.42 g/m*3 9.9 C 0 km/h
1305 03-04-2010 22:02:02 9.7 C 5.44 g/m*3 9.7 C 0 km/h
1306 03-04-2010 22:14:02 9.5 C 5.46 g/m*3 9.5 C 0 km/h
1307 03-04-2010 22:27:04 9.4 C 5.43 g/m*3 9.4 C 0 km/h
1308 03-04-2010 22:39:04 9.3 C 5.48 g/m*3 9.3 C 0 km/h
1309 03-04-2010 22:51:04 9.2 C 5.45 g/m*3 9.2 C 0 km/h
1310 03-04-2010 23:03:04 9.1 C 5.41 g/m*3 9.1 C 0 km/h
1311 03-04-2010 23:15:04 9.2 C 5.54 g/m*3 9.2 C 0 km/h
1312 03-04-2010 23:27:05 9.2 C 5.54 g/m*3 9.2 C 0 km/h
1313 03-04-2010 23:39:05 9.3 C 5.48 g/m*3 9.3 C 0 km/h
1314 03-04-2010 23:51:05 9 C 5.38 g/m*3 9 C 0 km/h
1315 04-04-2010 00:03:05 8.6 C 5.5 g/m*3 8.6 C 0 km/h
1316 04-04-2010 00:15:05 8.9 C 5.61 g/m*3 8.9 C 0 km/h
1317 04-04-2010 00:27:05 8.9 C 5.61 g/m*3 8.9 C 0 km/h
1318 04-04-2010 00:39:05 8.9 C 5.61 g/m*3 8.9 C 0 km/h
1319 04-04-2010 00:51:05 8.9 C 5.61 g/m*3 8.9 C 0 km/h
1320 04-04-2010 01:03:05 8.9 C 5.61 g/m*3 8.9 C 0 km/h
1321 04-04-2010 01:15:05 9 C 5.55 g/m*3 9 C 0 km/h
1322 04-04-2010 01:27:05 9 C 5.55 g/m*3 9 C 0 km/h
1323 04-04-2010 01:39:05 9 C 5.55 g/m*3 9 C 0 km/h
1324 04-04-2010 01:51:05 8.7 C 5.53 g/m*3 8.7 C 0 km/h
1325 04-04-2010 02:03:05 7.9 C 5.59 g/m*3 7.9 C 0 km/h
Sensor: Nr:Datum:Temp:Abs-Feuchte:Windchill:Wind:
Aussen-T/F 1326 04-04-2010 02:15:05 8.1 C 5.66 g/m*3 8.1 C 0 km/h
1327 04-04-2010 02:27:05 8 C 5.62 g/m*3 8 C 0 km/h
1328 04-04-2010 02:39:05 7.5 C 5.6 g/m*3 7.5 C 0 km/h
1329 04-04-2010 02:51:05 7.2 C 5.49 g/m*3 7.2 C 0 km/h
1330 04-04-2010 03:03:05 7 C 5.58 g/m*3 7 C 0 km/h
1331 04-04-2010 03:15:05 6.9 C 5.7 g/m*3 6.9 C 0 km/h
1332 04-04-2010 03:27:05 6.9 C 5.7 g/m*3 6.9 C 0 km/h
1333 04-04-2010 03:39:05 6.8 C 5.66 g/m*3 6.8 C 0 km/h
1334 04-04-2010 03:51:06 7.1 C 5.69 g/m*3 7.1 C 0 km/h
1335 04-04-2010 04:03:06 7.3 C 5.69 g/m*3 7.3 C 0 km/h
1336 04-04-2010 04:15:06 7.2 C 5.65 g/m*3 7.2 C 0 km/h
1337 04-04-2010 04:27:06 7.2 C 5.65 g/m*3 7.2 C 0 km/h
1338 04-04-2010 04:39:06 7.3 C 5.69 g/m*3 7.3 C 0 km/h
1339 04-04-2010 04:51:06 7.4 C 5.65 g/m*3 7.4 C 0 km/h
1340 04-04-2010 05:03:06 7.6 C 5.48 g/m*3 7.6 C 0 km/h
1341 04-04-2010 05:15:06 7.3 C 5.37 g/m*3 7.3 C 0 km/h
1342 04-04-2010 05:27:06 6.9 C 5.31 g/m*3 6.9 C 0 km/h
1343 04-04-2010 05:39:06 6.5 C 5.32 g/m*3 6.5 C 0 km/h
1344 04-04-2010 05:51:06 6.3 C 5.26 g/m*3 6.3 C 0 km/h
1345 04-04-2010 06:03:06 6.2 C 5.22 g/m*3 6.2 C 0 km/h
1346 04-04-2010 06:15:06 6.4 C 5.29 g/m*3 6.4 C 0 km/h
1347 04-04-2010 06:27:06 6.4 C 5.29 g/m*3 6.4 C 0 km/h
1348 04-04-2010 06:39:06 6.1 C 5.19 g/m*3 6.1 C 0 km/h
1349 04-04-2010 06:51:06 6.4 C 5.29 g/m*3 6.4 C 0 km/h
1350 04-04-2010 07:03:06 7 C 5.19 g/m*3 7 C 0 km/h
Sensor: Nr:Datum:Temp:Abs-Feuchte:Windchill:Wind:
Aussen-T/F 1351 04-04-2010 07:15:04 7.3 C 4.98 g/m*3 7.3 C 0 km/h
1352 04-04-2010 07:27:05 7.5 C 4.8 g/m*3 7.5 C 0 km/h
1353 04-04-2010 07:39:03 7.3 C 4.74 g/m*3 7.3 C 0 km/h
1354 04-04-2010 07:51:02 7.3 C 4.74 g/m*3 7.3 C 0 km/h
1355 04-04-2010 08:03:01 7.1 C 4.76 g/m*3 7.1 C 0 km/h
1356 04-04-2010 08:15:02 7.4 C 4.93 g/m*3 7.4 C 0 km/h
1357 04-04-2010 08:27:03 7.6 C 4.91 g/m*3 7.6 C 0 km/h
1358 04-04-2010 08:39:01 8.1 C 4.83 g/m*3 8.1 C 0 km/h
1359 04-04-2010 08:51:02 8.1 C 4.83 g/m*3 8.1 C 0 km/h
1360 04-04-2010 09:03:01 8.6 C 4.73 g/m*3 8.6 C 0 km/h
1361 04-04-2010 09:15:01 9.2 C 4.55 g/m*3 9.2 C 0 km/h
1362 04-04-2010 09:27:01 9.7 C 4.52 g/m*3 9.7 C 0 km/h
1363 04-04-2010 09:39:02 10.2 C 4.38 g/m*3 10.2 C 0 km/h
1364 04-04-2010 09:51:02 9.9 C 4.29 g/m*3 9.9 C 0 km/h
1365 04-04-2010 10:03:02 10.4 C 4.34 g/m*3 10.4 C 0 km/h
1366 04-04-2010 10:15:02 10.7 C 4.22 g/m*3 10.7 C 0 km/h
1367 04-04-2010 10:27:02 10.7 C 4.22 g/m*3 10.7 C 0 km/h
1368 04-04-2010 10:39:02 10.8 C 4.35 g/m*3 10.8 C 0 km/h
1369 04-04-2010 10:51:02 11 C 4.3 g/m*3 11 C 0 km/h
1370 04-04-2010 11:03:02 11.4 C 4.31 g/m*3 11.4 C 0 km/h
1371 04-04-2010 11:15:02 11.7 C 4.29 g/m*3 11.7 C 0 km/h
1372 04-04-2010 11:27:02 11.9 C 4.34 g/m*3 11.9 C 0 km/h
1373 04-04-2010 11:39:02 11.8 C 4.32 g/m*3 11.8 C 0 km/h
1374 04-04-2010 11:51:02 11.1 C 4.33 g/m*3 11.1 C 0 km/h
1375 04-04-2010 12:03:02 11.5 C 4.13 g/m*3 11.5 C 0 km/h
Sensor: Nr:Datum:Temp:Abs-Feuchte:Windchill:Wind:
Aussen-T/F 1376 04-04-2010 12:15:02 12.2 C 4.21 g/m*3 12.2 C 0 km/h
1377 04-04-2010 12:27:02 12.3 C 4.02 g/m*3 12.3 C 0 km/h
1378 04-04-2010 12:39:02 12.4 C 4.04 g/m*3 12.4 C 0 km/h
1379 04-04-2010 12:51:02 12.5 C 3.96 g/m*3 12.5 C 0 km/h
1380 04-04-2010 13:03:02 11.8 C 4.21 g/m*3 11.8 C 0 km/h
1381 04-04-2010 13:15:03 10.2 C 5.52 g/m*3 10.2 C 0 km/h
1382 04-04-2010 13:27:03 11.1 C 5.44 g/m*3 11.1 C 0 km/h
1383 04-04-2010 13:39:02 11.6 C 5.09 g/m*3 11.6 C 0 km/h
1384 04-04-2010 13:51:01 11.8 C 4.84 g/m*3 11.8 C 0 km/h
1385 04-04-2010 14:03:02 12.1 C 4.61 g/m*3 12.1 C 0 km/h
1386 04-04-2010 14:15:01 11.8 C 4.53 g/m*3 11.8 C 0 km/h
1387 04-04-2010 14:27:01 11.9 C 4.55 g/m*3 11.9 C 0 km/h
1388 04-04-2010 14:39:01 12.2 C 4.75 g/m*3 12.2 C 0 km/h
1389 04-04-2010 14:51:01 11.5 C 4.65 g/m*3 11.5 C 0 km/h
1390 04-04-2010 15:03:02 11.4 C 4.82 g/m*3 11.4 C 0 km/h
1391 04-04-2010 15:15:01 11.5 C 4.85 g/m*3 11.5 C 0 km/h
1392 04-04-2010 15:27:01 11.7 C 4.92 g/m*3 11.7 C 0 km/h
1393 04-04-2010 15:39:02 11.4 C 5.13 g/m*3 11.4 C 0 km/h
1394 04-04-2010 15:51:02 11.2 C 5.07 g/m*3 11.2 C 0 km/h
1395 04-04-2010 16:03:02 11 C 5 g/m*3 11 C 0 km/h
1396 04-04-2010 16:15:01 11.1 C 5.14 g/m*3 11.1 C 0 km/h
1397 04-04-2010 16:27:01 11.4 C 5.13 g/m*3 11.4 C 0 km/h
1398 04-04-2010 16:39:02 11.4 C 5.13 g/m*3 11.4 C 0 km/h
1399 04-04-2010 16:51:02 12.6 C 4.98 g/m*3 12.6 C 0 km/h
1400 04-04-2010 17:03:02 12.2 C 4.96 g/m*3 12.2 C 0 km/h
Sensor: Nr:Datum:Temp:Abs-Feuchte:Windchill:Wind:
Aussen-T/F 1401 04-04-2010 17:15:02 11.6 C 4.78 g/m*3 11.6 C 0 km/h
1402 04-04-2010 17:27:02 11.3 C 4.9 g/m*3 11.3 C 0 km/h
1403 04-04-2010 17:39:02 11.1 C 4.94 g/m*3 11.1 C 0 km/h
1404 04-04-2010 17:51:01 10.7 C 5.3 g/m*3 10.7 C 0 km/h
1405 04-04-2010 18:03:02 9.7 C 6.08 g/m*3 9.7 C 0 km/h
1406 04-04-2010 18:15:02 8.7 C 6.14 g/m*3 8.7 C 0 km/h
1407 04-04-2010 18:27:02 8.5 C 6.32 g/m*3 8.5 C 0 km/h
1408 04-04-2010 18:39:01 8.2 C 5.95 g/m*3 8.2 C 0 km/h
1409 04-04-2010 18:51:02 7.8 C 5.96 g/m*3 7.8 C 0 km/h
1410 04-04-2010 19:03:01 7.8 C 6.12 g/m*3 7.8 C 0 km/h
1411 04-04-2010 19:15:02 7.8 C 6.12 g/m*3 7.8 C 0 km/h
1412 04-04-2010 19:27:03 7.8 C 6.04 g/m*3 7.8 C 0 km/h
1413 04-04-2010 19:39:01 8.1 C 5.82 g/m*3 8.1 C 0 km/h
1414 04-04-2010 19:51:02 7.8 C 5.3 g/m*3 7.8 C 0 km/h
1415 04-04-2010 20:03:02 7.8 C 5.14 g/m*3 7.8 C 0 km/h
1416 04-04-2010 20:15:02 7.7 C 5.35 g/m*3 7.7 C 0 km/h
1417 04-04-2010 20:27:02 7.6 C 5.48 g/m*3 7.6 C 0 km/h
1418 04-04-2010 20:39:03 7.5 C 5.44 g/m*3 7.5 C 0 km/h
1419 04-04-2010 20:51:02 7.6 C 5.56 g/m*3 7.6 C 0 km/h
1420 04-04-2010 21:03:02 7.7 C 5.51 g/m*3 7.7 C 0 km/h
1421 04-04-2010 21:15:01 7.8 C 5.55 g/m*3 7.8 C 0 km/h
1422 04-04-2010 21:27:01 7.7 C 5.51 g/m*3 7.7 C 0 km/h
1423 04-04-2010 21:39:02 7.8 C 5.47 g/m*3 7.8 C 0 km/h
1424 04-04-2010 21:51:02 7.8 C 5.39 g/m*3 7.8 C 0 km/h
1425 04-04-2010 22:03:02 7.8 C 5.39 g/m*3 7.8 C 0 km/h
Sensor: Nr:Datum:Temp:Abs-Feuchte:Windchill:Wind:
Aussen-T/F 1426 04-04-2010 22:15:02 7.7 C 5.35 g/m*3 7.7 C 0 km/h
1427 04-04-2010 22:27:02 7.5 C 5.36 g/m*3 7.5 C 0 km/h
1428 04-04-2010 22:39:02 7.4 C 5.41 g/m*3 7.4 C 0 km/h
1429 04-04-2010 22:51:02 7.2 C 5.42 g/m*3 7.2 C 0 km/h
1430 04-04-2010 23:03:01 7.1 C 5.46 g/m*3 7.1 C 0 km/h
1431 04-04-2010 23:16:03 6.9 C 5.47 g/m*3 6.9 C 0 km/h
1432 04-04-2010 23:28:03 6.9 C 5.62 g/m*3 6.9 C 0 km/h
1433 04-04-2010 23:40:03 6.9 C 5.62 g/m*3 6.9 C 0 km/h
1434 04-04-2010 23:52:03 7 C 5.66 g/m*3 7 C 0 km/h
1435 05-04-2010 00:04:03 7 C 5.66 g/m*3 7 C 0 km/h
1436 05-04-2010 00:16:03 6.9 C 5.7 g/m*3 6.9 C 0 km/h
1437 05-04-2010 00:28:03 6.7 C 5.62 g/m*3 6.7 C 0 km/h
1438 05-04-2010 00:40:03 6.8 C 5.74 g/m*3 6.8 C 0 km/h
1439 05-04-2010 00:52:03 6.9 C 5.77 g/m*3 6.9 C 0 km/h
1440 05-04-2010 01:04:03 7 C 5.73 g/m*3 7 C 0 km/h
1441 05-04-2010 01:16:03 6.9 C 5.7 g/m*3 6.9 C 0 km/h
1442 05-04-2010 01:28:03 7 C 5.58 g/m*3 7 C 0 km/h
1443 05-04-2010 01:40:03 7 C 5.5 g/m*3 7 C 0 km/h
1444 05-04-2010 01:52:03 7 C 5.42 g/m*3 7 C 0 km/h
1445 05-04-2010 02:04:03 7 C 5.5 g/m*3 7 C 0 km/h
1446 05-04-2010 02:16:03 7 C 5.42 g/m*3 7 C 0 km/h
1447 05-04-2010 02:28:03 7 C 5.27 g/m*3 7 C 0 km/h
1448 05-04-2010 02:40:03 7 C 5.27 g/m*3 7 C 0 km/h
1449 05-04-2010 02:52:03 6.9 C 5.31 g/m*3 6.9 C 0 km/h
1450 05-04-2010 03:04:03 6.9 C 5.31 g/m*3 6.9 C 0 km/h
Sensor: Nr:Datum:Temp:Abs-Feuchte:Windchill:Wind:
Aussen-T/F 1451 05-04-2010 03:16:04 6.9 C 5.23 g/m*3 6.9 C 0 km/h
1452 05-04-2010 03:28:04 6.8 C 5.2 g/m*3 6.8 C 0 km/h
1453 05-04-2010 03:40:04 6.6 C 5.28 g/m*3 6.6 C 0 km/h
1454 05-04-2010 03:52:04 6.5 C 5.32 g/m*3 6.5 C 0 km/h
1455 05-04-2010 04:04:04 6.5 C 5.32 g/m*3 6.5 C 0 km/h
1456 05-04-2010 04:16:04 6.6 C 5.36 g/m*3 6.6 C 0 km/h
1457 05-04-2010 04:28:04 6.5 C 5.32 g/m*3 6.5 C 0 km/h
1458 05-04-2010 04:40:04 6.3 C 5.33 g/m*3 6.3 C 0 km/h
1459 05-04-2010 04:52:04 6 C 5.37 g/m*3 6 C 0 km/h
1460 05-04-2010 05:04:04 6 C 5.37 g/m*3 6 C 0 km/h
1461 05-04-2010 05:16:04 6.2 C 5.44 g/m*3 6.2 C 0 km/h
1462 05-04-2010 05:28:04 6.3 C 5.48 g/m*3 6.3 C 0 km/h
1463 05-04-2010 05:40:04 6.5 C 5.55 g/m*3 6.5 C 0 km/h
1464 05-04-2010 05:52:04 6.3 C 5.48 g/m*3 6.3 C 0 km/h
1465 05-04-2010 06:04:04 6.1 C 5.48 g/m*3 6.1 C 0 km/h
1466 05-04-2010 06:16:04 5.8 C 5.52 g/m*3 5.8 C 0 km/h
1467 05-04-2010 06:28:04 5.6 C 5.51 g/m*3 5.6 C 0 km/h
1468 05-04-2010 06:40:04 5.4 C 5.51 g/m*3 5.4 C 0 km/h
1469 05-04-2010 06:52:04 5.2 C 5.44 g/m*3 5.2 C 0 km/h
1470 05-04-2010 07:04:04 5.1 C 5.34 g/m*3 5.1 C 0 km/h
1471 05-04-2010 07:16:04 5 C 5.23 g/m*3 5 C 0 km/h
1472 05-04-2010 07:28:04 4.9 C 5.27 g/m*3 4.9 C 0 km/h
1473 05-04-2010 07:40:05 4.8 C 5.23 g/m*3 4.8 C 0 km/h
1474 05-04-2010 07:52:05 4.9 C 5.27 g/m*3 4.9 C 0 km/h
1475 05-04-2010 08:04:05 4.9 C 5.33 g/m*3 4.9 C 0 km/h
Sensor: Nr:Datum:Temp:Abs-Feuchte:Windchill:Wind:
Aussen-T/F 1476 05-04-2010 08:16:05 5 C 5.23 g/m*3 5 C 0 km/h
1477 05-04-2010 08:28:05 5.1 C 5.2 g/m*3 5.1 C 0 km/h
1478 05-04-2010 08:40:03 5.2 C 5.1 g/m*3 5.2 C 0 km/h
1479 05-04-2010 08:52:02 5.5 C 5.13 g/m*3 5.5 C 0 km/h
1480 05-04-2010 09:04:02 5.7 C 5.12 g/m*3 5.7 C 0 km/h
1481 05-04-2010 09:16:01 5.8 C 5.09 g/m*3 5.8 C 0 km/h
1482 05-04-2010 09:28:01 5.9 C 5.12 g/m*3 5.9 C 0 km/h
1483 05-04-2010 09:40:02 6.4 C 5.07 g/m*3 6.4 C 0 km/h
1484 05-04-2010 09:52:02 6.6 C 4.91 g/m*3 6.6 C 0 km/h
1485 05-04-2010 10:04:02 6.9 C 4.93 g/m*3 6.9 C 0 km/h
1486 05-04-2010 10:16:02 7.3 C 4.98 g/m*3 7.3 C 0 km/h
1487 05-04-2010 10:28:02 7.6 C 4.83 g/m*3 7.6 C 0 km/h
1488 05-04-2010 10:40:02 8 C 4.8 g/m*3 8 C 0 km/h
1489 05-04-2010 10:52:02 8.4 C 4.75 g/m*3 8.4 C 0 km/h
1490 05-04-2010 11:04:02 8.7 C 4.67 g/m*3 8.7 C 0 km/h
1491 05-04-2010 11:16:01 9.1 C 4.7 g/m*3 9.1 C 0 km/h
1492 05-04-2010 11:28:01 9.5 C 4.64 g/m*3 9.5 C 0 km/h
1493 05-04-2010 11:40:02 9.9 C 4.76 g/m*3 9.9 C 0 km/h
1494 05-04-2010 11:52:02 10.4 C 4.63 g/m*3 10.4 C 0 km/h
1495 05-04-2010 12:04:02 10.6 C 4.39 g/m*3 10.6 C 0 km/h
1496 05-04-2010 12:16:01 10.7 C 4.32 g/m*3 10.7 C 0 km/h
1497 05-04-2010 12:28:01 11.3 C 4.08 g/m*3 11.3 C 0 km/h
1498 05-04-2010 12:40:02 11.5 C 3.93 g/m*3 11.5 C 0 km/h
1499 05-04-2010 12:52:02 11.4 C 4 g/m*3 11.4 C 0 km/h
1500 05-04-2010 13:04:02 11.7 C 3.97 g/m*3 11.7 C 0 km/h
Sensor: Nr:Datum:Temp:Abs-Feuchte:Windchill:Wind:
Aussen-T/F 1501 05-04-2010 13:16:02 11.7 C 3.97 g/m*3 11.7 C 0 km/h
1502 05-04-2010 13:28:02 11.9 C 3.92 g/m*3 11.9 C 0 km/h
1503 05-04-2010 13:40:02 12.4 C 3.82 g/m*3 12.4 C 0 km/h
1504 05-04-2010 13:52:02 12.3 C 3.26 g/m*3 12.3 C 0 km/h
1505 05-04-2010 14:04:02 12.3 C 3.26 g/m*3 12.3 C 0 km/h
1506 05-04-2010 14:16:02 12.8 C 3.36 g/m*3 12.8 C 0 km/h
1507 05-04-2010 14:28:02 12.8 C 3.25 g/m*3 12.8 C 0 km/h
1508 05-04-2010 14:40:02 12.6 C 3.32 g/m*3 12.6 C 0 km/h
1509 05-04-2010 14:52:01 12.8 C 3.25 g/m*3 12.8 C 0 km/h
1510 05-04-2010 15:04:02 13.1 C 2.97 g/m*3 13.1 C 0 km/h
1511 05-04-2010 15:16:02 13.6 C 2.94 g/m*3 13.6 C 0 km/h
1512 05-04-2010 15:28:02 13.6 C 2.71 g/m*3 13.6 C 0 km/h
1513 05-04-2010 15:40:02 13.9 C 2.64 g/m*3 13.9 C 0 km/h
1514 05-04-2010 15:52:02 14.5 C 2.49 g/m*3 14.5 C 0 km/h
1515 05-04-2010 16:04:01 14.6 C 2.5 g/m*3 14.6 C 0 km/h
1516 05-04-2010 16:16:02 14.1 C 2.43 g/m*3 14.1 C 0 km/h
1517 05-04-2010 16:28:03 15.4 C 2.63 g/m*3 15.4 C 0 km/h
1518 05-04-2010 16:40:01 13.8 C 2.38 g/m*3 13.8 C 0 km/h
1519 05-04-2010 16:52:02 13.8 C 2.38 g/m*3 13.8 C 0 km/h
1520 05-04-2010 17:04:01 14.8 C 2.53 g/m*3 14.8 C 0 km/h
1521 05-04-2010 17:16:01 15.7 C 2.68 g/m*3 15.7 C 0 km/h
1522 05-04-2010 17:28:01 15.8 C 2.69 g/m*3 15.8 C 0 km/h
1523 05-04-2010 17:40:02 15 C 2.56 g/m*3 15 C 0 km/h
1524 05-04-2010 17:52:02 13.8 C 2.38 g/m*3 13.8 C 0 km/h
1525 05-04-2010 18:04:02 13.1 C 2.62 g/m*3 13.1 C 0 km/h
Sensor: Nr:Datum:Temp:Abs-Feuchte:Windchill:Wind:
Aussen-T/F 1526 05-04-2010 18:16:01 12.8 C 2.8 g/m*3 12.8 C 0 km/h
1527 05-04-2010 18:28:01 12.5 C 2.97 g/m*3 12.5 C 0 km/h
1528 05-04-2010 18:40:02 12.6 C 2.88 g/m*3 12.6 C 0 km/h
1529 05-04-2010 18:52:02 12.3 C 2.93 g/m*3 12.3 C 0 km/h
1530 05-04-2010 19:04:02 12.1 C 3 g/m*3 12.1 C 0 km/h
1531 05-04-2010 19:16:02 12 C 2.98 g/m*3 12 C 0 km/h
1532 05-04-2010 19:28:02 11.9 C 3.07 g/m*3 11.9 C 0 km/h
1533 05-04-2010 19:40:02 11.8 C 3.16 g/m*3 11.8 C 0 km/h
1534 05-04-2010 19:52:02 11.8 C 3.16 g/m*3 11.8 C 0 km/h
1535 05-04-2010 20:04:02 11.7 C 3.24 g/m*3 11.7 C 0 km/h
1536 05-04-2010 20:16:02 11.6 C 3.22 g/m*3 11.6 C 0 km/h
1537 05-04-2010 20:28:02 11.4 C 3.39 g/m*3 11.4 C 0 km/h
1538 05-04-2010 20:40:02 11.3 C 3.37 g/m*3 11.3 C 0 km/h
1539 05-04-2010 20:52:01 11 C 3.4 g/m*3 11 C 0 km/h
1540 05-04-2010 21:04:01 10.8 C 3.56 g/m*3 10.8 C 0 km/h
1541 05-04-2010 21:16:02 10.6 C 3.61 g/m*3 10.6 C 0 km/h
1542 05-04-2010 21:28:02 10.2 C 3.62 g/m*3 10.2 C 0 km/h
1543 05-04-2010 21:40:01 9.7 C 3.69 g/m*3 9.7 C 0 km/h
1544 05-04-2010 21:52:01 9.1 C 3.64 g/m*3 9.1 C 0 km/h
1545 05-04-2010 22:04:01 8.8 C 3.57 g/m*3 8.8 C 0 km/h
1546 05-04-2010 22:16:02 8.8 C 3.57 g/m*3 8.8 C 0 km/h
1547 05-04-2010 22:28:02 8.4 C 3.56 g/m*3 8.4 C 0 km/h
1548 05-04-2010 22:41:02 8.1 C 3.58 g/m*3 8.1 C 0 km/h
1549 05-04-2010 22:53:02 8 C 3.64 g/m*3 8 C 0 km/h
1550 05-04-2010 23:05:02 7.6 C 3.87 g/m*3 7.6 C 0 km/h
Sensor: Nr:Datum:Temp:Abs-Feuchte:Windchill:Wind:
Aussen-T/F 1551 05-04-2010 23:17:02 7.3 C 3.87 g/m*3 7.3 C 0 km/h
1552 05-04-2010 23:29:02 7 C 3.87 g/m*3 7 C 0 km/h
1553 05-04-2010 23:41:02 7 C 3.95 g/m*3 7 C 0 km/h
1554 05-04-2010 23:53:02 6.8 C 3.98 g/m*3 6.8 C 0 km/h
1555 06-04-2010 00:05:02 6.5 C 3.9 g/m*3 6.5 C 0 km/h
1556 06-04-2010 00:17:02 6.3 C 4 g/m*3 6.3 C 0 km/h
1557 06-04-2010 00:29:02 6.1 C 4.02 g/m*3 6.1 C 0 km/h
1558 06-04-2010 00:41:02 5.9 C 4.11 g/m*3 5.9 C 0 km/h
1559 06-04-2010 00:53:02 5.8 C 4.08 g/m*3 5.8 C 0 km/h
1560 06-04-2010 01:05:02 5.6 C 4.03 g/m*3 5.6 C 0 km/h
1561 06-04-2010 01:17:02 5.4 C 3.98 g/m*3 5.4 C 0 km/h
1562 06-04-2010 01:29:02 5.3 C 4.02 g/m*3 5.3 C 0 km/h
1563 06-04-2010 01:41:02 5.2 C 4.06 g/m*3 5.2 C 0 km/h
1564 06-04-2010 01:53:02 5.1 C 4.1 g/m*3 5.1 C 0 km/h
1565 06-04-2010 02:05:03 5 C 4.08 g/m*3 5 C 0 km/h
1566 06-04-2010 02:17:03 4.7 C 4.13 g/m*3 4.7 C 0 km/h
1567 06-04-2010 02:29:03 4.5 C 4.21 g/m*3 4.5 C 0 km/h
1568 06-04-2010 02:41:03 4.3 C 4.15 g/m*3 4.3 C 0 km/h
1569 06-04-2010 02:53:03 4.2 C 4.12 g/m*3 4.2 C 0 km/h
1570 06-04-2010 03:05:03 4.1 C 4.1 g/m*3 4.1 C 0 km/h
1571 06-04-2010 03:17:03 3.9 C 4.17 g/m*3 3.9 C 0 km/h
1572 06-04-2010 03:29:03 3.8 C 4.14 g/m*3 3.8 C 0 km/h
1573 06-04-2010 03:41:03 3.6 C 4.09 g/m*3 3.6 C 0 km/h
1574 06-04-2010 03:53:03 3.5 C 4.12 g/m*3 3.5 C 0 km/h
1575 06-04-2010 04:05:03 3.3 C 4.06 g/m*3 3.3 C 0 km/h
Sensor: Nr:Datum:Temp:Abs-Feuchte:Windchill:Wind:
Aussen-T/F 1576 06-04-2010 04:17:03 3.2 C 4.16 g/m*3 3.2 C 0 km/h
1577 06-04-2010 04:29:03 3.2 C 4.22 g/m*3 3.2 C 0 km/h
1578 06-04-2010 04:41:03 3 C 4.22 g/m*3 3 C 0 km/h
1579 06-04-2010 04:53:03 2.8 C 4.22 g/m*3 2.8 C 0 km/h
1580 06-04-2010 05:05:03 2.7 C 4.2 g/m*3 2.7 C 0 km/h
1581 06-04-2010 05:17:03 2.5 C 4.14 g/m*3 2.5 C 0 km/h
1582 06-04-2010 05:29:03 2.4 C 4.11 g/m*3 2.4 C 0 km/h
1583 06-04-2010 05:41:03 2.3 C 4.14 g/m*3 2.3 C 0 km/h
1584 06-04-2010 05:53:03 2.1 C 4.08 g/m*3 2.1 C 0 km/h
1585 06-04-2010 06:05:03 2 C 4.06 g/m*3 2 C 0 km/h
1586 06-04-2010 06:17:03 1.7 C 4.03 g/m*3 1.7 C 0 km/h
1587 06-04-2010 06:29:04 1.7 C 4.08 g/m*3 1.7 C 0 km/h
1588 06-04-2010 06:41:04 1.7 C 4.08 g/m*3 1.7 C 0 km/h
1589 06-04-2010 06:53:04 1.7 C 4.08 g/m*3 1.7 C 0 km/h
1590 06-04-2010 07:05:01 1.5 C 4.08 g/m*3 1.5 C 0 km/h
1591 06-04-2010 07:17:02 1.5 C 4.08 g/m*3 1.5 C 0 km/h
1592 06-04-2010 07:29:02 1.5 C 4.08 g/m*3 1.5 C 0 km/h
1593 06-04-2010 07:41:02 1.4 C 4.11 g/m*3 1.4 C 0 km/h
1594 06-04-2010 07:53:02 1.5 C 4.14 g/m*3 1.5 C 0 km/h
1595 06-04-2010 08:05:02 1.8 C 4.22 g/m*3 1.8 C 0 km/h
1596 06-04-2010 08:17:02 1.8 C 4.22 g/m*3 1.8 C 0 km/h
1597 06-04-2010 08:29:02 1.9 C 4.3 g/m*3 1.9 C 0 km/h
1598 06-04-2010 08:41:02 2.1 C 4.31 g/m*3 2.1 C 0 km/h
1599 06-04-2010 08:53:02 2.3 C 4.37 g/m*3 2.3 C 0 km/h
1600 06-04-2010 09:05:02 2.6 C 4.51 g/m*3 2.6 C 0 km/h
Sensor: Nr:Datum:Temp:Abs-Feuchte:Windchill:Wind:
Aussen-T/F 1601 06-04-2010 09:17:03 3 C 4.52 g/m*3 3 C 0 km/h
1602 06-04-2010 09:29:03 3.5 C 4.61 g/m*3 3.5 C 0 km/h
1603 06-04-2010 09:41:02 4.1 C 4.54 g/m*3 4.1 C 0 km/h
1604 06-04-2010 09:53:02 4.5 C 4.54 g/m*3 4.5 C 0 km/h
1605 06-04-2010 10:05:02 5.1 C 4.58 g/m*3 5.1 C 0 km/h
1606 06-04-2010 10:17:02 5.9 C 4.69 g/m*3 5.9 C 0 km/h
1607 06-04-2010 10:29:02 7.1 C 4.68 g/m*3 7.1 C 0 km/h
1608 06-04-2010 10:41:02 9.2 C 3.93 g/m*3 9.2 C 0 km/h
1609 06-04-2010 10:53:02 9.8 C 3.62 g/m*3 9.8 C 0 km/h
1610 06-04-2010 11:05:01 10.4 C 3.47 g/m*3 10.4 C 0 km/h
1611 06-04-2010 11:17:02 10.9 C 3.28 g/m*3 10.9 C 0 km/h
1612 06-04-2010 11:29:03 11.2 C 3.14 g/m*3 11.2 C 0 km/h
1613 06-04-2010 11:41:01 11.5 C 3.1 g/m*3 11.5 C 0 km/h
1614 06-04-2010 11:53:02 12.2 C 3.02 g/m*3 12.2 C 0 km/h
1615 06-04-2010 12:05:01 12.4 C 2.84 g/m*3 12.4 C 0 km/h
1616 06-04-2010 12:17:01 12.7 C 2.78 g/m*3 12.7 C 0 km/h
1617 06-04-2010 12:29:01 13 C 2.72 g/m*3 13 C 0 km/h
1618 06-04-2010 12:41:02 13.4 C 2.91 g/m*3 13.4 C 0 km/h
1619 06-04-2010 12:53:02 13.5 C 2.81 g/m*3 13.5 C 0 km/h
1620 06-04-2010 13:05:02 13.9 C 3 g/m*3 13.9 C 0 km/h
1621 06-04-2010 13:17:02 14.2 C 3.05 g/m*3 14.2 C 0 km/h
1622 06-04-2010 13:29:02 14.2 C 3.05 g/m*3 14.2 C 0 km/h
1623 06-04-2010 13:41:02 14.8 C 3.17 g/m*3 14.8 C 0 km/h
1624 06-04-2010 13:53:02 15.4 C 2.89 g/m*3 15.4 C 0 km/h
1625 06-04-2010 14:05:03 16.7 C 3.13 g/m*3 16.7 C 0 km/h
Sensor: Nr:Datum:Temp:Abs-Feuchte:Windchill:Wind:
Aussen-T/F 1626 06-04-2010 14:17:02 16.8 C 3 g/m*3 16.8 C 0 km/h
1627 06-04-2010 14:29:02 17 C 2.89 g/m*3 17 C 0 km/h
1628 06-04-2010 14:41:02 17.3 C 2.95 g/m*3 17.3 C 0 km/h
1629 06-04-2010 14:53:01 17.4 C 2.96 g/m*3 17.4 C 0 km/h
1630 06-04-2010 15:05:02 18 C 3.07 g/m*3 18 C 0 km/h
1631 06-04-2010 15:17:01 18.6 C 3.18 g/m*3 18.6 C 0 km/h
1632 06-04-2010 15:29:01 18.5 C 3.16 g/m*3 18.5 C 0 km/h
1633 06-04-2010 15:41:01 19 C 3.26 g/m*3 19 C 0 km/h
1634 06-04-2010 15:53:01 19 C 3.26 g/m*3 19 C 0 km/h
1635 06-04-2010 16:05:02 19.4 C 3.34 g/m*3 19.4 C 0 km/h
1636 06-04-2010 16:17:02 19.7 C 3.4 g/m*3 19.7 C 0 km/h
1637 06-04-2010 16:29:02 20.5 C 3.56 g/m*3 20.5 C 0 km/h
1638 06-04-2010 16:41:01 20.7 C 3.6 g/m*3 20.7 C 0 km/h
1639 06-04-2010 16:53:01 21.5 C 3.77 g/m*3 21.5 C 0 km/h
1640 06-04-2010 17:05:02 21.4 C 3.75 g/m*3 21.4 C 0 km/h
1641 06-04-2010 17:17:02 21.6 C 3.79 g/m*3 21.6 C 0 km/h
1642 06-04-2010 17:29:02 21 C 3.66 g/m*3 21 C 0 km/h
1643 06-04-2010 17:41:01 21.1 C 3.69 g/m*3 21.1 C 0 km/h
1644 06-04-2010 17:53:01 21.9 C 3.86 g/m*3 21.9 C 0 km/h
1645 06-04-2010 18:05:02 21.7 C 3.82 g/m*3 21.7 C 0 km/h
1646 06-04-2010 18:17:02 21.3 C 3.73 g/m*3 21.3 C 0 km/h
1647 06-04-2010 18:29:02 21.5 C 3.77 g/m*3 21.5 C 0 km/h
1648 06-04-2010 18:41:01 21.9 C 3.86 g/m*3 21.9 C 0 km/h
1649 06-04-2010 18:53:02 21.2 C 3.71 g/m*3 21.2 C 0 km/h
1650 06-04-2010 19:05:01 21.1 C 3.69 g/m*3 21.1 C 0 km/h
Sensor: Nr:Datum:Temp:Abs-Feuchte:Windchill:Wind:
Aussen-T/F 1651 06-04-2010 19:17:02 19.8 C 3.42 g/m*3 19.8 C 0 km/h
1652 06-04-2010 19:29:02 19.9 C 3.44 g/m*3 19.9 C 0 km/h
1653 06-04-2010 19:41:01 19.7 C 3.4 g/m*3 19.7 C 0 km/h
1654 06-04-2010 19:53:02 18.2 C 3.26 g/m*3 18.2 C 0 km/h
1655 06-04-2010 20:05:02 16.8 C 3.57 g/m*3 16.8 C 0 km/h
1656 06-04-2010 20:17:02 15.5 C 3.83 g/m*3 15.5 C 0 km/h
1657 06-04-2010 20:29:02 14.7 C 4.03 g/m*3 14.7 C 0 km/h
1658 06-04-2010 20:41:02 14.3 C 3.93 g/m*3 14.3 C 0 km/h
1659 06-04-2010 20:53:02 13.8 C 4.05 g/m*3 13.8 C 0 km/h
1660 06-04-2010 21:05:01 13.5 C 4.09 g/m*3 13.5 C 0 km/h
1661 06-04-2010 21:17:02 13.2 C 4.13 g/m*3 13.2 C 0 km/h
1662 06-04-2010 21:29:02 12.9 C 4.17 g/m*3 12.9 C 0 km/h
1663 06-04-2010 21:41:02 12.8 C 4.14 g/m*3 12.8 C 0 km/h
1664 06-04-2010 21:53:02 12.5 C 4.29 g/m*3 12.5 C 0 km/h
1665 06-04-2010 22:05:02 12.2 C 4.32 g/m*3 12.2 C 0 km/h
1666 06-04-2010 22:17:02 12.1 C 4.29 g/m*3 12.1 C 0 km/h
1667 06-04-2010 22:29:03 11.8 C 4.32 g/m*3 11.8 C 0 km/h
1668 06-04-2010 22:41:02 11.5 C 4.44 g/m*3 11.5 C 0 km/h
1669 06-04-2010 22:53:02 11.3 C 4.59 g/m*3 11.3 C 0 km/h
1670 06-04-2010 23:05:02 10.9 C 4.58 g/m*3 10.9 C 0 km/h
1671 06-04-2010 23:17:02 10.8 C 4.65 g/m*3 10.8 C 0 km/h
1672 06-04-2010 23:29:02 10.5 C 4.56 g/m*3 10.5 C 0 km/h
1673 06-04-2010 23:41:01 10.3 C 4.5 g/m*3 10.3 C 0 km/h
1674 06-04-2010 23:53:02 10.1 C 4.63 g/m*3 10.1 C 0 km/h
1675 07-04-2010 00:05:01 10 C 4.6 g/m*3 10 C 0 km/h
Sensor: Nr:Datum:Temp:Abs-Feuchte:Windchill:Wind:
Aussen-T/F 1676 07-04-2010 00:17:01 9.7 C 4.61 g/m*3 9.7 C 0 km/h
1677 07-04-2010 00:29:01 9.3 C 4.67 g/m*3 9.3 C 0 km/h
1678 07-04-2010 00:41:02 9.1 C 4.7 g/m*3 9.1 C 0 km/h
1679 07-04-2010 00:53:02 8.9 C 4.73 g/m*3 8.9 C 0 km/h
1680 07-04-2010 01:05:02 8.6 C 4.73 g/m*3 8.6 C 0 km/h
1681 07-04-2010 01:17:02 8.4 C 4.75 g/m*3 8.4 C 0 km/h
1682 07-04-2010 01:29:02 8.2 C 4.77 g/m*3 8.2 C 0 km/h
1683 07-04-2010 01:41:03 8.1 C 4.74 g/m*3 8.1 C 0 km/h
1684 07-04-2010 01:53:02 7.9 C 4.76 g/m*3 7.9 C 0 km/h
1685 07-04-2010 02:05:02 7.6 C 4.67 g/m*3 7.6 C 0 km/h
1686 07-04-2010 02:17:02 7.4 C 4.69 g/m*3 7.4 C 0 km/h
1687 07-04-2010 02:29:03 7.3 C 4.74 g/m*3 7.3 C 0 km/h
1688 07-04-2010 02:41:02 7.1 C 4.76 g/m*3 7.1 C 0 km/h
1689 07-04-2010 02:54:02 7.1 C 4.76 g/m*3 7.1 C 0 km/h
1690 07-04-2010 03:06:02 7 C 4.73 g/m*3 7 C 0 km/h
1691 07-04-2010 03:18:02 6.8 C 4.74 g/m*3 6.8 C 0 km/h
1692 07-04-2010 03:30:02 6.7 C 4.71 g/m*3 6.7 C 0 km/h
1693 07-04-2010 03:42:02 6.5 C 4.72 g/m*3 6.5 C 0 km/h
1694 07-04-2010 03:54:02 6.5 C 4.72 g/m*3 6.5 C 0 km/h
1695 07-04-2010 04:06:02 6.2 C 4.71 g/m*3 6.2 C 0 km/h
1696 07-04-2010 04:18:02 6.1 C 4.75 g/m*3 6.1 C 0 km/h
1697 07-04-2010 04:30:02 5.9 C 4.76 g/m*3 5.9 C 0 km/h
1698 07-04-2010 04:42:03 5.8 C 4.8 g/m*3 5.8 C 0 km/h
1699 07-04-2010 04:54:03 5.8 C 4.73 g/m*3 5.8 C 0 km/h
1700 07-04-2010 05:06:03 5.5 C 4.64 g/m*3 5.5 C 0 km/h
Sensor: Nr:Datum:Temp:Abs-Feuchte:Windchill:Wind:
Aussen-T/F 1701 07-04-2010 05:18:03 5.6 C 4.67 g/m*3 5.6 C 0 km/h
1702 07-04-2010 05:30:03 5.3 C 4.64 g/m*3 5.3 C 0 km/h
1703 07-04-2010 05:42:03 5.2 C 4.61 g/m*3 5.2 C 0 km/h
1704 07-04-2010 05:54:03 5.1 C 4.58 g/m*3 5.1 C 0 km/h
1705 07-04-2010 06:06:03 4.8 C 4.63 g/m*3 4.8 C 0 km/h
1706 07-04-2010 06:18:03 4.8 C 4.69 g/m*3 4.8 C 0 km/h
1707 07-04-2010 06:30:03 4.5 C 4.6 g/m*3 4.5 C 0 km/h
1708 07-04-2010 06:42:03 4.5 C 4.67 g/m*3 4.5 C 0 km/h
1709 07-04-2010 06:54:03 4.3 C 4.54 g/m*3 4.3 C 0 km/h
1710 07-04-2010 07:06:02 4.3 C 4.67 g/m*3 4.3 C 0 km/h
1711 07-04-2010 07:18:02 4.3 C 4.61 g/m*3 4.3 C 0 km/h
1712 07-04-2010 07:30:03 4.3 C 4.61 g/m*3 4.3 C 0 km/h
1713 07-04-2010 07:42:02 4.4 C 4.64 g/m*3 4.4 C 0 km/h
1714 07-04-2010 07:54:02 4.4 C 4.64 g/m*3 4.4 C 0 km/h
1715 07-04-2010 08:06:02 4.4 C 4.64 g/m*3 4.4 C 0 km/h
1716 07-04-2010 08:18:03 4.5 C 4.73 g/m*3 4.5 C 0 km/h
1717 07-04-2010 08:30:03 4.7 C 4.8 g/m*3 4.7 C 0 km/h
1718 07-04-2010 08:42:02 4.8 C 4.83 g/m*3 4.8 C 0 km/h
1719 07-04-2010 08:54:02 5.1 C 4.86 g/m*3 5.1 C 0 km/h
1720 07-04-2010 09:06:01 5.4 C 4.88 g/m*3 5.4 C 0 km/h
1721 07-04-2010 09:18:01 5.9 C 5.05 g/m*3 5.9 C 0 km/h
1722 07-04-2010 09:30:01 6.5 C 5.02 g/m*3 6.5 C 0 km/h
1723 07-04-2010 09:42:02 7.1 C 5.07 g/m*3 7.1 C 0 km/h
1724 07-04-2010 09:54:02 8.1 C 4.91 g/m*3 8.1 C 0 km/h
1725 07-04-2010 10:06:01 9.1 C 4.97 g/m*3 9.1 C 0 km/h
Sensor: Nr:Datum:Temp:Abs-Feuchte:Windchill:Wind:
Aussen-T/F 1726 07-04-2010 10:18:02 9.7 C 4.98 g/m*3 9.7 C 0 km/h
1727 07-04-2010 10:30:02 10.7 C 4.52 g/m*3 10.7 C 0 km/h
1728 07-04-2010 10:42:02 11.7 C 4.5 g/m*3 11.7 C 0 km/h
1729 07-04-2010 10:54:01 12.4 C 4.15 g/m*3 12.4 C 0 km/h
1730 07-04-2010 11:06:02 13.2 C 4.13 g/m*3 13.2 C 0 km/h
1731 07-04-2010 11:18:01 13.6 C 4 g/m*3 13.6 C 0 km/h
1732 07-04-2010 11:30:01 14.1 C 3.88 g/m*3 14.1 C 0 km/h
1733 07-04-2010 11:42:02 14.9 C 4.21 g/m*3 14.9 C 0 km/h
1734 07-04-2010 11:54:02 15.7 C 4.01 g/m*3 15.7 C 0 km/h
1735 07-04-2010 12:06:02 16 C 3.95 g/m*3 16 C 0 km/h
1736 07-04-2010 12:18:01 16.4 C 4.05 g/m*3 16.4 C 0 km/h
1737 07-04-2010 12:30:01 16.8 C 3.86 g/m*3 16.8 C 0 km/h
1738 07-04-2010 12:42:02 17.3 C 3.83 g/m*3 17.3 C 0 km/h
1739 07-04-2010 12:54:01 18.1 C 3.71 g/m*3 18.1 C 0 km/h
1740 07-04-2010 13:06:02 18.5 C 3.48 g/m*3 18.5 C 0 km/h
1741 07-04-2010 13:18:02 19.1 C 3.44 g/m*3 19.1 C 0 km/h
1742 07-04-2010 13:30:03 19.2 C 3.3 g/m*3 19.2 C 0 km/h
1743 07-04-2010 13:42:01 19.7 C 3.4 g/m*3 19.7 C 0 km/h
1744 07-04-2010 13:54:02 20.6 C 3.58 g/m*3 20.6 C 0 km/h
1745 07-04-2010 14:06:02 20.9 C 3.64 g/m*3 20.9 C 0 km/h
1746 07-04-2010 14:18:02 21.3 C 3.73 g/m*3 21.3 C 0 km/h
1747 07-04-2010 14:30:02 21.7 C 3.82 g/m*3 21.7 C 0 km/h
1748 07-04-2010 14:42:03 22.7 C 4.04 g/m*3 22.7 C 0 km/h
1749 07-04-2010 14:54:02 23.3 C 4.18 g/m*3 23.3 C 0 km/h
1750 07-04-2010 15:06:02 23.7 C 4.28 g/m*3 23.7 C 0 km/h
Sensor: Nr:Datum:Temp:Abs-Feuchte:Windchill:Wind:
Aussen-T/F 1751 07-04-2010 15:18:01 24 C 4.35 g/m*3 24 C 0 km/h
1752 07-04-2010 15:30:01 24.1 C 4.38 g/m*3 24.1 C 0 km/h
1753 07-04-2010 15:42:02 24.4 C 4.45 g/m*3 24.4 C 0 km/h
1754 07-04-2010 15:54:02 25.2 C 4.66 g/m*3 25.2 C 0 km/h
1755 07-04-2010 16:06:02 25.4 C 4.71 g/m*3 25.4 C 0 km/h
1756 07-04-2010 16:18:02 25.8 C 4.82 g/m*3 25.8 C 0 km/h
1757 07-04-2010 16:30:02 24.2 C 4.4 g/m*3 24.2 C 0 km/h
1758 07-04-2010 16:42:02 24.7 C 4.53 g/m*3 24.7 C 0 km/h
1759 07-04-2010 16:54:02 25.1 C 4.63 g/m*3 25.1 C 0 km/h
1760 07-04-2010 17:06:03 25.9 C 4.84 g/m*3 25.9 C 0 km/h
1761 07-04-2010 17:18:02 25.9 C 4.84 g/m*3 25.9 C 0 km/h
1762 07-04-2010 17:30:02 25.4 C 4.71 g/m*3 25.4 C 0 km/h
1763 07-04-2010 17:42:02 25.2 C 4.66 g/m*3 25.2 C 0 km/h
1764 07-04-2010 17:54:01 25.2 C 4.66 g/m*3 25.2 C 0 km/h
1765 07-04-2010 18:06:02 24.9 C 4.58 g/m*3 24.9 C 0 km/h
1766 07-04-2010 18:18:01 24.7 C 4.53 g/m*3 24.7 C 0 km/h
1767 07-04-2010 18:30:01 24 C 4.35 g/m*3 24 C 0 km/h
1768 07-04-2010 18:42:01 23.5 C 4.23 g/m*3 23.5 C 0 km/h
1769 07-04-2010 18:54:01 23.1 C 4.13 g/m*3 23.1 C 0 km/h
1770 07-04-2010 19:06:02 22.5 C 3.99 g/m*3 22.5 C 0 km/h
1771 07-04-2010 19:18:01 21.5 C 3.77 g/m*3 21.5 C 0 km/h
1772 07-04-2010 19:30:01 20.5 C 3.91 g/m*3 20.5 C 0 km/h
1773 07-04-2010 19:42:01 19.5 C 4.03 g/m*3 19.5 C 0 km/h
1774 07-04-2010 19:54:01 18.7 C 4.16 g/m*3 18.7 C 0 km/h
1775 07-04-2010 20:06:16 18.1 C 3.86 g/m*3 18.1 C 0 km/h
Sensor: Nr:Datum:Temp:Abs-Feuchte:Windchill:Wind:
Aussen-T/F 1776 07-04-2010 20:18:02 17.8 C 3.95 g/m*3 17.8 C 0 km/h
1777 07-04-2010 20:30:02 17.5 C 4.03 g/m*3 17.5 C 0 km/h
1778 07-04-2010 20:42:03 17.2 C 4.1 g/m*3 17.2 C 0 km/h
1779 07-04-2010 20:54:03 16.8 C 4.29 g/m*3 16.8 C 0 km/h
1780 07-04-2010 21:06:03 16.4 C 4.19 g/m*3 16.4 C 0 km/h
1781 07-04-2010 21:18:02 16.1 C 4.25 g/m*3 16.1 C 0 km/h
1782 07-04-2010 21:30:02 15.8 C 4.31 g/m*3 15.8 C 0 km/h
1783 07-04-2010 21:42:03 15.4 C 4.6 g/m*3 15.4 C 0 km/h
1784 07-04-2010 21:54:02 15.1 C 4.64 g/m*3 15.1 C 0 km/h
1785 07-04-2010 22:06:03 14.7 C 4.78 g/m*3 14.7 C 0 km/h
1786 07-04-2010 22:18:04 14.4 C 4.94 g/m*3 14.4 C 0 km/h
1787 07-04-2010 22:30:04 14.2 C 4.76 g/m*3 14.2 C 0 km/h
1788 07-04-2010 22:43:04 14.1 C 4.61 g/m*3 14.1 C 0 km/h
1789 07-04-2010 22:55:04 13.8 C 4.77 g/m*3 13.8 C 0 km/h
1790 07-04-2010 23:07:04 13.5 C 4.91 g/m*3 13.5 C 0 km/h
1791 07-04-2010 23:19:04 13.4 C 5 g/m*3 13.4 C 0 km/h
1792 07-04-2010 23:31:04 13.2 C 5.05 g/m*3 13.2 C 0 km/h
1793 07-04-2010 23:43:04 13.2 C 4.82 g/m*3 13.2 C 0 km/h
1794 07-04-2010 23:55:04 13.1 C 4.91 g/m*3 13.1 C 0 km/h
1795 08-04-2010 00:07:04 12.8 C 5.04 g/m*3 12.8 C 0 km/h
1796 08-04-2010 00:19:04 12.6 C 5.09 g/m*3 12.6 C 0 km/h
1797 08-04-2010 00:31:04 12.2 C 5.07 g/m*3 12.2 C 0 km/h
1798 08-04-2010 00:43:04 12 C 5.12 g/m*3 12 C 0 km/h
1799 08-04-2010 00:55:05 11.8 C 5.26 g/m*3 11.8 C 0 km/h
1800 08-04-2010 01:07:05 11.6 C 5.3 g/m*3 11.6 C 0 km/h
Sensor: Nr:Datum:Temp:Abs-Feuchte:Windchill:Wind:
Aussen-T/F 1801 08-04-2010 01:19:05 11.6 C 5.3 g/m*3 11.6 C 0 km/h
1802 08-04-2010 01:31:05 11.6 C 5.3 g/m*3 11.6 C 0 km/h
1803 08-04-2010 01:43:05 11.4 C 5.34 g/m*3 11.4 C 0 km/h
1804 08-04-2010 01:55:05 11.6 C 5.3 g/m*3 11.6 C 0 km/h
1805 08-04-2010 02:07:05 11.4 C 5.44 g/m*3 11.4 C 0 km/h
1806 08-04-2010 02:19:05 11.2 C 5.37 g/m*3 11.2 C 0 km/h
1807 08-04-2010 02:31:05 10.8 C 5.54 g/m*3 10.8 C 0 km/h
1808 08-04-2010 02:43:05 10.5 C 5.63 g/m*3 10.5 C 0 km/h
1809 08-04-2010 02:55:05 10.4 C 5.59 g/m*3 10.4 C 0 km/h
1810 08-04-2010 03:07:05 10.5 C 5.63 g/m*3 10.5 C 0 km/h
1811 08-04-2010 03:19:05 10.5 C 5.72 g/m*3 10.5 C 0 km/h
1812 08-04-2010 03:31:05 10.5 C 5.72 g/m*3 10.5 C 0 km/h
1813 08-04-2010 03:43:05 10.2 C 5.8 g/m*3 10.2 C 0 km/h
1814 08-04-2010 03:55:05 10.2 C 5.8 g/m*3 10.2 C 0 km/h
1815 08-04-2010 04:07:05 10 C 5.83 g/m*3 10 C 0 km/h
1816 08-04-2010 04:19:05 9.9 C 5.88 g/m*3 9.9 C 0 km/h
1817 08-04-2010 04:31:05 9.9 C 5.88 g/m*3 9.9 C 0 km/h
1818 08-04-2010 04:43:05 10.3 C 5.94 g/m*3 10.3 C 0 km/h
1819 08-04-2010 04:55:06 10.1 C 5.86 g/m*3 10.1 C 0 km/h
1820 08-04-2010 05:07:06 9.9 C 5.98 g/m*3 9.9 C 0 km/h
1821 08-04-2010 05:19:06 10.1 C 5.96 g/m*3 10.1 C 0 km/h
1822 08-04-2010 05:31:06 10 C 5.92 g/m*3 10 C 0 km/h
1823 08-04-2010 05:43:06 10 C 6.01 g/m*3 10 C 0 km/h
1824 08-04-2010 05:55:06 10 C 5.92 g/m*3 10 C 0 km/h
1825 08-04-2010 06:07:06 10.1 C 6.05 g/m*3 10.1 C 0 km/h
Sensor: Nr:Datum:Temp:Abs-Feuchte:Windchill:Wind:
Aussen-T/F 1826 08-04-2010 06:19:06 10 C 6.01 g/m*3 10 C 0 km/h
1827 08-04-2010 06:31:06 9.9 C 6.16 g/m*3 9.9 C 0 km/h
1828 08-04-2010 06:43:06 9.9 C 6.16 g/m*3 9.9 C 0 km/h
1829 08-04-2010 06:55:02 9.9 C 6.26 g/m*3 9.9 C 0 km/h
1830 08-04-2010 07:07:02 10.1 C 6.43 g/m*3 10.1 C 0 km/h
1831 08-04-2010 07:19:02 10.3 C 6.42 g/m*3 10.3 C 0 km/h
1832 08-04-2010 07:31:02 10.7 C 6.78 g/m*3 10.7 C 0 km/h
1833 08-04-2010 07:43:02 11.1 C 6.85 g/m*3 11.1 C 0 km/h
1834 08-04-2010 07:55:01 11.2 C 6.69 g/m*3 11.2 C 0 km/h
1835 08-04-2010 08:07:01 11.7 C 7.11 g/m*3 11.7 C 0 km/h
1836 08-04-2010 08:19:01 11.9 C 7.2 g/m*3 11.9 C 0 km/h
1837 08-04-2010 08:31:01 12.2 C 7.12 g/m*3 12.2 C 0 km/h
1838 08-04-2010 08:43:01 12.4 C 7.1 g/m*3 12.4 C 0 km/h
1839 08-04-2010 08:55:01 12.5 C 7.15 g/m*3 12.5 C 0 km/h
1840 08-04-2010 09:07:01 12.6 C 7.3 g/m*3 12.6 C 0 km/h
1841 08-04-2010 09:19:02 12.7 C 7.24 g/m*3 12.7 C 0 km/h
1842 08-04-2010 09:31:01 13 C 7.26 g/m*3 13 C 0 km/h
1843 08-04-2010 09:43:01 12.7 C 7.12 g/m*3 12.7 C 0 km/h
1844 08-04-2010 09:55:02 12.8 C 7.28 g/m*3 12.8 C 0 km/h
1845 08-04-2010 10:07:02 13.1 C 7.3 g/m*3 13.1 C 0 km/h
1846 08-04-2010 10:19:02 13.4 C 7.32 g/m*3 13.4 C 0 km/h
1847 08-04-2010 10:31:02 13.3 C 7.28 g/m*3 13.3 C 0 km/h
1848 08-04-2010 10:43:02 13.3 C 7.28 g/m*3 13.3 C 0 km/h
1849 08-04-2010 10:55:02 13.6 C 7.65 g/m*3 13.6 C 0 km/h
1850 08-04-2010 11:07:02 14.2 C 7.33 g/m*3 14.2 C 0 km/h
Sensor: Nr:Datum:Temp:Abs-Feuchte:Windchill:Wind:
Aussen-T/F 1851 08-04-2010 11:19:02 14.9 C 6.75 g/m*3 14.9 C 0 km/h
1852 08-04-2010 11:31:02 14.9 C 6.75 g/m*3 14.9 C 0 km/h
1853 08-04-2010 11:43:02 15.2 C 6.62 g/m*3 15.2 C 0 km/h
1854 08-04-2010 11:55:02 15.6 C 6.65 g/m*3 15.6 C 0 km/h
1855 08-04-2010 12:07:01 15.3 C 6.53 g/m*3 15.3 C 0 km/h
1856 08-04-2010 12:19:02 15.7 C 6.69 g/m*3 15.7 C 0 km/h
1857 08-04-2010 12:31:02 15.4 C 6.57 g/m*3 15.4 C 0 km/h
1858 08-04-2010 12:43:02 15.5 C 6.48 g/m*3 15.5 C 0 km/h
1859 08-04-2010 12:55:02 15.3 C 6.92 g/m*3 15.3 C 0 km/h
1860 08-04-2010 13:07:02 15.3 C 7.05 g/m*3 15.3 C 0 km/h
1861 08-04-2010 13:19:02 15.7 C 7.09 g/m*3 15.7 C 0 km/h
1862 08-04-2010 13:31:02 15.8 C 7 g/m*3 15.8 C 0 km/h
1863 08-04-2010 13:43:02 15.6 C 6.92 g/m*3 15.6 C 0 km/h
1864 08-04-2010 13:55:01 15.7 C 6.96 g/m*3 15.7 C 0 km/h
1865 08-04-2010 14:07:02 15.4 C 6.96 g/m*3 15.4 C 0 km/h
1866 08-04-2010 14:19:01 15.2 C 6.88 g/m*3 15.2 C 0 km/h
1867 08-04-2010 14:31:01 14.9 C 7.01 g/m*3 14.9 C 0 km/h
1868 08-04-2010 14:43:01 15 C 7.05 g/m*3 15 C 0 km/h
1869 08-04-2010 14:55:01 15 C 7.18 g/m*3 15 C 0 km/h
1870 08-04-2010 15:07:02 14.9 C 7.39 g/m*3 14.9 C 0 km/h
1871 08-04-2010 15:19:01 14.2 C 7.33 g/m*3 14.2 C 0 km/h
1872 08-04-2010 15:31:01 14.8 C 7.6 g/m*3 14.8 C 0 km/h
1873 08-04-2010 15:43:01 14.2 C 7.69 g/m*3 14.2 C 0 km/h
1874 08-04-2010 15:55:01 13.9 C 8.03 g/m*3 13.9 C 0 km/h
1875 08-04-2010 16:07:02 13.9 C 8.15 g/m*3 13.9 C 0 km/h
Sensor: Nr:Datum:Temp:Abs-Feuchte:Windchill:Wind:
Aussen-T/F 1876 08-04-2010 16:19:02 13.8 C 8.34 g/m*3 13.8 C 0 km/h
1877 08-04-2010 16:31:01 13.3 C 8.32 g/m*3 13.3 C 0 km/h
1878 08-04-2010 16:43:01 13.3 C 8.43 g/m*3 13.3 C 0 km/h
1879 08-04-2010 16:55:01 13.6 C 8.59 g/m*3 13.6 C 0 km/h
1880 08-04-2010 17:07:02 13.7 C 8.53 g/m*3 13.7 C 0 km/h
1881 08-04-2010 17:19:02 13.8 C 8.58 g/m*3 13.8 C 0 km/h
1882 08-04-2010 17:31:01 13.5 C 8.3 g/m*3 13.5 C 0 km/h
1883 08-04-2010 17:43:01 13.8 C 8.34 g/m*3 13.8 C 0 km/h
1884 08-04-2010 17:55:02 13.6 C 8.24 g/m*3 13.6 C 0 km/h
1885 08-04-2010 18:07:01 13.2 C 8.27 g/m*3 13.2 C 0 km/h
1886 08-04-2010 18:19:07 12.9 C 8.34 g/m*3 12.9 C 0 km/h
1887 08-04-2010 18:31:02 13 C 8.28 g/m*3 13 C 0 km/h
1888 08-04-2010 18:43:02 12.9 C 8.23 g/m*3 12.9 C 0 km/h
1889 08-04-2010 18:55:02 12.8 C 8.06 g/m*3 12.8 C 0 km/h
1890 08-04-2010 19:07:02 12.7 C 8.24 g/m*3 12.7 C 0 km/h
1891 08-04-2010 19:19:01 12.7 C 8.24 g/m*3 12.7 C 0 km/h
1892 08-04-2010 19:31:02 12.5 C 8.14 g/m*3 12.5 C 0 km/h
1893 08-04-2010 19:43:02 12.1 C 8.04 g/m*3 12.1 C 0 km/h
1894 08-04-2010 19:55:02 11.9 C 8.15 g/m*3 11.9 C 0 km/h
1895 08-04-2010 20:07:02 11.3 C 8.16 g/m*3 11.3 C 0 km/h
1896 08-04-2010 20:19:02 11.3 C 8.26 g/m*3 11.3 C 0 km/h
1897 08-04-2010 20:31:02 11.2 C 8.11 g/m*3 11.2 C 0 km/h
1898 08-04-2010 20:43:02 11.2 C 7.91 g/m*3 11.2 C 0 km/h
1899 08-04-2010 20:55:02 11.3 C 7.96 g/m*3 11.3 C 0 km/h
1900 08-04-2010 21:07:02 11.3 C 7.85 g/m*3 11.3 C 0 km/h
Sensor: Nr:Datum:Temp:Abs-Feuchte:Windchill:Wind:
Aussen-T/F 1901 08-04-2010 21:19:02 11.5 C 7.95 g/m*3 11.5 C 0 km/h
1902 08-04-2010 21:31:02 11.5 C 7.85 g/m*3 11.5 C 0 km/h
1903 08-04-2010 21:43:02 11.3 C 7.75 g/m*3 11.3 C 0 km/h
1904 08-04-2010 21:56:02 11.3 C 7.75 g/m*3 11.3 C 0 km/h
1905 08-04-2010 22:08:02 11.4 C 7.8 g/m*3 11.4 C 0 km/h
1906 08-04-2010 22:20:02 11.2 C 7.6 g/m*3 11.2 C 0 km/h
1907 08-04-2010 22:32:02 11.1 C 7.45 g/m*3 11.1 C 0 km/h
1908 08-04-2010 22:44:02 11.1 C 7.35 g/m*3 11.1 C 0 km/h
1909 08-04-2010 22:56:02 11.1 C 7.15 g/m*3 11.1 C 0 km/h
1910 08-04-2010 23:08:02 11.1 C 7.15 g/m*3 11.1 C 0 km/h
1911 08-04-2010 23:20:02 11 C 7.21 g/m*3 11 C 0 km/h
1912 08-04-2010 23:32:02 11 C 7.31 g/m*3 11 C 0 km/h
1913 08-04-2010 23:44:02 11.1 C 7.35 g/m*3 11.1 C 0 km/h
1914 08-04-2010 23:56:02 11.1 C 7.25 g/m*3 11.1 C 0 km/h
1915 09-04-2010 00:08:02 11.1 C 7.25 g/m*3 11.1 C 0 km/h
1916 09-04-2010 00:20:02 11.1 C 7.25 g/m*3 11.1 C 0 km/h
1917 09-04-2010 00:32:02 11.2 C 7.2 g/m*3 11.2 C 0 km/h
1918 09-04-2010 00:44:02 11.1 C 7.15 g/m*3 11.1 C 0 km/h
1919 09-04-2010 00:56:02 11 C 7.11 g/m*3 11 C 0 km/h
1920 09-04-2010 01:08:02 11 C 7.11 g/m*3 11 C 0 km/h
1921 09-04-2010 01:20:02 10.9 C 7.06 g/m*3 10.9 C 0 km/h
1922 09-04-2010 01:32:03 10.8 C 6.92 g/m*3 10.8 C 0 km/h
1923 09-04-2010 01:44:03 10.5 C 6.69 g/m*3 10.5 C 0 km/h
1924 09-04-2010 01:56:03 10.3 C 6.51 g/m*3 10.3 C 0 km/h
1925 09-04-2010 02:08:03 10.1 C 6.43 g/m*3 10.1 C 0 km/h
Sensor: Nr:Datum:Temp:Abs-Feuchte:Windchill:Wind:
Aussen-T/F 1926 09-04-2010 02:20:03 9.7 C 6.55 g/m*3 9.7 C 0 km/h
1927 09-04-2010 02:32:03 9.3 C 6.38 g/m*3 9.3 C 0 km/h
1928 09-04-2010 02:44:03 9 C 6.44 g/m*3 9 C 0 km/h
1929 09-04-2010 02:56:03 8.8 C 6.53 g/m*3 8.8 C 0 km/h
1930 09-04-2010 03:08:03 8.7 C 6.66 g/m*3 8.7 C 0 km/h
1931 09-04-2010 03:20:03 8.6 C 6.62 g/m*3 8.6 C 0 km/h
1932 09-04-2010 03:32:03 8.4 C 6.62 g/m*3 8.4 C 0 km/h
1933 09-04-2010 03:44:03 8.4 C 6.7 g/m*3 8.4 C 0 km/h
1934 09-04-2010 03:56:03 8.2 C 6.62 g/m*3 8.2 C 0 km/h
1935 09-04-2010 04:08:03 8 C 6.61 g/m*3 8 C 0 km/h
1936 09-04-2010 04:20:03 7.8 C 6.61 g/m*3 7.8 C 0 km/h
1937 09-04-2010 04:32:03 7.5 C 6.56 g/m*3 7.5 C 0 km/h
1938 09-04-2010 04:44:03 7.4 C 6.6 g/m*3 7.4 C 0 km/h
1939 09-04-2010 04:56:03 7.5 C 6.64 g/m*3 7.5 C 0 km/h
1940 09-04-2010 05:08:03 7.8 C 6.86 g/m*3 7.8 C 0 km/h
1941 09-04-2010 05:20:03 8 C 6.86 g/m*3 8 C 0 km/h
1942 09-04-2010 05:32:04 8.1 C 6.82 g/m*3 8.1 C 0 km/h
1943 09-04-2010 05:44:04 8 C 6.61 g/m*3 8 C 0 km/h
1944 09-04-2010 05:56:04 7.8 C 6.61 g/m*3 7.8 C 0 km/h
1945 09-04-2010 06:08:04 7.8 C 6.61 g/m*3 7.8 C 0 km/h
1946 09-04-2010 06:20:04 7.8 C 6.61 g/m*3 7.8 C 0 km/h
1947 09-04-2010 06:32:04 7.9 C 6.57 g/m*3 7.9 C 0 km/h
1948 09-04-2010 06:44:04 7.6 C 6.44 g/m*3 7.6 C 0 km/h
1949 09-04-2010 06:56:04 7.7 C 6.57 g/m*3 7.7 C 0 km/h
1950 09-04-2010 07:08:02 7.7 C 6.49 g/m*3 7.7 C 0 km/h
Sensor: Nr:Datum:Temp:Abs-Feuchte:Windchill:Wind:
Aussen-T/F 1951 09-04-2010 07:20:02 7.7 C 6.49 g/m*3 7.7 C 0 km/h
1952 09-04-2010 07:32:02 7.9 C 6.57 g/m*3 7.9 C 0 km/h
1953 09-04-2010 07:44:02 8.1 C 6.49 g/m*3 8.1 C 0 km/h
1954 09-04-2010 07:56:02 8.1 C 6.32 g/m*3 8.1 C 0 km/h
1955 09-04-2010 08:08:02 7.7 C 6.16 g/m*3 7.7 C 0 km/h
1956 09-04-2010 08:20:02 7.4 C 6.12 g/m*3 7.4 C 0 km/h
1957 09-04-2010 08:32:01 7.5 C 6.24 g/m*3 7.5 C 0 km/h
1958 09-04-2010 08:44:01 7.7 C 6.32 g/m*3 7.7 C 0 km/h
1959 09-04-2010 08:56:02 8 C 6.28 g/m*3 8 C 0 km/h
1960 09-04-2010 09:08:01 7.9 C 6.24 g/m*3 7.9 C 0 km/h
1961 09-04-2010 09:20:02 7.8 C 6.28 g/m*3 7.8 C 0 km/h
1962 09-04-2010 09:32:01 8.5 C 6.4 g/m*3 8.5 C 0 km/h
1963 09-04-2010 09:44:01 8.8 C 6.27 g/m*3 8.8 C 0 km/h
1964 09-04-2010 09:56:02 8.6 C 6.1 g/m*3 8.6 C 0 km/h
1965 09-04-2010 10:08:02 9 C 5.91 g/m*3 9 C 0 km/h
1966 09-04-2010 10:20:02 9.5 C 6.1 g/m*3 9.5 C 0 km/h
1967 09-04-2010 10:32:03 9.8 C 6.12 g/m*3 9.8 C 0 km/h
1968 09-04-2010 10:44:03 10.2 C 5.9 g/m*3 10.2 C 0 km/h
1969 09-04-2010 10:56:02 10.8 C 5.93 g/m*3 10.8 C 0 km/h
1970 09-04-2010 11:08:01 11.2 C 5.68 g/m*3 11.2 C 0 km/h
1971 09-04-2010 11:20:02 11.5 C 5.78 g/m*3 11.5 C 0 km/h
1972 09-04-2010 11:32:02 11.9 C 5.72 g/m*3 11.9 C 0 km/h
1973 09-04-2010 11:44:02 12.5 C 5.61 g/m*3 12.5 C 0 km/h
1974 09-04-2010 11:56:02 13 C 5.56 g/m*3 13 C 0 km/h
1975 09-04-2010 12:08:02 13.5 C 5.26 g/m*3 13.5 C 0 km/h
Sensor: Nr:Datum:Temp:Abs-Feuchte:Windchill:Wind:
Aussen-T/F 1976 09-04-2010 12:20:02 13.8 C 5.36 g/m*3 13.8 C 0 km/h
1977 09-04-2010 12:32:02 14.2 C 5.13 g/m*3 14.2 C 0 km/h
1978 09-04-2010 12:44:02 14.7 C 5.16 g/m*3 14.7 C 0 km/h
1979 09-04-2010 12:56:02 13.6 C 4.71 g/m*3 13.6 C 0 km/h
1980 09-04-2010 13:08:02 14.4 C 4.7 g/m*3 14.4 C 0 km/h
1981 09-04-2010 13:20:01 14.6 C 4.63 g/m*3 14.6 C 0 km/h
1982 09-04-2010 13:32:02 14.7 C 4.66 g/m*3 14.7 C 0 km/h
1983 09-04-2010 13:44:02 14.7 C 4.66 g/m*3 14.7 C 0 km/h
1984 09-04-2010 13:56:02 15.8 C 4.58 g/m*3 15.8 C 0 km/h
1985 09-04-2010 14:08:02 15.6 C 4.52 g/m*3 15.6 C 0 km/h
1986 09-04-2010 14:20:02 15.8 C 4.31 g/m*3 15.8 C 0 km/h
1987 09-04-2010 14:32:02 15.8 C 3.63 g/m*3 15.8 C 0 km/h
1988 09-04-2010 14:44:02 15.9 C 4.06 g/m*3 15.9 C 0 km/h
1989 09-04-2010 14:56:02 16 C 4.09 g/m*3 16 C 0 km/h
1990 09-04-2010 15:08:02 16.7 C 3.98 g/m*3 16.7 C 0 km/h
1991 09-04-2010 15:20:02 15.7 C 4.01 g/m*3 15.7 C 0 km/h
1992 09-04-2010 15:32:02 15.4 C 4.07 g/m*3 15.4 C 0 km/h
1993 09-04-2010 15:44:02 15.2 C 4.02 g/m*3 15.2 C 0 km/h
1994 09-04-2010 15:56:01 15.4 C 4.2 g/m*3 15.4 C 0 km/h
1995 09-04-2010 16:08:01 15.6 C 4.26 g/m*3 15.6 C 0 km/h
1996 09-04-2010 16:20:01 15.9 C 4.2 g/m*3 15.9 C 0 km/h
1997 09-04-2010 16:32:01 15.6 C 4.26 g/m*3 15.6 C 0 km/h
1998 09-04-2010 16:44:01 15.5 C 4.1 g/m*3 15.5 C 0 km/h
1999 09-04-2010 16:56:01 15.4 C 4.34 g/m*3 15.4 C 0 km/h
2000 09-04-2010 17:08:01 15.7 C 4.28 g/m*3 15.7 C 0 km/h
Sensor: Nr:Datum:Temp:Abs-Feuchte:Windchill:Wind:
Aussen-T/F 2001 09-04-2010 17:20:02 15.3 C 4.18 g/m*3 15.3 C 0 km/h
2002 09-04-2010 17:32:01 15.1 C 4.26 g/m*3 15.1 C 0 km/h
2003 09-04-2010 17:44:01 15.3 C 4.31 g/m*3 15.3 C 0 km/h
2004 09-04-2010 17:56:01 15.1 C 4.39 g/m*3 15.1 C 0 km/h
2005 09-04-2010 18:08:01 14.8 C 4.43 g/m*3 14.8 C 0 km/h
2006 09-04-2010 18:20:02 14.8 C 4.56 g/m*3 14.8 C 0 km/h
2007 09-04-2010 18:32:01 14.7 C 4.53 g/m*3 14.7 C 0 km/h
2008 09-04-2010 18:44:01 15 C 4.49 g/m*3 15 C 0 km/h
2009 09-04-2010 18:56:03 15.7 C 4.55 g/m*3 15.7 C 0 km/h
2010 09-04-2010 19:08:02 15.2 C 4.54 g/m*3 15.2 C 0 km/h
2011 09-04-2010 19:20:02 14.4 C 4.45 g/m*3 14.4 C 0 km/h
2012 09-04-2010 19:32:02 14.2 C 4.52 g/m*3 14.2 C 0 km/h
2013 09-04-2010 19:44:02 14 C 4.82 g/m*3 14 C 0 km/h
2014 09-04-2010 19:56:02 14 C 4.95 g/m*3 14 C 0 km/h
2015 09-04-2010 20:08:02 13.4 C 5 g/m*3 13.4 C 0 km/h
2016 09-04-2010 20:20:02 13.1 C 5.14 g/m*3 13.1 C 0 km/h
2017 09-04-2010 20:32:01 13 C 5.1 g/m*3 13 C 0 km/h
2018 09-04-2010 20:44:01 12.6 C 5.2 g/m*3 12.6 C 0 km/h
2019 09-04-2010 20:56:02 12.4 C 5.35 g/m*3 12.4 C 0 km/h
2020 09-04-2010 21:08:01 11.9 C 5.4 g/m*3 11.9 C 0 km/h
2021 09-04-2010 21:20:02 11.6 C 5.4 g/m*3 11.6 C 0 km/h
2022 09-04-2010 21:32:02 11.4 C 5.44 g/m*3 11.4 C 0 km/h
2023 09-04-2010 21:44:02 11.4 C 5.54 g/m*3 11.4 C 0 km/h
2024 09-04-2010 21:56:02 11.4 C 5.65 g/m*3 11.4 C 0 km/h
2025 09-04-2010 22:09:03 11.2 C 5.68 g/m*3 11.2 C 0 km/h
Sensor: Nr:Datum:Temp:Abs-Feuchte:Windchill:Wind:
Aussen-T/F 2026 09-04-2010 22:21:03 11.3 C 5.71 g/m*3 11.3 C 0 km/h
2027 09-04-2010 22:33:03 11.2 C 5.68 g/m*3 11.2 C 0 km/h
2028 09-04-2010 22:45:03 11 C 5.61 g/m*3 11 C 0 km/h
2029 09-04-2010 22:57:03 11 C 5.71 g/m*3 11 C 0 km/h
2030 09-04-2010 23:09:03 11.1 C 5.74 g/m*3 11.1 C 0 km/h
2031 09-04-2010 23:21:03 11.1 C 5.74 g/m*3 11.1 C 0 km/h
2032 09-04-2010 23:33:03 11.1 C 5.74 g/m*3 11.1 C 0 km/h
2033 09-04-2010 23:45:03 11.1 C 5.74 g/m*3 11.1 C 0 km/h
2034 09-04-2010 23:57:04 11.1 C 5.74 g/m*3 11.1 C 0 km/h
2035 10-04-2010 00:09:04 11.1 C 5.84 g/m*3 11.1 C 0 km/h
2036 10-04-2010 00:21:04 11 C 5.81 g/m*3 11 C 0 km/h
2037 10-04-2010 00:33:04 10.6 C 5.86 g/m*3 10.6 C 0 km/h
2038 10-04-2010 00:45:04 10.1 C 5.77 g/m*3 10.1 C 0 km/h
2039 10-04-2010 00:57:04 9.7 C 5.81 g/m*3 9.7 C 0 km/h
2040 10-04-2010 01:09:04 9.6 C 5.86 g/m*3 9.6 C 0 km/h
2041 10-04-2010 01:21:04 9.6 C 5.86 g/m*3 9.6 C 0 km/h
2042 10-04-2010 01:33:04 9.5 C 6.01 g/m*3 9.5 C 0 km/h
2043 10-04-2010 01:45:04 9.4 C 6.06 g/m*3 9.4 C 0 km/h
2044 10-04-2010 01:57:04 9.5 C 6.1 g/m*3 9.5 C 0 km/h
2045 10-04-2010 02:09:04 9.5 C 6.01 g/m*3 9.5 C 0 km/h
2046 10-04-2010 02:21:04 9.4 C 5.97 g/m*3 9.4 C 0 km/h
2047 10-04-2010 02:33:04 9.3 C 5.93 g/m*3 9.3 C 0 km/h
2048 10-04-2010 02:45:04 9.3 C 5.93 g/m*3 9.3 C 0 km/h
2049 10-04-2010 02:57:04 9.4 C 5.97 g/m*3 9.4 C 0 km/h
2050 10-04-2010 03:09:04 9.5 C 6.01 g/m*3 9.5 C 0 km/h
Sensor: Nr:Datum:Temp:Abs-Feuchte:Windchill:Wind:
Aussen-T/F 2051 10-04-2010 03:21:04 9.4 C 5.97 g/m*3 9.4 C 0 km/h
2052 10-04-2010 03:33:04 9.6 C 6.14 g/m*3 9.6 C 0 km/h
2053 10-04-2010 03:45:04 9.8 C 6.12 g/m*3 9.8 C 0 km/h
2054 10-04-2010 03:57:05 10 C 5.92 g/m*3 10 C 0 km/h
2055 10-04-2010 04:09:05 10 C 5.92 g/m*3 10 C 0 km/h
2056 10-04-2010 04:21:05 10 C 5.92 g/m*3 10 C 0 km/h
2057 10-04-2010 04:33:05 10 C 5.92 g/m*3 10 C 0 km/h
2058 10-04-2010 04:45:05 9.8 C 5.94 g/m*3 9.8 C 0 km/h
2059 10-04-2010 04:57:05 9.8 C 5.94 g/m*3 9.8 C 0 km/h
2060 10-04-2010 05:09:05 9.7 C 5.9 g/m*3 9.7 C 0 km/h
2061 10-04-2010 05:21:05 9.7 C 5.9 g/m*3 9.7 C 0 km/h
2062 10-04-2010 05:33:05 9.6 C 5.86 g/m*3 9.6 C 0 km/h
2063 10-04-2010 05:45:05 9.5 C 5.83 g/m*3 9.5 C 0 km/h
2064 10-04-2010 05:57:05 9.5 C 5.83 g/m*3 9.5 C 0 km/h
2065 10-04-2010 06:09:05 9.4 C 5.88 g/m*3 9.4 C 0 km/h
2066 10-04-2010 06:21:05 9.3 C 5.84 g/m*3 9.3 C 0 km/h
2067 10-04-2010 06:33:05 9.3 C 5.84 g/m*3 9.3 C 0 km/h
2068 10-04-2010 06:45:05 9.2 C 5.89 g/m*3 9.2 C 0 km/h
2069 10-04-2010 06:57:05 9.1 C 5.86 g/m*3 9.1 C 0 km/h
2070 10-04-2010 07:09:05 9.1 C 5.86 g/m*3 9.1 C 0 km/h
2071 10-04-2010 07:21:05 9.1 C 5.94 g/m*3 9.1 C 0 km/h
2072 10-04-2010 07:33:05 9 C 5.91 g/m*3 9 C 0 km/h
2073 10-04-2010 07:45:05 8.9 C 6.04 g/m*3 8.9 C 0 km/h
2074 10-04-2010 07:57:05 9 C 5.99 g/m*3 9 C 0 km/h
2075 10-04-2010 08:09:03 9 C 5.99 g/m*3 9 C 0 km/h
Sensor: Nr:Datum:Temp:Abs-Feuchte:Windchill:Wind:
Aussen-T/F 2076 10-04-2010 08:21:03 8.9 C 6.04 g/m*3 8.9 C 0 km/h
2077 10-04-2010 08:33:04 9 C 5.99 g/m*3 9 C 0 km/h
2078 10-04-2010 08:45:02 9.1 C 5.94 g/m*3 9.1 C 0 km/h
2079 10-04-2010 08:57:02 9.2 C 5.98 g/m*3 9.2 C 0 km/h
2080 10-04-2010 09:09:02 9.5 C 5.92 g/m*3 9.5 C 0 km/h
2081 10-04-2010 09:21:02 9.7 C 5.9 g/m*3 9.7 C 0 km/h
2082 10-04-2010 09:33:02 9.8 C 5.75 g/m*3 9.8 C 0 km/h
2083 10-04-2010 09:45:02 10 C 5.73 g/m*3 10 C 0 km/h
2084 10-04-2010 09:57:02 10.1 C 5.39 g/m*3 10.1 C 0 km/h
2085 10-04-2010 10:09:01 10.2 C 4.95 g/m*3 10.2 C 0 km/h
2086 10-04-2010 10:21:01 10.6 C 4.59 g/m*3 10.6 C 0 km/h
2087 10-04-2010 10:33:02 10.3 C 4.41 g/m*3 10.3 C 0 km/h
2088 10-04-2010 10:45:02 10.8 C 4.35 g/m*3 10.8 C 0 km/h
2089 10-04-2010 10:57:02 11.1 C 4.23 g/m*3 11.1 C 0 km/h
2090 10-04-2010 11:09:02 11.5 C 4.13 g/m*3 11.5 C 0 km/h
2091 10-04-2010 11:21:02 11.4 C 4 g/m*3 11.4 C 0 km/h
2092 10-04-2010 11:33:02 11 C 3.9 g/m*3 11 C 0 km/h
2093 10-04-2010 11:45:02 11.2 C 3.95 g/m*3 11.2 C 0 km/h
2094 10-04-2010 11:57:02 12 C 3.94 g/m*3 12 C 0 km/h
2095 10-04-2010 12:09:02 11.9 C 3.71 g/m*3 11.9 C 0 km/h
2096 10-04-2010 12:21:02 12.6 C 3.87 g/m*3 12.6 C 0 km/h
2097 10-04-2010 12:33:02 12.6 C 3.54 g/m*3 12.6 C 0 km/h
2098 10-04-2010 12:45:01 12.5 C 3.52 g/m*3 12.5 C 0 km/h
2099 10-04-2010 12:57:01 12.9 C 3.49 g/m*3 12.9 C 0 km/h
2100 10-04-2010 13:09:02 13.1 C 3.42 g/m*3 13.1 C 0 km/h
Sensor: Nr:Datum:Temp:Abs-Feuchte:Windchill:Wind:
Aussen-T/F 2101 10-04-2010 13:21:01 13 C 3.18 g/m*3 13 C 0 km/h
2102 10-04-2010 13:33:01 14 C 3.38 g/m*3 14 C 0 km/h
2103 10-04-2010 13:45:01 14.3 C 3.32 g/m*3 14.3 C 0 km/h
2104 10-04-2010 13:57:01 14.1 C 3.16 g/m*3 14.1 C 0 km/h
2105 10-04-2010 14:09:02 13.6 C 3.18 g/m*3 13.6 C 0 km/h
2106 10-04-2010 14:21:01 14.9 C 3.19 g/m*3 14.9 C 0 km/h
2107 10-04-2010 14:33:01 15 C 3.21 g/m*3 15 C 0 km/h
2108 10-04-2010 14:45:01 14.7 C 2.77 g/m*3 14.7 C 0 km/h
2109 10-04-2010 14:57:01 15.2 C 2.86 g/m*3 15.2 C 0 km/h
2110 10-04-2010 15:09:02 15.7 C 3.08 g/m*3 15.7 C 0 km/h
2111 10-04-2010 15:21:02 15 C 2.56 g/m*3 15 C 0 km/h
2112 10-04-2010 15:33:01 16.3 C 2.77 g/m*3 16.3 C 0 km/h
2113 10-04-2010 15:45:01 15.4 C 2.63 g/m*3 15.4 C 0 km/h
2114 10-04-2010 15:57:01 16.9 C 2.88 g/m*3 16.9 C 0 km/h
2115 10-04-2010 16:09:02 15.9 C 2.71 g/m*3 15.9 C 0 km/h
2116 10-04-2010 16:21:02 15.7 C 2.68 g/m*3 15.7 C 0 km/h
2117 10-04-2010 16:33:01 16.4 C 2.79 g/m*3 16.4 C 0 km/h
2118 10-04-2010 16:45:02 17.3 C 2.95 g/m*3 17.3 C 0 km/h
2119 10-04-2010 16:57:02 15.3 C 2.61 g/m*3 15.3 C 0 km/h
2120 10-04-2010 17:09:01 16.3 C 2.77 g/m*3 16.3 C 0 km/h
2121 10-04-2010 17:21:02 17 C 2.89 g/m*3 17 C 0 km/h
2122 10-04-2010 17:33:01 15.8 C 2.69 g/m*3 15.8 C 0 km/h
2123 10-04-2010 17:45:03 15.9 C 2.71 g/m*3 15.9 C 0 km/h
2124 10-04-2010 17:57:03 16.2 C 2.76 g/m*3 16.2 C 0 km/h
2125 10-04-2010 18:09:02 16.1 C 2.74 g/m*3 16.1 C 0 km/h
Sensor: Nr:Datum:Temp:Abs-Feuchte:Windchill:Wind:
Aussen-T/F 2126 10-04-2010 18:21:02 16.5 C 2.81 g/m*3 16.5 C 0 km/h
2127 10-04-2010 18:33:02 16.4 C 2.79 g/m*3 16.4 C 0 km/h
2128 10-04-2010 18:45:02 14.9 C 2.8 g/m*3 14.9 C 0 km/h
2129 10-04-2010 18:57:02 15.4 C 2.76 g/m*3 15.4 C 0 km/h
2130 10-04-2010 19:09:01 14.7 C 3.02 g/m*3 14.7 C 0 km/h
2131 10-04-2010 19:21:02 14.4 C 3.09 g/m*3 14.4 C 0 km/h
2132 10-04-2010 19:33:02 13.7 C 3.2 g/m*3 13.7 C 0 km/h
2133 10-04-2010 19:45:02 12.9 C 3.16 g/m*3 12.9 C 0 km/h
2134 10-04-2010 19:57:02 12.3 C 3.15 g/m*3 12.3 C 0 km/h
2135 10-04-2010 20:09:01 11.5 C 3.2 g/m*3 11.5 C 0 km/h
2136 10-04-2010 20:21:01 11.2 C 3.34 g/m*3 11.2 C 0 km/h
2137 10-04-2010 20:33:02 10.8 C 3.46 g/m*3 10.8 C 0 km/h
2138 10-04-2010 20:45:02 10.6 C 3.51 g/m*3 10.6 C 0 km/h
2139 10-04-2010 20:57:02 10.4 C 3.47 g/m*3 10.4 C 0 km/h
2140 10-04-2010 21:09:02 10.2 C 3.52 g/m*3 10.2 C 0 km/h
2141 10-04-2010 21:21:02 10 C 3.48 g/m*3 10 C 0 km/h
2142 10-04-2010 21:33:02 9.8 C 3.62 g/m*3 9.8 C 0 km/h
2143 10-04-2010 21:45:02 9.6 C 3.66 g/m*3 9.6 C 0 km/h
2144 10-04-2010 21:57:02 9.6 C 3.66 g/m*3 9.6 C 0 km/h
2145 10-04-2010 22:09:02 9.2 C 3.66 g/m*3 9.2 C 0 km/h
2146 10-04-2010 22:22:02 8.7 C 3.72 g/m*3 8.7 C 0 km/h
2147 10-04-2010 22:34:02 8.3 C 3.71 g/m*3 8.3 C 0 km/h
2148 10-04-2010 22:46:02 8 C 3.72 g/m*3 8 C 0 km/h
2149 10-04-2010 22:58:02 7.6 C 3.79 g/m*3 7.6 C 0 km/h
2150 10-04-2010 23:10:02 7.5 C 3.84 g/m*3 7.5 C 0 km/h
Sensor: Nr:Datum:Temp:Abs-Feuchte:Windchill:Wind:
Aussen-T/F 2151 10-04-2010 23:22:02 7.3 C 3.87 g/m*3 7.3 C 0 km/h
2152 10-04-2010 23:34:02 7.1 C 3.9 g/m*3 7.1 C 0 km/h
2153 10-04-2010 23:46:02 7.1 C 3.98 g/m*3 7.1 C 0 km/h
2154 10-04-2010 23:58:02 6.9 C 4 g/m*3 6.9 C 0 km/h
2155 11-04-2010 00:10:02 6.7 C 4.1 g/m*3 6.7 C 0 km/h
2156 11-04-2010 00:22:03 6.6 C 4.15 g/m*3 6.6 C 0 km/h
2157 11-04-2010 00:34:03 6.6 C 4.23 g/m*3 6.6 C 0 km/h
2158 11-04-2010 00:46:03 6.5 C 4.2 g/m*3 6.5 C 0 km/h
2159 11-04-2010 00:58:03 6.5 C 4.2 g/m*3 6.5 C 0 km/h
2160 11-04-2010 01:10:03 6.6 C 4.3 g/m*3 6.6 C 0 km/h
2161 11-04-2010 01:22:03 6.2 C 4.27 g/m*3 6.2 C 0 km/h
2162 11-04-2010 01:34:03 6.1 C 4.31 g/m*3 6.1 C 0 km/h
2163 11-04-2010 01:46:03 5.9 C 4.4 g/m*3 5.9 C 0 km/h
2164 11-04-2010 01:58:03 5.8 C 4.44 g/m*3 5.8 C 0 km/h
2165 11-04-2010 02:10:03 5.6 C 4.45 g/m*3 5.6 C 0 km/h
2166 11-04-2010 02:22:03 5.4 C 4.4 g/m*3 5.4 C 0 km/h
2167 11-04-2010 02:34:03 5.1 C 4.45 g/m*3 5.1 C 0 km/h
2168 11-04-2010 02:46:03 5 C 4.48 g/m*3 5 C 0 km/h
2169 11-04-2010 02:58:03 4.8 C 4.49 g/m*3 4.8 C 0 km/h
2170 11-04-2010 03:10:03 4.9 C 4.66 g/m*3 4.9 C 0 km/h
2171 11-04-2010 03:22:03 5 C 4.55 g/m*3 5 C 0 km/h
2172 11-04-2010 03:34:03 4.7 C 4.53 g/m*3 4.7 C 0 km/h
2173 11-04-2010 03:46:03 4.8 C 4.63 g/m*3 4.8 C 0 km/h
2174 11-04-2010 03:58:03 4.8 C 4.69 g/m*3 4.8 C 0 km/h
2175 11-04-2010 04:10:03 4.8 C 4.69 g/m*3 4.8 C 0 km/h
Sensor: Nr:Datum:Temp:Abs-Feuchte:Windchill:Wind:
Aussen-T/F 2176 11-04-2010 04:22:03 5 C 4.69 g/m*3 5 C 0 km/h
2177 11-04-2010 04:34:04 5 C 4.69 g/m*3 5 C 0 km/h
2178 11-04-2010 04:46:04 4.9 C 4.73 g/m*3 4.9 C 0 km/h
2179 11-04-2010 04:58:04 4.7 C 4.73 g/m*3 4.7 C 0 km/h
2180 11-04-2010 05:10:04 4.6 C 4.7 g/m*3 4.6 C 0 km/h
2181 11-04-2010 05:22:04 4.5 C 4.67 g/m*3 4.5 C 0 km/h
2182 11-04-2010 05:34:04 4.3 C 4.67 g/m*3 4.3 C 0 km/h
2183 11-04-2010 05:46:04 4.3 C 4.74 g/m*3 4.3 C 0 km/h
2184 11-04-2010 05:58:04 4.2 C 4.77 g/m*3 4.2 C 0 km/h
2185 11-04-2010 06:10:04 4.1 C 4.74 g/m*3 4.1 C 0 km/h
2186 11-04-2010 06:22:04 4.2 C 4.77 g/m*3 4.2 C 0 km/h
2187 11-04-2010 06:34:04 4.3 C 4.8 g/m*3 4.3 C 0 km/h
2188 11-04-2010 06:46:04 4.4 C 4.77 g/m*3 4.4 C 0 km/h
2189 11-04-2010 06:58:04 4.6 C 4.83 g/m*3 4.6 C 0 km/h
2190 11-04-2010 07:10:04 4.5 C 4.73 g/m*3 4.5 C 0 km/h
2191 11-04-2010 07:22:04 4.5 C 4.73 g/m*3 4.5 C 0 km/h
2192 11-04-2010 07:34:04 4.7 C 4.8 g/m*3 4.7 C 0 km/h
2193 11-04-2010 07:46:04 4.9 C 4.79 g/m*3 4.9 C 0 km/h
2194 11-04-2010 07:58:04 5.1 C 4.79 g/m*3 5.1 C 0 km/h
2195 11-04-2010 08:10:01 5.2 C 4.75 g/m*3 5.2 C 0 km/h
2196 11-04-2010 08:22:02 5.4 C 4.81 g/m*3 5.4 C 0 km/h
2197 11-04-2010 08:34:02 5.8 C 4.87 g/m*3 5.8 C 0 km/h
2198 11-04-2010 08:46:02 5.6 C 4.74 g/m*3 5.6 C 0 km/h
2199 11-04-2010 08:58:02 6.2 C 4.78 g/m*3 6.2 C 0 km/h
2200 11-04-2010 09:10:02 6.3 C 4.74 g/m*3 6.3 C 0 km/h
Sensor: Nr:Datum:Temp:Abs-Feuchte:Windchill:Wind:
Aussen-T/F 2201 11-04-2010 09:22:02 6.7 C 4.79 g/m*3 6.7 C 0 km/h
2202 11-04-2010 09:34:03 6.8 C 4.74 g/m*3 6.8 C 0 km/h
2203 11-04-2010 09:46:02 7.2 C 4.71 g/m*3 7.2 C 0 km/h
2204 11-04-2010 09:58:02 7.5 C 4.8 g/m*3 7.5 C 0 km/h
2205 11-04-2010 10:10:02 7.6 C 4.67 g/m*3 7.6 C 0 km/h
2206 11-04-2010 10:22:01 7.7 C 4.7 g/m*3 7.7 C 0 km/h
2207 11-04-2010 10:34:02 7.2 C 4.63 g/m*3 7.2 C 0 km/h
2208 11-04-2010 10:46:02 7.4 C 4.77 g/m*3 7.4 C 0 km/h
2209 11-04-2010 10:58:02 7.9 C 4.76 g/m*3 7.9 C 0 km/h
2210 11-04-2010 11:10:02 8.3 C 4.64 g/m*3 8.3 C 0 km/h
2211 11-04-2010 11:22:02 8.7 C 4.58 g/m*3 8.7 C 0 km/h
2212 11-04-2010 11:34:02 9 C 4.41 g/m*3 9 C 0 km/h
2213 11-04-2010 11:46:02 9.3 C 4.4 g/m*3 9.3 C 0 km/h
2214 11-04-2010 11:58:02 10 C 4.32 g/m*3 10 C 0 km/h
2215 11-04-2010 12:10:02 10.1 C 3.69 g/m*3 10.1 C 0 km/h
2216 11-04-2010 12:22:02 10.5 C 3.49 g/m*3 10.5 C 0 km/h
2217 11-04-2010 12:34:02 11.1 C 3.32 g/m*3 11.1 C 0 km/h
2218 11-04-2010 12:46:02 11.5 C 3.41 g/m*3 11.5 C 0 km/h
2219 11-04-2010 12:58:02 11.6 C 3.22 g/m*3 11.6 C 0 km/h
2220 11-04-2010 13:10:02 10.8 C 3.36 g/m*3 10.8 C 0 km/h
2221 11-04-2010 13:22:02 11.1 C 3.22 g/m*3 11.1 C 0 km/h
2222 11-04-2010 13:34:02 12.3 C 3.15 g/m*3 12.3 C 0 km/h
2223 11-04-2010 13:46:01 12.8 C 3.02 g/m*3 12.8 C 0 km/h
2224 11-04-2010 13:58:01 11.7 C 2.82 g/m*3 11.7 C 0 km/h
2225 11-04-2010 14:10:01 11.8 C 3.05 g/m*3 11.8 C 0 km/h
Sensor: Nr:Datum:Temp:Abs-Feuchte:Windchill:Wind:
Aussen-T/F 2226 11-04-2010 14:22:02 12.2 C 2.81 g/m*3 12.2 C 0 km/h
2227 11-04-2010 14:34:01 12.3 C 2.82 g/m*3 12.3 C 0 km/h
2228 11-04-2010 14:46:01 12 C 2.88 g/m*3 12 C 0 km/h
2229 11-04-2010 14:58:01 11.7 C 3.14 g/m*3 11.7 C 0 km/h
2230 11-04-2010 15:10:01 10.3 C 2.97 g/m*3 10.3 C 0 km/h
2231 11-04-2010 15:22:02 8.3 C 4.8 g/m*3 8.3 C 0 km/h
2232 11-04-2010 15:34:01 8.4 C 5.17 g/m*3 8.4 C 0 km/h
2233 11-04-2010 15:46:03 10.8 C 5.04 g/m*3 10.8 C 0 km/h
2234 11-04-2010 15:58:03 11.3 C 4.28 g/m*3 11.3 C 0 km/h
2235 11-04-2010 16:10:02 12.8 C 4.03 g/m*3 12.8 C 0 km/h
2236 11-04-2010 16:22:02 12.9 C 3.49 g/m*3 12.9 C 0 km/h
2237 11-04-2010 16:34:02 13.9 C 3.6 g/m*3 13.9 C 0 km/h
2238 11-04-2010 16:46:02 13.5 C 3.16 g/m*3 13.5 C 0 km/h
2239 11-04-2010 16:58:02 11.2 C 3.75 g/m*3 11.2 C 0 km/h
2240 11-04-2010 17:10:02 9.6 C 4.67 g/m*3 9.6 C 0 km/h
2241 11-04-2010 17:22:02 11.4 C 4.52 g/m*3 11.4 C 0 km/h
2242 11-04-2010 17:34:02 11.8 C 4 g/m*3 11.8 C 0 km/h
2243 11-04-2010 17:46:02 13.4 C 4.07 g/m*3 13.4 C 0 km/h
2244 11-04-2010 17:58:02 12.9 C 3.72 g/m*3 12.9 C 0 km/h
2245 11-04-2010 18:10:02 12.8 C 3.92 g/m*3 12.8 C 0 km/h
2246 11-04-2010 18:22:02 11.8 C 2.95 g/m*3 11.8 C 0 km/h
2247 11-04-2010 18:34:01 10.9 C 3.08 g/m*3 10.9 C 0 km/h
2248 11-04-2010 18:46:02 11.2 C 3.24 g/m*3 11.2 C 0 km/h
2249 11-04-2010 18:58:02 12.1 C 3.22 g/m*3 12.1 C 0 km/h
2250 11-04-2010 19:10:01 12.1 C 3.22 g/m*3 12.1 C 0 km/h
Sensor: Nr:Datum:Temp:Abs-Feuchte:Windchill:Wind:
Aussen-T/F 2251 11-04-2010 19:22:02 10.7 C 3.63 g/m*3 10.7 C 0 km/h
2252 11-04-2010 19:34:01 10.4 C 3.86 g/m*3 10.4 C 0 km/h
2253 11-04-2010 19:46:03 9.9 C 3.92 g/m*3 9.9 C 0 km/h
2254 11-04-2010 19:58:03 9.5 C 3.82 g/m*3 9.5 C 0 km/h
2255 11-04-2010 20:10:02 9.1 C 3.9 g/m*3 9.1 C 0 km/h
2256 11-04-2010 20:22:02 8.6 C 4.04 g/m*3 8.6 C 0 km/h
2257 11-04-2010 20:34:03 8.2 C 4.1 g/m*3 8.2 C 0 km/h
2258 11-04-2010 20:46:02 8 C 4.13 g/m*3 8 C 0 km/h
2259 11-04-2010 20:58:02 7.7 C 4.22 g/m*3 7.7 C 0 km/h
2260 11-04-2010 21:10:02 7.5 C 4.16 g/m*3 7.5 C 0 km/h
2261 11-04-2010 21:22:02 7.3 C 4.11 g/m*3 7.3 C 0 km/h
2262 11-04-2010 21:34:02 7.1 C 4.13 g/m*3 7.1 C 0 km/h
2263 11-04-2010 21:46:02 6.9 C 4.16 g/m*3 6.9 C 0 km/h
2264 11-04-2010 21:58:03 6.7 C 4.1 g/m*3 6.7 C 0 km/h
2265 11-04-2010 22:10:01 6.5 C 4.12 g/m*3 6.5 C 0 km/h
2266 11-04-2010 22:22:01 6.3 C 4.15 g/m*3 6.3 C 0 km/h
2267 11-04-2010 22:35:02 6.2 C 4.19 g/m*3 6.2 C 0 km/h
2268 11-04-2010 22:47:02 6.1 C 4.16 g/m*3 6.1 C 0 km/h
2269 11-04-2010 22:59:02 5.9 C 4.25 g/m*3 5.9 C 0 km/h
2270 11-04-2010 23:11:02 5.8 C 4.3 g/m*3 5.8 C 0 km/h
2271 11-04-2010 23:23:02 5.6 C 4.24 g/m*3 5.6 C 0 km/h
2272 11-04-2010 23:35:03 5.5 C 4.28 g/m*3 5.5 C 0 km/h
2273 11-04-2010 23:47:03 5.4 C 4.33 g/m*3 5.4 C 0 km/h
2274 11-04-2010 23:59:03 5.2 C 4.27 g/m*3 5.2 C 0 km/h
2275 12-04-2010 00:11:03 5.2 C 4.27 g/m*3 5.2 C 0 km/h
Sensor: Nr:Datum:Temp:Abs-Feuchte:Windchill:Wind:
Aussen-T/F 2276 12-04-2010 00:23:03 5.1 C 4.31 g/m*3 5.1 C 0 km/h
2277 12-04-2010 00:35:03 5.1 C 4.38 g/m*3 5.1 C 0 km/h
2278 12-04-2010 00:47:03 5 C 4.42 g/m*3 5 C 0 km/h
2279 12-04-2010 00:59:03 4.8 C 4.43 g/m*3 4.8 C 0 km/h
2280 12-04-2010 01:11:03 4.8 C 4.56 g/m*3 4.8 C 0 km/h
2281 12-04-2010 01:23:03 5.1 C 4.65 g/m*3 5.1 C 0 km/h
2282 12-04-2010 01:35:03 5.3 C 4.64 g/m*3 5.3 C 0 km/h
2283 12-04-2010 01:47:03 5.5 C 4.71 g/m*3 5.5 C 0 km/h
2284 12-04-2010 01:59:03 5.5 C 4.64 g/m*3 5.5 C 0 km/h
2285 12-04-2010 02:11:03 5.2 C 4.54 g/m*3 5.2 C 0 km/h
2286 12-04-2010 02:23:03 5.1 C 4.51 g/m*3 5.1 C 0 km/h
2287 12-04-2010 02:35:03 5.2 C 4.54 g/m*3 5.2 C 0 km/h
2288 12-04-2010 02:47:03 5.4 C 4.6 g/m*3 5.4 C 0 km/h
2289 12-04-2010 02:59:03 5.5 C 4.57 g/m*3 5.5 C 0 km/h
2290 12-04-2010 03:11:03 5.7 C 4.48 g/m*3 5.7 C 0 km/h
2291 12-04-2010 03:23:03 5.8 C 4.51 g/m*3 5.8 C 0 km/h
2292 12-04-2010 03:35:04 5.6 C 4.45 g/m*3 5.6 C 0 km/h
2293 12-04-2010 03:47:04 5.4 C 4.33 g/m*3 5.4 C 0 km/h
2294 12-04-2010 03:59:04 5.4 C 4.33 g/m*3 5.4 C 0 km/h
2295 12-04-2010 04:11:04 5.5 C 4.35 g/m*3 5.5 C 0 km/h
2296 12-04-2010 04:23:04 5.6 C 4.38 g/m*3 5.6 C 0 km/h
2297 12-04-2010 04:35:04 5.7 C 4.41 g/m*3 5.7 C 0 km/h
2298 12-04-2010 04:47:04 5.7 C 4.41 g/m*3 5.7 C 0 km/h
2299 12-04-2010 04:59:04 5.7 C 4.48 g/m*3 5.7 C 0 km/h
2300 12-04-2010 05:11:04 5.7 C 4.48 g/m*3 5.7 C 0 km/h
Sensor: Nr:Datum:Temp:Abs-Feuchte:Windchill:Wind:
Aussen-T/F 2301 12-04-2010 05:23:04 5.6 C 4.6 g/m*3 5.6 C 0 km/h
2302 12-04-2010 05:35:04 5.6 C 4.67 g/m*3 5.6 C 0 km/h
2303 12-04-2010 05:47:04 5.7 C 4.63 g/m*3 5.7 C 0 km/h
2304 12-04-2010 05:59:04 5.6 C 4.67 g/m*3 5.6 C 0 km/h
2305 12-04-2010 06:11:04 5.6 C 4.67 g/m*3 5.6 C 0 km/h
2306 12-04-2010 06:23:04 5.7 C 4.7 g/m*3 5.7 C 0 km/h
2307 12-04-2010 06:35:04 5.7 C 4.7 g/m*3 5.7 C 0 km/h
2308 12-04-2010 06:47:04 5.7 C 4.7 g/m*3 5.7 C 0 km/h
2309 12-04-2010 06:59:04 5.7 C 4.7 g/m*3 5.7 C 0 km/h
2310 12-04-2010 07:11:03 5.8 C 4.8 g/m*3 5.8 C 0 km/h
2311 12-04-2010 07:23:02 5.8 C 4.8 g/m*3 5.8 C 0 km/h
2312 12-04-2010 07:35:03 5.9 C 4.83 g/m*3 5.9 C 0 km/h
2313 12-04-2010 07:47:02 5.9 C 4.83 g/m*3 5.9 C 0 km/h
2314 12-04-2010 07:59:02 6.1 C 4.82 g/m*3 6.1 C 0 km/h
2315 12-04-2010 08:11:01 6.3 C 4.81 g/m*3 6.3 C 0 km/h
2316 12-04-2010 08:23:02 6.4 C 4.92 g/m*3 6.4 C 0 km/h
2317 12-04-2010 08:35:02 6.7 C 4.94 g/m*3 6.7 C 0 km/h
2318 12-04-2010 08:47:02 7 C 4.88 g/m*3 7 C 0 km/h
2319 12-04-2010 08:59:02 7.4 C 4.93 g/m*3 7.4 C 0 km/h
2320 12-04-2010 09:11:02 7.5 C 4.96 g/m*3 7.5 C 0 km/h
2321 12-04-2010 09:23:02 7.4 C 5.01 g/m*3 7.4 C 0 km/h
2322 12-04-2010 09:35:02 7.3 C 5.06 g/m*3 7.3 C 0 km/h
2323 12-04-2010 09:47:02 7.5 C 5.12 g/m*3 7.5 C 0 km/h
2324 12-04-2010 09:59:02 7.4 C 5.09 g/m*3 7.4 C 0 km/h
2325 12-04-2010 10:11:02 7.5 C 5.04 g/m*3 7.5 C 0 km/h
Sensor: Nr:Datum:Temp:Abs-Feuchte:Windchill:Wind:
Aussen-T/F 2326 12-04-2010 10:23:02 7.6 C 5.16 g/m*3 7.6 C 0 km/h
2327 12-04-2010 10:35:02 7.8 C 5.22 g/m*3 7.8 C 0 km/h
2328 12-04-2010 10:47:01 7.9 C 5.26 g/m*3 7.9 C 0 km/h
2329 12-04-2010 10:59:01 8.3 C 5.23 g/m*3 8.3 C 0 km/h
2330 12-04-2010 11:11:01 9 C 5.2 g/m*3 9 C 0 km/h
2331 12-04-2010 11:23:01 9.6 C 5.04 g/m*3 9.6 C 0 km/h
2332 12-04-2010 11:35:01 9.3 C 5.03 g/m*3 9.3 C 0 km/h
2333 12-04-2010 11:47:02 10.5 C 4.85 g/m*3 10.5 C 0 km/h
2334 12-04-2010 11:59:02 10.7 C 4.91 g/m*3 10.7 C 0 km/h
2335 12-04-2010 12:11:02 10.5 C 4.95 g/m*3 10.5 C 0 km/h
2336 12-04-2010 12:23:03 9.9 C 4.95 g/m*3 9.9 C 0 km/h
2337 12-04-2010 12:35:02 9.6 C 5.5 g/m*3 9.6 C 0 km/h
2338 12-04-2010 12:47:03 10.2 C 5.61 g/m*3 10.2 C 0 km/h
2339 12-04-2010 12:59:03 11.8 C 5.58 g/m*3 11.8 C 0 km/h
2340 12-04-2010 13:11:02 11.7 C 4.92 g/m*3 11.7 C 0 km/h
2341 12-04-2010 13:23:02 11.5 C 4.85 g/m*3 11.5 C 0 km/h
2342 12-04-2010 13:35:02 11.8 C 4.74 g/m*3 11.8 C 0 km/h
2343 12-04-2010 13:47:02 11.5 C 4.65 g/m*3 11.5 C 0 km/h
2344 12-04-2010 13:59:02 12 C 4.58 g/m*3 12 C 0 km/h
2345 12-04-2010 14:11:02 11.7 C 4.5 g/m*3 11.7 C 0 km/h
2346 12-04-2010 14:23:02 9.4 C 5.43 g/m*3 9.4 C 0 km/h
2347 12-04-2010 14:35:01 8.2 C 5.78 g/m*3 8.2 C 0 km/h
2348 12-04-2010 14:47:02 7.8 C 6.12 g/m*3 7.8 C 0 km/h
2349 12-04-2010 14:59:02 8 C 6.37 g/m*3 8 C 0 km/h
2350 12-04-2010 15:11:01 8.7 C 6.4 g/m*3 8.7 C 0 km/h
Sensor: Nr:Datum:Temp:Abs-Feuchte:Windchill:Wind:
Aussen-T/F 2351 12-04-2010 15:23:02 9.2 C 6.34 g/m*3 9.2 C 0 km/h
2352 12-04-2010 15:35:02 9.4 C 6.15 g/m*3 9.4 C 0 km/h
2353 12-04-2010 15:47:02 9.3 C 5.75 g/m*3 9.3 C 0 km/h
2354 12-04-2010 15:59:03 9.2 C 5.71 g/m*3 9.2 C 0 km/h
2355 12-04-2010 16:11:02 9.3 C 5.84 g/m*3 9.3 C 0 km/h
2356 12-04-2010 16:23:02 9.4 C 5.79 g/m*3 9.4 C 0 km/h
2357 12-04-2010 16:35:02 9.4 C 5.61 g/m*3 9.4 C 0 km/h
2358 12-04-2010 16:47:02 9.3 C 5.66 g/m*3 9.3 C 0 km/h
2359 12-04-2010 16:59:02 9.3 C 5.57 g/m*3 9.3 C 0 km/h
2360 12-04-2010 17:11:01 9.3 C 5.48 g/m*3 9.3 C 0 km/h
2361 12-04-2010 17:23:01 9.3 C 5.57 g/m*3 9.3 C 0 km/h
2362 12-04-2010 17:35:02 8.9 C 5.78 g/m*3 8.9 C 0 km/h
2363 12-04-2010 17:47:02 8.5 C 5.89 g/m*3 8.5 C 0 km/h
2364 12-04-2010 17:59:02 8.3 C 5.98 g/m*3 8.3 C 0 km/h
2365 12-04-2010 18:11:02 8.1 C 5.99 g/m*3 8.1 C 0 km/h
2366 12-04-2010 18:23:02 8 C 6.04 g/m*3 8 C 0 km/h
2367 12-04-2010 18:35:02 8.1 C 6.07 g/m*3 8.1 C 0 km/h
2368 12-04-2010 18:47:02 8.1 C 5.99 g/m*3 8.1 C 0 km/h
2369 12-04-2010 18:59:02 8.1 C 5.99 g/m*3 8.1 C 0 km/h
2370 12-04-2010 19:11:03 8 C 6.04 g/m*3 8 C 0 km/h
2371 12-04-2010 19:23:02 7.8 C 6.28 g/m*3 7.8 C 0 km/h
2372 12-04-2010 19:35:02 7.5 C 6.32 g/m*3 7.5 C 0 km/h
2373 12-04-2010 19:47:01 7.3 C 6.4 g/m*3 7.3 C 0 km/h
2374 12-04-2010 19:59:01 7.3 C 6.48 g/m*3 7.3 C 0 km/h
2375 12-04-2010 20:11:02 7.4 C 6.6 g/m*3 7.4 C 0 km/h
Sensor: Nr:Datum:Temp:Abs-Feuchte:Windchill:Wind:
Aussen-T/F 2376 12-04-2010 20:23:01 7.3 C 6.64 g/m*3 7.3 C 0 km/h
2377 12-04-2010 20:35:01 7.3 C 6.64 g/m*3 7.3 C 0 km/h
2378 12-04-2010 20:47:01 7.3 C 6.64 g/m*3 7.3 C 0 km/h
2379 12-04-2010 20:59:01 7.1 C 6.55 g/m*3 7.1 C 0 km/h
2380 12-04-2010 21:11:02 7.2 C 6.67 g/m*3 7.2 C 0 km/h
2381 12-04-2010 21:23:01 7.3 C 6.72 g/m*3 7.3 C 0 km/h
2382 12-04-2010 21:35:02 7.3 C 6.72 g/m*3 7.3 C 0 km/h
2383 12-04-2010 21:47:01 7.3 C 6.72 g/m*3 7.3 C 0 km/h
2384 12-04-2010 21:59:01 7.4 C 6.68 g/m*3 7.4 C 0 km/h
2385 12-04-2010 22:11:02 7.4 C 6.68 g/m*3 7.4 C 0 km/h
2386 12-04-2010 22:24:04 7.3 C 6.64 g/m*3 7.3 C 0 km/h
2387 12-04-2010 22:36:04 7.1 C 6.55 g/m*3 7.1 C 0 km/h
2388 12-04-2010 22:48:04 6.8 C 6.42 g/m*3 6.8 C 0 km/h
2389 12-04-2010 23:00:04 6.9 C 6.54 g/m*3 6.9 C 0 km/h
2390 12-04-2010 23:12:04 7 C 6.51 g/m*3 7 C 0 km/h
2391 12-04-2010 23:24:04 7.2 C 6.59 g/m*3 7.2 C 0 km/h
2392 12-04-2010 23:36:04 7.1 C 6.47 g/m*3 7.1 C 0 km/h
2393 12-04-2010 23:48:04 7 C 6.35 g/m*3 7 C 0 km/h
2394 13-04-2010 00:00:04 7.1 C 6.4 g/m*3 7.1 C 0 km/h
2395 13-04-2010 00:12:04 7.2 C 6.36 g/m*3 7.2 C 0 km/h
2396 13-04-2010 00:24:04 7.2 C 6.36 g/m*3 7.2 C 0 km/h
2397 13-04-2010 00:36:04 7.2 C 6.36 g/m*3 7.2 C 0 km/h
2398 13-04-2010 00:48:04 7.3 C 6.4 g/m*3 7.3 C 0 km/h
2399 13-04-2010 01:00:04 7.3 C 6.4 g/m*3 7.3 C 0 km/h
2400 13-04-2010 01:12:04 7 C 6.35 g/m*3 7 C 0 km/h
Sensor: Nr:Datum:Temp:Abs-Feuchte:Windchill:Wind:
Aussen-T/F 2401 13-04-2010 01:24:04 6.9 C 6.54 g/m*3 6.9 C 0 km/h
2402 13-04-2010 01:36:04 6.8 C 6.65 g/m*3 6.8 C 0 km/h
2403 13-04-2010 01:48:04 6.9 C 6.77 g/m*3 6.9 C 0 km/h
2404 13-04-2010 02:00:04 6.8 C 6.81 g/m*3 6.8 C 0 km/h
2405 13-04-2010 02:12:05 6.9 C 6.93 g/m*3 6.9 C 0 km/h
2406 13-04-2010 02:24:05 6.9 C 7.01 g/m*3 6.9 C 0 km/h
2407 13-04-2010 02:36:05 6.9 C 7.08 g/m*3 6.9 C 0 km/h
2408 13-04-2010 02:48:05 6.9 C 7.08 g/m*3 6.9 C 0 km/h
2409 13-04-2010 03:00:05 6.9 C 7.08 g/m*3 6.9 C 0 km/h
2410 13-04-2010 03:12:05 7 C 7.05 g/m*3 7 C 0 km/h
2411 13-04-2010 03:24:05 7 C 7.13 g/m*3 7 C 0 km/h
2412 13-04-2010 03:36:05 6.9 C 7.08 g/m*3 6.9 C 0 km/h
2413 13-04-2010 03:48:05 6.9 C 7.08 g/m*3 6.9 C 0 km/h
2414 13-04-2010 04:00:05 6.9 C 7.08 g/m*3 6.9 C 0 km/h
2415 13-04-2010 04:12:05 6.9 C 7.16 g/m*3 6.9 C 0 km/h
2416 13-04-2010 04:24:05 6.9 C 7.16 g/m*3 6.9 C 0 km/h
2417 13-04-2010 04:36:05 6.9 C 7.16 g/m*3 6.9 C 0 km/h
2418 13-04-2010 04:48:05 6.8 C 7.11 g/m*3 6.8 C 0 km/h
2419 13-04-2010 05:00:05 6.9 C 7.16 g/m*3 6.9 C 0 km/h
2420 13-04-2010 05:12:05 7 C 7.21 g/m*3 7 C 0 km/h
2421 13-04-2010 05:24:05 7 C 7.21 g/m*3 7 C 0 km/h
2422 13-04-2010 05:36:05 6.9 C 7.16 g/m*3 6.9 C 0 km/h
2423 13-04-2010 05:48:05 6.9 C 7.16 g/m*3 6.9 C 0 km/h
2424 13-04-2010 06:00:05 7 C 7.13 g/m*3 7 C 0 km/h
2425 13-04-2010 06:12:05 6.9 C 7.16 g/m*3 6.9 C 0 km/h
Sensor: Nr:Datum:Temp:Abs-Feuchte:Windchill:Wind:
Aussen-T/F 2426 13-04-2010 06:24:05 7 C 7.05 g/m*3 7 C 0 km/h
2427 13-04-2010 06:36:06 7 C 7.05 g/m*3 7 C 0 km/h
2428 13-04-2010 06:48:06 7 C 6.97 g/m*3 7 C 0 km/h
2429 13-04-2010 07:00:06 7 C 6.9 g/m*3 7 C 0 km/h
2430 13-04-2010 07:12:03 6.8 C 6.81 g/m*3 6.8 C 0 km/h
2431 13-04-2010 07:24:03 6.6 C 6.64 g/m*3 6.6 C 0 km/h
2432 13-04-2010 07:36:03 6.5 C 6.6 g/m*3 6.5 C 0 km/h
2433 13-04-2010 07:48:02 6.5 C 6.6 g/m*3 6.5 C 0 km/h
2434 13-04-2010 08:00:02 6.6 C 6.57 g/m*3 6.6 C 0 km/h
2435 13-04-2010 08:12:02 6.7 C 6.61 g/m*3 6.7 C 0 km/h
2436 13-04-2010 08:24:02 7 C 6.66 g/m*3 7 C 0 km/h
2437 13-04-2010 08:36:02 7.3 C 6.64 g/m*3 7.3 C 0 km/h
2438 13-04-2010 08:48:02 7.5 C 6.64 g/m*3 7.5 C 0 km/h
2439 13-04-2010 09:00:02 7.8 C 6.61 g/m*3 7.8 C 0 km/h
2440 13-04-2010 09:12:02 8.1 C 6.49 g/m*3 8.1 C 0 km/h
2441 13-04-2010 09:24:03 8.2 C 6.53 g/m*3 8.2 C 0 km/h
2442 13-04-2010 09:36:02 8.6 C 6.62 g/m*3 8.6 C 0 km/h
2443 13-04-2010 09:48:02 9 C 6.61 g/m*3 9 C 0 km/h
2444 13-04-2010 10:00:02 9.4 C 6.69 g/m*3 9.4 C 0 km/h
2445 13-04-2010 10:12:02 10.2 C 6.28 g/m*3 10.2 C 0 km/h
2446 13-04-2010 10:24:02 10.7 C 6.38 g/m*3 10.7 C 0 km/h
2447 13-04-2010 10:36:02 11.2 C 6.18 g/m*3 11.2 C 0 km/h
2448 13-04-2010 10:48:01 11.7 C 6.28 g/m*3 11.7 C 0 km/h
2449 13-04-2010 11:00:01 12.2 C 6.15 g/m*3 12.2 C 0 km/h
2450 13-04-2010 11:12:02 13.2 C 6.32 g/m*3 13.2 C 0 km/h
Sensor: Nr:Datum:Temp:Abs-Feuchte:Windchill:Wind:
Aussen-T/F 2451 13-04-2010 11:24:02 13.8 C 6.2 g/m*3 13.8 C 0 km/h
2452 13-04-2010 11:36:02 14.1 C 5.58 g/m*3 14.1 C 0 km/h
2453 13-04-2010 11:48:02 15 C 5.39 g/m*3 15 C 0 km/h
2454 13-04-2010 12:00:02 15 C 4.74 g/m*3 15 C 0 km/h
2455 13-04-2010 12:12:02 15 C 4.62 g/m*3 15 C 0 km/h
2456 13-04-2010 12:24:02 15.8 C 4.85 g/m*3 15.8 C 0 km/h
2457 13-04-2010 12:36:01 15.7 C 4.55 g/m*3 15.7 C 0 km/h
2458 13-04-2010 12:48:02 15.3 C 4.57 g/m*3 15.3 C 0 km/h
2459 13-04-2010 13:00:02 16.6 C 4.8 g/m*3 16.6 C 0 km/h
2460 13-04-2010 13:12:01 16.4 C 4.61 g/m*3 16.4 C 0 km/h
2461 13-04-2010 13:24:01 16.8 C 4.43 g/m*3 16.8 C 0 km/h
2462 13-04-2010 13:36:02 17.5 C 4.32 g/m*3 17.5 C 0 km/h
2463 13-04-2010 13:48:02 17.8 C 4.1 g/m*3 17.8 C 0 km/h
2464 13-04-2010 14:00:02 17.6 C 3.9 g/m*3 17.6 C 0 km/h
2465 13-04-2010 14:12:02 17.9 C 3.97 g/m*3 17.9 C 0 km/h
2466 13-04-2010 14:24:02 17.7 C 3.92 g/m*3 17.7 C 0 km/h
2467 13-04-2010 14:36:02 17.5 C 4.03 g/m*3 17.5 C 0 km/h
2468 13-04-2010 14:48:02 17.8 C 3.95 g/m*3 17.8 C 0 km/h
2469 13-04-2010 15:00:02 17.9 C 4.12 g/m*3 17.9 C 0 km/h
2470 13-04-2010 15:12:01 17.8 C 3.79 g/m*3 17.8 C 0 km/h
2471 13-04-2010 15:24:01 17.1 C 4.08 g/m*3 17.1 C 0 km/h
2472 13-04-2010 15:36:02 17.5 C 4.17 g/m*3 17.5 C 0 km/h
2473 13-04-2010 15:48:02 19.1 C 4.1 g/m*3 19.1 C 0 km/h
2474 13-04-2010 16:00:02 19.7 C 3.74 g/m*3 19.7 C 0 km/h
2475 13-04-2010 16:12:02 19.5 C 3.52 g/m*3 19.5 C 0 km/h
Sensor: Nr:Datum:Temp:Abs-Feuchte:Windchill:Wind:
Aussen-T/F 2476 13-04-2010 16:24:01 18.6 C 3.34 g/m*3 18.6 C 0 km/h
2477 13-04-2010 16:36:02 18.2 C 3.42 g/m*3 18.2 C 0 km/h
2478 13-04-2010 16:48:02 18.8 C 3.7 g/m*3 18.8 C 0 km/h
2479 13-04-2010 17:00:02 18.9 C 3.73 g/m*3 18.9 C 0 km/h
2480 13-04-2010 17:12:02 18.8 C 3.87 g/m*3 18.8 C 0 km/h
2481 13-04-2010 17:24:02 19 C 3.59 g/m*3 19 C 0 km/h
2482 13-04-2010 17:36:02 18.6 C 3.82 g/m*3 18.6 C 0 km/h
2483 13-04-2010 17:48:02 18.1 C 3.86 g/m*3 18.1 C 0 km/h
2484 13-04-2010 18:00:02 17.5 C 3.73 g/m*3 17.5 C 0 km/h
2485 13-04-2010 18:12:02 17.3 C 3.83 g/m*3 17.3 C 0 km/h
2486 13-04-2010 18:24:02 17.1 C 3.78 g/m*3 17.1 C 0 km/h
2487 13-04-2010 18:36:02 16.7 C 3.84 g/m*3 16.7 C 0 km/h
2488 13-04-2010 18:48:02 16.3 C 4.16 g/m*3 16.3 C 0 km/h
2489 13-04-2010 19:00:02 16 C 4.36 g/m*3 16 C 0 km/h
2490 13-04-2010 19:12:02 15.7 C 4.28 g/m*3 15.7 C 0 km/h
2491 13-04-2010 19:24:02 15.4 C 4.47 g/m*3 15.4 C 0 km/h
2492 13-04-2010 19:36:02 15.1 C 4.52 g/m*3 15.1 C 0 km/h
2493 13-04-2010 19:48:01 14.8 C 4.69 g/m*3 14.8 C 0 km/h
2494 13-04-2010 20:00:01 14.6 C 4.76 g/m*3 14.6 C 0 km/h
2495 13-04-2010 20:12:02 14.5 C 4.85 g/m*3 14.5 C 0 km/h
2496 13-04-2010 20:24:02 14.3 C 4.91 g/m*3 14.3 C 0 km/h
2497 13-04-2010 20:36:02 14.1 C 5.1 g/m*3 14.1 C 0 km/h
2498 13-04-2010 20:48:01 13.9 C 5.15 g/m*3 13.9 C 0 km/h
2499 13-04-2010 21:00:01 13.6 C 5.18 g/m*3 13.6 C 0 km/h
2500 13-04-2010 21:12:02 13.4 C 5.11 g/m*3 13.4 C 0 km/h
Sensor: Nr:Datum:Temp:Abs-Feuchte:Windchill:Wind:
Aussen-T/F 2501 13-04-2010 21:24:02 13.3 C 4.97 g/m*3 13.3 C 0 km/h
2502 13-04-2010 21:36:02 13.2 C 4.94 g/m*3 13.2 C 0 km/h
2503 13-04-2010 21:48:02 12.8 C 5.04 g/m*3 12.8 C 0 km/h
2504 13-04-2010 22:00:02 12.5 C 5.06 g/m*3 12.5 C 0 km/h
2505 13-04-2010 22:12:02 12.3 C 5.1 g/m*3 12.3 C 0 km/h
2506 13-04-2010 22:24:02 12.1 C 5.04 g/m*3 12.1 C 0 km/h
2507 13-04-2010 22:36:02 11.9 C 5.08 g/m*3 11.9 C 0 km/h
2508 13-04-2010 22:48:02 11.9 C 5.08 g/m*3 11.9 C 0 km/h
2509 13-04-2010 23:00:02 11.8 C 5.05 g/m*3 11.8 C 0 km/h
2510 13-04-2010 23:12:02 11.8 C 5.16 g/m*3 11.8 C 0 km/h
2511 13-04-2010 23:24:02 11.8 C 5.26 g/m*3 11.8 C 0 km/h
2512 13-04-2010 23:36:02 11.6 C 5.2 g/m*3 11.6 C 0 km/h
2513 13-04-2010 23:48:02 11.7 C 5.33 g/m*3 11.7 C 0 km/h
2514 14-04-2010 00:00:02 11.6 C 5.2 g/m*3 11.6 C 0 km/h
2515 14-04-2010 00:12:02 11.5 C 5.16 g/m*3 11.5 C 0 km/h
2516 14-04-2010 00:24:02 11.3 C 5.2 g/m*3 11.3 C 0 km/h
2517 14-04-2010 00:36:02 11.4 C 5.23 g/m*3 11.4 C 0 km/h
2518 14-04-2010 00:48:02 11.2 C 5.17 g/m*3 11.2 C 0 km/h
2519 14-04-2010 01:00:02 11.1 C 5.14 g/m*3 11.1 C 0 km/h
2520 14-04-2010 01:12:02 11 C 5.2 g/m*3 11 C 0 km/h
2521 14-04-2010 01:24:03 11 C 5 g/m*3 11 C 0 km/h
2522 14-04-2010 01:36:02 10.9 C 5.17 g/m*3 10.9 C 0 km/h
2523 14-04-2010 01:48:03 10.9 C 5.07 g/m*3 10.9 C 0 km/h
2524 14-04-2010 02:00:03 10.7 C 5.01 g/m*3 10.7 C 0 km/h
2525 14-04-2010 02:12:02 10.7 C 5.01 g/m*3 10.7 C 0 km/h
Sensor: Nr:Datum:Temp:Abs-Feuchte:Windchill:Wind:
Aussen-T/F 2526 14-04-2010 02:24:03 10.6 C 5.08 g/m*3 10.6 C 0 km/h
2527 14-04-2010 02:36:02 10.4 C 5.11 g/m*3 10.4 C 0 km/h
2528 14-04-2010 02:48:02 10.1 C 5.01 g/m*3 10.1 C 0 km/h
2529 14-04-2010 03:00:02 9.8 C 5.1 g/m*3 9.8 C 0 km/h
2530 14-04-2010 03:12:01 9.5 C 5.01 g/m*3 9.5 C 0 km/h
2531 14-04-2010 03:24:01 9.3 C 5.03 g/m*3 9.3 C 0 km/h
2532 14-04-2010 03:36:01 9 C 5.03 g/m*3 9 C 0 km/h
2533 14-04-2010 03:48:01 8.8 C 5.05 g/m*3 8.8 C 0 km/h
2534 14-04-2010 04:00:01 8.8 C 5.14 g/m*3 8.8 C 0 km/h
2535 14-04-2010 04:12:01 8.5 C 5.12 g/m*3 8.5 C 0 km/h
2536 14-04-2010 04:24:02 8.3 C 5.23 g/m*3 8.3 C 0 km/h
2537 14-04-2010 04:36:01 8.3 C 5.23 g/m*3 8.3 C 0 km/h
2538 14-04-2010 04:48:01 8.4 C 5.26 g/m*3 8.4 C 0 km/h
2539 14-04-2010 05:00:01 8.5 C 5.29 g/m*3 8.5 C 0 km/h
2540 14-04-2010 05:12:01 8.4 C 5.34 g/m*3 8.4 C 0 km/h
2541 14-04-2010 05:24:02 8.3 C 5.31 g/m*3 8.3 C 0 km/h
2542 14-04-2010 05:36:01 8.1 C 5.33 g/m*3 8.1 C 0 km/h
2543 14-04-2010 05:48:02 7.8 C 5.3 g/m*3 7.8 C 0 km/h
2544 14-04-2010 06:00:02 7.8 C 5.3 g/m*3 7.8 C 0 km/h
2545 14-04-2010 06:12:01 7.9 C 5.26 g/m*3 7.9 C 0 km/h
2546 14-04-2010 06:24:02 7.7 C 5.11 g/m*3 7.7 C 0 km/h
2547 14-04-2010 06:36:01 7.4 C 5.01 g/m*3 7.4 C 0 km/h
2548 14-04-2010 06:48:02 7.1 C 4.99 g/m*3 7.1 C 0 km/h
2549 14-04-2010 07:00:02 7 C 4.96 g/m*3 7 C 0 km/h
2550 14-04-2010 07:12:01 6.9 C 5 g/m*3 6.9 C 0 km/h
Sensor: Nr:Datum:Temp:Abs-Feuchte:Windchill:Wind:
Aussen-T/F 2551 14-04-2010 07:24:01 6.8 C 5.05 g/m*3 6.8 C 0 km/h
2552 14-04-2010 07:36:02 7.2 C 5.18 g/m*3 7.2 C 0 km/h
2553 14-04-2010 07:48:01 7.5 C 5.2 g/m*3 7.5 C 0 km/h
2554 14-04-2010 08:00:01 7.5 C 5.2 g/m*3 7.5 C 0 km/h
2555 14-04-2010 08:12:01 7.6 C 5.32 g/m*3 7.6 C 0 km/h
2556 14-04-2010 08:24:01 7.8 C 5.39 g/m*3 7.8 C 0 km/h
2557 14-04-2010 08:36:02 8 C 5.21 g/m*3 8 C 0 km/h
2558 14-04-2010 08:48:02 8.2 C 5.11 g/m*3 8.2 C 0 km/h
2559 14-04-2010 09:00:02 8.4 C 5.17 g/m*3 8.4 C 0 km/h
2560 14-04-2010 09:12:01 8.4 C 5.09 g/m*3 8.4 C 0 km/h
2561 14-04-2010 09:24:01 8.6 C 5.16 g/m*3 8.6 C 0 km/h
2562 14-04-2010 09:36:02 9.1 C 5.15 g/m*3 9.1 C 0 km/h
2563 14-04-2010 09:48:01 9.5 C 5.19 g/m*3 9.5 C 0 km/h
2564 14-04-2010 10:00:01 9.9 C 5.14 g/m*3 9.9 C 0 km/h
2565 14-04-2010 10:12:01 10.5 C 5.14 g/m*3 10.5 C 0 km/h
2566 14-04-2010 10:24:01 11 C 5 g/m*3 11 C 0 km/h
2567 14-04-2010 10:36:02 11.5 C 5.16 g/m*3 11.5 C 0 km/h
2568 14-04-2010 10:48:01 11.7 C 4.81 g/m*3 11.7 C 0 km/h
2569 14-04-2010 11:00:01 11.9 C 4.87 g/m*3 11.9 C 0 km/h
2570 14-04-2010 11:12:02 12.8 C 4.93 g/m*3 12.8 C 0 km/h
2571 14-04-2010 11:24:01 13.1 C 4.68 g/m*3 13.1 C 0 km/h
2572 14-04-2010 11:36:01 13.5 C 4.91 g/m*3 13.5 C 0 km/h
2573 14-04-2010 11:48:01 14.1 C 4.85 g/m*3 14.1 C 0 km/h
2574 14-04-2010 12:00:01 13.8 C 4.65 g/m*3 13.8 C 0 km/h
2575 14-04-2010 12:12:02 13.4 C 4.65 g/m*3 13.4 C 0 km/h
Sensor: Nr:Datum:Temp:Abs-Feuchte:Windchill:Wind:
Aussen-T/F 2576 14-04-2010 12:24:01 13.6 C 4.59 g/m*3 13.6 C 0 km/h
2577 14-04-2010 12:36:01 13.7 C 4.74 g/m*3 13.7 C 0 km/h
2578 14-04-2010 12:48:01 14.9 C 4.72 g/m*3 14.9 C 0 km/h
2579 14-04-2010 13:00:01 14.4 C 4.33 g/m*3 14.4 C 0 km/h
2580 14-04-2010 13:12:02 14.5 C 3.98 g/m*3 14.5 C 0 km/h
2581 14-04-2010 13:24:01 13.5 C 4.09 g/m*3 13.5 C 0 km/h
2582 14-04-2010 13:36:01 14.4 C 3.96 g/m*3 14.4 C 0 km/h
2583 14-04-2010 13:48:01 14.3 C 3.81 g/m*3 14.3 C 0 km/h
2584 14-04-2010 14:00:01 13.7 C 4.03 g/m*3 13.7 C 0 km/h
2585 14-04-2010 14:12:01 14.5 C 3.86 g/m*3 14.5 C 0 km/h
2586 14-04-2010 14:24:01 14 C 3.74 g/m*3 14 C 0 km/h
2587 14-04-2010 14:36:01 13.5 C 3.98 g/m*3 13.5 C 0 km/h
2588 14-04-2010 14:48:01 13.7 C 4.14 g/m*3 13.7 C 0 km/h
2589 14-04-2010 15:00:01 14.3 C 3.69 g/m*3 14.3 C 0 km/h
2590 14-04-2010 15:12:01 15.8 C 3.37 g/m*3 15.8 C 0 km/h
2591 14-04-2010 15:24:02 15.1 C 2.58 g/m*3 15.1 C 0 km/h
2592 14-04-2010 15:36:01 14.8 C 2.53 g/m*3 14.8 C 0 km/h
2593 14-04-2010 15:48:02 14.4 C 2.47 g/m*3 14.4 C 0 km/h
2594 14-04-2010 16:00:02 16 C 4.22 g/m*3 16 C 0 km/h
2595 14-04-2010 16:12:01 16.2 C 3.45 g/m*3 16.2 C 0 km/h
2596 14-04-2010 16:24:02 16.3 C 2.77 g/m*3 16.3 C 0 km/h
2597 14-04-2010 16:36:01 18.5 C 3.16 g/m*3 18.5 C 0 km/h
2598 14-04-2010 16:48:02 17.2 C 2.93 g/m*3 17.2 C 0 km/h
2599 14-04-2010 17:00:02 16.3 C 2.77 g/m*3 16.3 C 0 km/h
2600 14-04-2010 17:12:01 17.2 C 2.93 g/m*3 17.2 C 0 km/h
Sensor: Nr:Datum:Temp:Abs-Feuchte:Windchill:Wind:
Aussen-T/F 2601 14-04-2010 17:24:01 18.1 C 3.09 g/m*3 18.1 C 0 km/h
2602 14-04-2010 17:36:01 17.2 C 2.93 g/m*3 17.2 C 0 km/h
2603 14-04-2010 17:48:02 16.7 C 2.84 g/m*3 16.7 C 0 km/h
2604 14-04-2010 18:00:02 16.8 C 2.86 g/m*3 16.8 C 0 km/h
2605 14-04-2010 18:12:01 18.1 C 3.09 g/m*3 18.1 C 0 km/h
2606 14-04-2010 18:24:01 18.9 C 3.24 g/m*3 18.9 C 0 km/h
2607 14-04-2010 18:36:02 17.3 C 2.95 g/m*3 17.3 C 0 km/h
2608 14-04-2010 18:48:02 15.6 C 2.66 g/m*3 15.6 C 0 km/h
2609 14-04-2010 19:00:02 15.8 C 2.96 g/m*3 15.8 C 0 km/h
2610 14-04-2010 19:12:01 15.3 C 2.74 g/m*3 15.3 C 0 km/h
2611 14-04-2010 19:24:01 14.7 C 3.15 g/m*3 14.7 C 0 km/h
2612 14-04-2010 19:36:02 14.3 C 3.07 g/m*3 14.3 C 0 km/h
2613 14-04-2010 19:48:01 14 C 3.26 g/m*3 14 C 0 km/h
2614 14-04-2010 20:00:01 13.6 C 3.41 g/m*3 13.6 C 0 km/h
2615 14-04-2010 20:12:02 13.1 C 3.65 g/m*3 13.1 C 0 km/h
2616 14-04-2010 20:24:01 13 C 3.74 g/m*3 13 C 0 km/h
2617 14-04-2010 20:36:02 12.7 C 3.9 g/m*3 12.7 C 0 km/h
2618 14-04-2010 20:48:01 12.4 C 4.04 g/m*3 12.4 C 0 km/h
2619 14-04-2010 21:00:01 11.7 C 3.97 g/m*3 11.7 C 0 km/h
2620 14-04-2010 21:12:02 11.2 C 4.05 g/m*3 11.2 C 0 km/h
2621 14-04-2010 21:24:01 10.7 C 4.03 g/m*3 10.7 C 0 km/h
2622 14-04-2010 21:36:01 10.5 C 4.07 g/m*3 10.5 C 0 km/h
2623 14-04-2010 21:48:01 10.3 C 4.12 g/m*3 10.3 C 0 km/h
2624 14-04-2010 22:00:01 10.3 C 4.21 g/m*3 10.3 C 0 km/h
2625 14-04-2010 22:12:02 10.4 C 4.34 g/m*3 10.4 C 0 km/h
Sensor: Nr:Datum:Temp:Abs-Feuchte:Windchill:Wind:
Aussen-T/F 2626 14-04-2010 22:24:01 10.8 C 4.45 g/m*3 10.8 C 0 km/h
2627 14-04-2010 22:36:01 11 C 4.6 g/m*3 11 C 0 km/h
2628 14-04-2010 22:48:01 11 C 4.7 g/m*3 11 C 0 km/h
2629 14-04-2010 23:00:01 10.9 C 4.97 g/m*3 10.9 C 0 km/h
2630 14-04-2010 23:12:01 10.8 C 4.94 g/m*3 10.8 C 0 km/h
2631 14-04-2010 23:24:01 10.8 C 5.04 g/m*3 10.8 C 0 km/h
2632 14-04-2010 23:36:01 10.6 C 4.98 g/m*3 10.6 C 0 km/h
2633 14-04-2010 23:48:01 10.5 C 5.04 g/m*3 10.5 C 0 km/h
2634 15-04-2010 00:00:01 10.3 C 5.08 g/m*3 10.3 C 0 km/h
2635 15-04-2010 00:12:01 10.2 C 5.14 g/m*3 10.2 C 0 km/h
2636 15-04-2010 00:24:02 10.1 C 5.11 g/m*3 10.1 C 0 km/h
2637 15-04-2010 00:36:01 10.1 C 5.2 g/m*3 10.1 C 0 km/h
2638 15-04-2010 00:48:01 10.1 C 5.2 g/m*3 10.1 C 0 km/h
2639 15-04-2010 01:00:01 10.1 C 5.2 g/m*3 10.1 C 0 km/h
2640 15-04-2010 01:12:01 10.1 C 5.3 g/m*3 10.1 C 0 km/h
2641 15-04-2010 01:24:02 10.1 C 5.3 g/m*3 10.1 C 0 km/h
2642 15-04-2010 01:36:01 10.1 C 5.3 g/m*3 10.1 C 0 km/h
2643 15-04-2010 01:48:02 10 C 5.26 g/m*3 10 C 0 km/h
2644 15-04-2010 02:00:02 9.9 C 5.32 g/m*3 9.9 C 0 km/h
2645 15-04-2010 02:12:01 9.8 C 5.38 g/m*3 9.8 C 0 km/h
2646 15-04-2010 02:24:02 9.8 C 5.38 g/m*3 9.8 C 0 km/h
2647 15-04-2010 02:36:01 9.7 C 5.35 g/m*3 9.7 C 0 km/h
2648 15-04-2010 02:49:07 9.7 C 5.44 g/m*3 9.7 C 0 km/h
2649 15-04-2010 03:01:07 9.6 C 5.4 g/m*3 9.6 C 0 km/h
2650 15-04-2010 03:13:06 9.5 C 5.37 g/m*3 9.5 C 0 km/h
Sensor: Nr:Datum:Temp:Abs-Feuchte:Windchill:Wind:
Aussen-T/F 2651 15-04-2010 03:25:06 9.5 C 5.37 g/m*3 9.5 C 0 km/h
2652 15-04-2010 03:37:01 9.4 C 5.34 g/m*3 9.4 C 0 km/h
2653 15-04-2010 03:49:01 9.3 C 5.3 g/m*3 9.3 C 0 km/h
2654 15-04-2010 04:01:01 9.1 C 5.32 g/m*3 9.1 C 0 km/h
2655 15-04-2010 04:13:01 8.7 C 5.28 g/m*3 8.7 C 0 km/h
2656 15-04-2010 04:25:02 8.4 C 5.34 g/m*3 8.4 C 0 km/h
2657 15-04-2010 04:37:01 8.4 C 5.34 g/m*3 8.4 C 0 km/h
2658 15-04-2010 04:49:01 8.7 C 5.36 g/m*3 8.7 C 0 km/h
2659 15-04-2010 05:01:01 8.8 C 5.4 g/m*3 8.8 C 0 km/h
2660 15-04-2010 05:13:01 8.9 C 5.43 g/m*3 8.9 C 0 km/h
2661 15-04-2010 05:25:02 9 C 5.38 g/m*3 9 C 0 km/h
2662 15-04-2010 05:37:01 9 C 5.38 g/m*3 9 C 0 km/h
2663 15-04-2010 05:49:03 8.9 C 5.43 g/m*3 8.9 C 0 km/h
2664 15-04-2010 06:01:02 8.9 C 5.43 g/m*3 8.9 C 0 km/h
2665 15-04-2010 06:13:02 8.9 C 5.43 g/m*3 8.9 C 0 km/h
2666 15-04-2010 06:25:02 8.6 C 5.41 g/m*3 8.6 C 0 km/h
2667 15-04-2010 06:37:02 8 C 5.29 g/m*3 8 C 0 km/h
2668 15-04-2010 06:49:02 7.6 C 5.4 g/m*3 7.6 C 0 km/h
2669 15-04-2010 07:01:02 7.3 C 5.37 g/m*3 7.3 C 0 km/h
2670 15-04-2010 07:13:02 7.3 C 5.45 g/m*3 7.3 C 0 km/h
2671 15-04-2010 07:25:02 7.1 C 5.38 g/m*3 7.1 C 0 km/h
2672 15-04-2010 07:37:01 7.2 C 5.42 g/m*3 7.2 C 0 km/h
2673 15-04-2010 07:49:02 7.5 C 5.52 g/m*3 7.5 C 0 km/h
2674 15-04-2010 08:01:01 7.8 C 5.55 g/m*3 7.8 C 0 km/h
2675 15-04-2010 08:13:01 8.1 C 5.49 g/m*3 8.1 C 0 km/h
Sensor: Nr:Datum:Temp:Abs-Feuchte:Windchill:Wind:
Aussen-T/F 2676 15-04-2010 08:25:01 8.4 C 5.43 g/m*3 8.4 C 0 km/h
2677 15-04-2010 08:37:02 8.8 C 5.48 g/m*3 8.8 C 0 km/h
2678 15-04-2010 08:49:02 9 C 5.29 g/m*3 9 C 0 km/h
2679 15-04-2010 09:01:01 9.3 C 5.39 g/m*3 9.3 C 0 km/h
2680 15-04-2010 09:13:01 9.3 C 5.21 g/m*3 9.3 C 0 km/h
2681 15-04-2010 09:25:02 9.8 C 5.38 g/m*3 9.8 C 0 km/h
2682 15-04-2010 09:37:02 10.4 C 5.3 g/m*3 10.4 C 0 km/h
2683 15-04-2010 09:49:01 10.5 C 5.14 g/m*3 10.5 C 0 km/h
2684 15-04-2010 10:01:02 10.5 C 5.24 g/m*3 10.5 C 0 km/h
2685 15-04-2010 10:13:02 10.4 C 5.2 g/m*3 10.4 C 0 km/h
2686 15-04-2010 10:25:01 10.1 C 5.11 g/m*3 10.1 C 0 km/h
2687 15-04-2010 10:37:02 9.9 C 5.04 g/m*3 9.9 C 0 km/h
2688 15-04-2010 10:49:02 10.2 C 4.95 g/m*3 10.2 C 0 km/h
2689 15-04-2010 11:01:02 10.5 C 4.85 g/m*3 10.5 C 0 km/h
2690 15-04-2010 11:13:02 10.9 C 5.07 g/m*3 10.9 C 0 km/h
2691 15-04-2010 11:25:02 11.7 C 5.12 g/m*3 11.7 C 0 km/h
2692 15-04-2010 11:37:02 12.4 C 5.03 g/m*3 12.4 C 0 km/h
2693 15-04-2010 11:49:02 13.2 C 4.82 g/m*3 13.2 C 0 km/h
2694 15-04-2010 12:01:02 14.4 C 4.94 g/m*3 14.4 C 0 km/h
2695 15-04-2010 12:13:02 14.7 C 4.53 g/m*3 14.7 C 0 km/h
2696 15-04-2010 12:25:02 15 C 4.74 g/m*3 15 C 0 km/h
2697 15-04-2010 12:37:02 15.2 C 4.54 g/m*3 15.2 C 0 km/h
2698 15-04-2010 12:49:01 15.2 C 4.54 g/m*3 15.2 C 0 km/h
2699 15-04-2010 13:01:02 14.8 C 4.43 g/m*3 14.8 C 0 km/h
2700 15-04-2010 13:13:02 15.4 C 4.47 g/m*3 15.4 C 0 km/h
Sensor: Nr:Datum:Temp:Abs-Feuchte:Windchill:Wind:
Aussen-T/F 2701 15-04-2010 13:25:01 14.2 C 4.27 g/m*3 14.2 C 0 km/h
2702 15-04-2010 13:37:02 13.8 C 4.53 g/m*3 13.8 C 0 km/h
2703 15-04-2010 13:49:02 13.6 C 4.47 g/m*3 13.6 C 0 km/h
2704 15-04-2010 14:01:01 13.8 C 4.65 g/m*3 13.8 C 0 km/h
2705 15-04-2010 14:13:01 14 C 4.46 g/m*3 14 C 0 km/h
2706 15-04-2010 14:25:02 14.2 C 4.52 g/m*3 14.2 C 0 km/h
2707 15-04-2010 14:37:02 15.3 C 4.7 g/m*3 15.3 C 0 km/h
2708 15-04-2010 14:49:02 15.6 C 4.65 g/m*3 15.6 C 0 km/h
2709 15-04-2010 15:01:03 16.4 C 4.75 g/m*3 16.4 C 0 km/h
2710 15-04-2010 15:13:03 18.3 C 4.69 g/m*3 18.3 C 0 km/h
2711 15-04-2010 15:25:02 17.8 C 4.55 g/m*3 17.8 C 0 km/h
2712 15-04-2010 15:37:02 15.9 C 4.33 g/m*3 15.9 C 0 km/h
2713 15-04-2010 15:49:02 16.6 C 4.66 g/m*3 16.6 C 0 km/h
2714 15-04-2010 16:01:02 16.1 C 4.8 g/m*3 16.1 C 0 km/h
2715 15-04-2010 16:13:02 15 C 4.62 g/m*3 15 C 0 km/h
2716 15-04-2010 16:25:01 14.4 C 5.07 g/m*3 14.4 C 0 km/h
2717 15-04-2010 16:37:02 14.3 C 4.79 g/m*3 14.3 C 0 km/h
2718 15-04-2010 16:49:02 14.7 C 4.91 g/m*3 14.7 C 0 km/h
2719 15-04-2010 17:01:02 15.4 C 4.86 g/m*3 15.4 C 0 km/h
2720 15-04-2010 17:13:02 14.8 C 4.69 g/m*3 14.8 C 0 km/h
2721 15-04-2010 17:25:02 15 C 4.74 g/m*3 15 C 0 km/h
2722 15-04-2010 17:37:02 15.3 C 4.83 g/m*3 15.3 C 0 km/h
2723 15-04-2010 17:49:02 15.8 C 4.85 g/m*3 15.8 C 0 km/h
2724 15-04-2010 18:01:02 15.7 C 4.68 g/m*3 15.7 C 0 km/h
2725 15-04-2010 18:13:02 15.7 C 4.82 g/m*3 15.7 C 0 km/h
Sensor: Nr:Datum:Temp:Abs-Feuchte:Windchill:Wind:
Aussen-T/F 2726 15-04-2010 18:25:02 15.6 C 4.92 g/m*3 15.6 C 0 km/h
2727 15-04-2010 18:37:02 15.5 C 5.02 g/m*3 15.5 C 0 km/h
2728 15-04-2010 18:49:01 15.4 C 4.99 g/m*3 15.4 C 0 km/h
2729 15-04-2010 19:01:02 15.4 C 4.73 g/m*3 15.4 C 0 km/h
2730 15-04-2010 19:13:02 15.2 C 4.8 g/m*3 15.2 C 0 km/h
2731 15-04-2010 19:25:01 15.1 C 4.9 g/m*3 15.1 C 0 km/h
2732 15-04-2010 19:37:02 14.8 C 5.07 g/m*3 14.8 C 0 km/h
2733 15-04-2010 19:49:01 14.4 C 4.7 g/m*3 14.4 C 0 km/h
2734 15-04-2010 20:01:02 14.1 C 4.85 g/m*3 14.1 C 0 km/h
2735 15-04-2010 20:13:03 13.8 C 4.89 g/m*3 13.8 C 0 km/h
2736 15-04-2010 20:25:01 13.6 C 4.12 g/m*3 13.6 C 0 km/h
2737 15-04-2010 20:37:02 13.3 C 3.81 g/m*3 13.3 C 0 km/h
2738 15-04-2010 20:49:02 13.1 C 3.65 g/m*3 13.1 C 0 km/h
2739 15-04-2010 21:01:02 12.9 C 3.61 g/m*3 12.9 C 0 km/h
2740 15-04-2010 21:13:03 12.7 C 3.67 g/m*3 12.7 C 0 km/h
2741 15-04-2010 21:25:01 12.6 C 3.87 g/m*3 12.6 C 0 km/h
2742 15-04-2010 21:37:02 12.5 C 3.85 g/m*3 12.5 C 0 km/h
2743 15-04-2010 21:49:02 12.4 C 3.82 g/m*3 12.4 C 0 km/h
2744 15-04-2010 22:01:02 12.4 C 3.71 g/m*3 12.4 C 0 km/h
2745 15-04-2010 22:13:02 12.2 C 3.78 g/m*3 12.2 C 0 km/h
2746 15-04-2010 22:25:02 12.2 C 3.56 g/m*3 12.2 C 0 km/h
2747 15-04-2010 22:37:02 12.1 C 3.43 g/m*3 12.1 C 0 km/h
2748 15-04-2010 22:49:02 12.1 C 3.43 g/m*3 12.1 C 0 km/h
2749 15-04-2010 23:01:02 11.9 C 3.71 g/m*3 11.9 C 0 km/h
2750 15-04-2010 23:13:02 11.8 C 3.79 g/m*3 11.8 C 0 km/h
Sensor: Nr:Datum:Temp:Abs-Feuchte:Windchill:Wind:
Aussen-T/F 2751 15-04-2010 23:25:02 11.6 C 3.85 g/m*3 11.6 C 0 km/h
2752 15-04-2010 23:37:02 11.5 C 3.72 g/m*3 11.5 C 0 km/h
2753 15-04-2010 23:49:01 11.4 C 3.7 g/m*3 11.4 C 0 km/h
2754 16-04-2010 00:01:02 11.4 C 3.9 g/m*3 11.4 C 0 km/h
2755 16-04-2010 00:13:03 11.1 C 4.03 g/m*3 11.1 C 0 km/h
2756 16-04-2010 00:25:01 10.9 C 3.98 g/m*3 10.9 C 0 km/h
2757 16-04-2010 00:37:02 10.8 C 3.95 g/m*3 10.8 C 0 km/h
2758 16-04-2010 00:49:02 10.7 C 4.03 g/m*3 10.7 C 0 km/h
2759 16-04-2010 01:01:02 10.5 C 3.98 g/m*3 10.5 C 0 km/h
2760 16-04-2010 01:13:02 10.3 C 4.02 g/m*3 10.3 C 0 km/h
2761 16-04-2010 01:25:02 10.1 C 3.97 g/m*3 10.1 C 0 km/h
2762 16-04-2010 01:37:02 10.1 C 4.07 g/m*3 10.1 C 0 km/h
2763 16-04-2010 01:49:02 9.6 C 4.21 g/m*3 9.6 C 0 km/h
2764 16-04-2010 02:01:03 9.3 C 4.22 g/m*3 9.3 C 0 km/h
2765 16-04-2010 02:13:03 9 C 4.14 g/m*3 9 C 0 km/h
2766 16-04-2010 02:25:02 8.7 C 4.32 g/m*3 8.7 C 0 km/h
2767 16-04-2010 02:37:02 8.4 C 4.24 g/m*3 8.4 C 0 km/h
2768 16-04-2010 02:50:03 8 C 4.22 g/m*3 8 C 0 km/h
2769 16-04-2010 03:02:03 7.8 C 4.24 g/m*3 7.8 C 0 km/h
2770 16-04-2010 03:14:04 7.7 C 4.3 g/m*3 7.7 C 0 km/h
2771 16-04-2010 03:26:04 7.7 C 4.38 g/m*3 7.7 C 0 km/h
2772 16-04-2010 03:38:02 7.4 C 4.37 g/m*3 7.4 C 0 km/h
2773 16-04-2010 03:50:03 7.2 C 4.4 g/m*3 7.2 C 0 km/h
2774 16-04-2010 04:02:02 7.3 C 4.42 g/m*3 7.3 C 0 km/h
2775 16-04-2010 04:14:02 7.6 C 4.35 g/m*3 7.6 C 0 km/h
Sensor: Nr:Datum:Temp:Abs-Feuchte:Windchill:Wind:
Aussen-T/F 2776 16-04-2010 04:26:02 7.6 C 4.27 g/m*3 7.6 C 0 km/h
2777 16-04-2010 04:38:03 7.4 C 4.21 g/m*3 7.4 C 0 km/h
2778 16-04-2010 04:50:02 7.2 C 4.24 g/m*3 7.2 C 0 km/h
2779 16-04-2010 05:02:01 7.1 C 4.21 g/m*3 7.1 C 0 km/h
2780 16-04-2010 05:14:01 7.1 C 4.21 g/m*3 7.1 C 0 km/h
2781 16-04-2010 05:26:02 6.9 C 4.23 g/m*3 6.9 C 0 km/h
2782 16-04-2010 05:38:02 6.8 C 4.28 g/m*3 6.8 C 0 km/h
2783 16-04-2010 05:50:02 6.5 C 4.27 g/m*3 6.5 C 0 km/h
2784 16-04-2010 06:02:01 6.3 C 4.37 g/m*3 6.3 C 0 km/h
2785 16-04-2010 06:14:01 6.3 C 4.37 g/m*3 6.3 C 0 km/h
2786 16-04-2010 06:26:01 6.1 C 4.38 g/m*3 6.1 C 0 km/h
2787 16-04-2010 06:38:02 5.8 C 4.44 g/m*3 5.8 C 0 km/h
2788 16-04-2010 06:50:02 5.9 C 4.69 g/m*3 5.9 C 0 km/h
2789 16-04-2010 07:02:02 5.8 C 4.73 g/m*3 5.8 C 0 km/h
2790 16-04-2010 07:14:02 5.8 C 4.8 g/m*3 5.8 C 0 km/h
2791 16-04-2010 07:26:02 5.9 C 4.9 g/m*3 5.9 C 0 km/h
2792 16-04-2010 07:38:02 6 C 4.94 g/m*3 6 C 0 km/h
2793 16-04-2010 07:50:02 5.9 C 4.98 g/m*3 5.9 C 0 km/h
2794 16-04-2010 08:02:02 5.8 C 4.94 g/m*3 5.8 C 0 km/h
2795 16-04-2010 08:14:02 5.9 C 5.05 g/m*3 5.9 C 0 km/h
2796 16-04-2010 08:26:02 5.9 C 5.05 g/m*3 5.9 C 0 km/h
2797 16-04-2010 08:38:02 6.1 C 5.04 g/m*3 6.1 C 0 km/h
2798 16-04-2010 08:50:01 6.3 C 5.03 g/m*3 6.3 C 0 km/h
2799 16-04-2010 09:02:02 6.2 C 5 g/m*3 6.2 C 0 km/h
2800 16-04-2010 09:14:02 6.2 C 5 g/m*3 6.2 C 0 km/h
Sensor: Nr:Datum:Temp:Abs-Feuchte:Windchill:Wind:
Aussen-T/F 2801 16-04-2010 09:26:01 6.2 C 5 g/m*3 6.2 C 0 km/h
2802 16-04-2010 09:38:02 6.2 C 5.07 g/m*3 6.2 C 0 km/h
2803 16-04-2010 09:50:02 6.8 C 5.2 g/m*3 6.8 C 0 km/h
2804 16-04-2010 10:02:02 6.7 C 5.09 g/m*3 6.7 C 0 km/h
2805 16-04-2010 10:14:02 6.7 C 5.09 g/m*3 6.7 C 0 km/h
2806 16-04-2010 10:26:02 6.7 C 4.94 g/m*3 6.7 C 0 km/h
2807 16-04-2010 10:38:02 7.1 C 4.91 g/m*3 7.1 C 0 km/h
2808 16-04-2010 10:50:02 7.2 C 4.87 g/m*3 7.2 C 0 km/h
2809 16-04-2010 11:02:02 7 C 4.8 g/m*3 7 C 0 km/h
2810 16-04-2010 11:14:02 7.5 C 4.88 g/m*3 7.5 C 0 km/h
2811 16-04-2010 11:26:02 7.3 C 4.66 g/m*3 7.3 C 0 km/h
2812 16-04-2010 11:38:02 7.5 C 4.8 g/m*3 7.5 C 0 km/h
2813 16-04-2010 11:50:02 7.6 C 4.59 g/m*3 7.6 C 0 km/h
2814 16-04-2010 12:02:03 8.5 C 4.7 g/m*3 8.5 C 0 km/h
2815 16-04-2010 12:14:03 8.8 C 4.61 g/m*3 8.8 C 0 km/h
2816 16-04-2010 12:26:02 9 C 4.41 g/m*3 9 C 0 km/h
2817 16-04-2010 12:38:02 9.3 C 4.49 g/m*3 9.3 C 0 km/h
2818 16-04-2010 12:50:02 9.1 C 4.35 g/m*3 9.1 C 0 km/h
2819 16-04-2010 13:02:02 9.8 C 4.36 g/m*3 9.8 C 0 km/h
2820 16-04-2010 13:14:02 10.2 C 4.28 g/m*3 10.2 C 0 km/h
2821 16-04-2010 13:26:01 10.7 C 4.32 g/m*3 10.7 C 0 km/h
2822 16-04-2010 13:38:02 11.2 C 4.16 g/m*3 11.2 C 0 km/h
2823 16-04-2010 13:50:02 11.6 C 3.95 g/m*3 11.6 C 0 km/h
2824 16-04-2010 14:02:02 12.3 C 3.91 g/m*3 12.3 C 0 km/h
2825 16-04-2010 14:14:02 13.3 C 3.7 g/m*3 13.3 C 0 km/h
Sensor: Nr:Datum:Temp:Abs-Feuchte:Windchill:Wind:
Aussen-T/F 2826 16-04-2010 14:26:02 13.5 C 3.63 g/m*3 13.5 C 0 km/h
2827 16-04-2010 14:38:02 14 C 3.62 g/m*3 14 C 0 km/h
2828 16-04-2010 14:50:02 14.5 C 3.73 g/m*3 14.5 C 0 km/h
2829 16-04-2010 15:02:02 15 C 3.59 g/m*3 15 C 0 km/h
2830 16-04-2010 15:14:02 13.9 C 3.48 g/m*3 13.9 C 0 km/h
2831 16-04-2010 15:26:02 14.1 C 3.64 g/m*3 14.1 C 0 km/h
2832 16-04-2010 15:38:01 15.2 C 3.5 g/m*3 15.2 C 0 km/h
2833 16-04-2010 15:50:02 15.3 C 3.4 g/m*3 15.3 C 0 km/h
2834 16-04-2010 16:02:01 15 C 3.33 g/m*3 15 C 0 km/h
2835 16-04-2010 16:14:01 15.3 C 3.4 g/m*3 15.3 C 0 km/h
2836 16-04-2010 16:26:02 14.6 C 3.5 g/m*3 14.6 C 0 km/h
2837 16-04-2010 16:38:01 14 C 3.26 g/m*3 14 C 0 km/h
2838 16-04-2010 16:50:03 14.1 C 3.4 g/m*3 14.1 C 0 km/h
2839 16-04-2010 17:02:02 14.7 C 3.4 g/m*3 14.7 C 0 km/h
2840 16-04-2010 17:14:02 15.3 C 3.4 g/m*3 15.3 C 0 km/h
2841 16-04-2010 17:26:02 15.4 C 3.28 g/m*3 15.4 C 0 km/h
2842 16-04-2010 17:38:02 15.3 C 3.26 g/m*3 15.3 C 0 km/h
2843 16-04-2010 17:50:02 14.7 C 3.27 g/m*3 14.7 C 0 km/h
2844 16-04-2010 18:02:02 15.5 C 3.17 g/m*3 15.5 C 0 km/h
2845 16-04-2010 18:14:02 15.6 C 3.32 g/m*3 15.6 C 0 km/h
2846 16-04-2010 18:26:02 14.6 C 3.25 g/m*3 14.6 C 0 km/h
2847 16-04-2010 18:38:02 14.3 C 3.19 g/m*3 14.3 C 0 km/h
2848 16-04-2010 18:50:02 14.5 C 3.36 g/m*3 14.5 C 0 km/h
2849 16-04-2010 19:02:02 14.5 C 3.23 g/m*3 14.5 C 0 km/h
2850 16-04-2010 19:14:02 14.6 C 3.38 g/m*3 14.6 C 0 km/h
Sensor: Nr:Datum:Temp:Abs-Feuchte:Windchill:Wind:
Aussen-T/F 2851 16-04-2010 19:26:02 13.4 C 3.25 g/m*3 13.4 C 0 km/h
2852 16-04-2010 19:38:01 12.9 C 3.38 g/m*3 12.9 C 0 km/h
2853 16-04-2010 19:50:02 12.5 C 3.41 g/m*3 12.5 C 0 km/h
2854 16-04-2010 20:02:01 12.3 C 3.47 g/m*3 12.3 C 0 km/h
2855 16-04-2010 20:14:01 11.7 C 3.56 g/m*3 11.7 C 0 km/h
2856 16-04-2010 20:26:02 11.2 C 3.65 g/m*3 11.2 C 0 km/h
2857 16-04-2010 20:38:01 10.8 C 3.66 g/m*3 10.8 C 0 km/h
2858 16-04-2010 20:50:02 10.5 C 3.69 g/m*3 10.5 C 0 km/h
2859 16-04-2010 21:02:01 10.3 C 3.83 g/m*3 10.3 C 0 km/h
2860 16-04-2010 21:14:01 9.9 C 3.83 g/m*3 9.9 C 0 km/h
2861 16-04-2010 21:26:02 9.6 C 3.85 g/m*3 9.6 C 0 km/h
2862 16-04-2010 21:38:01 9.3 C 3.86 g/m*3 9.3 C 0 km/h
2863 16-04-2010 21:50:03 9.1 C 3.99 g/m*3 9.1 C 0 km/h
2864 16-04-2010 22:02:02 8.9 C 3.94 g/m*3 8.9 C 0 km/h
2865 16-04-2010 22:14:02 8.8 C 3.92 g/m*3 8.8 C 0 km/h
2866 16-04-2010 22:26:03 8.5 C 4.1 g/m*3 8.5 C 0 km/h
2867 16-04-2010 22:38:02 8.2 C 4.02 g/m*3 8.2 C 0 km/h
2868 16-04-2010 22:50:03 8.1 C 4.08 g/m*3 8.1 C 0 km/h
2869 16-04-2010 23:03:02 7.9 C 4.11 g/m*3 7.9 C 0 km/h
2870 16-04-2010 23:15:02 7.7 C 4.14 g/m*3 7.7 C 0 km/h
2871 16-04-2010 23:27:02 7.6 C 4.19 g/m*3 7.6 C 0 km/h
2872 16-04-2010 23:39:02 7.4 C 4.14 g/m*3 7.4 C 0 km/h
2873 16-04-2010 23:51:02 7.1 C 4.13 g/m*3 7.1 C 0 km/h
2874 17-04-2010 00:03:02 7 C 4.18 g/m*3 7 C 0 km/h
2875 17-04-2010 00:15:02 6.7 C 4.26 g/m*3 6.7 C 0 km/h
Sensor: Nr:Datum:Temp:Abs-Feuchte:Windchill:Wind:
Aussen-T/F 2876 17-04-2010 00:27:02 6.5 C 4.27 g/m*3 6.5 C 0 km/h
2877 17-04-2010 00:39:02 6.4 C 4.25 g/m*3 6.4 C 0 km/h
2878 17-04-2010 00:51:02 6.2 C 4.19 g/m*3 6.2 C 0 km/h
2879 17-04-2010 01:03:02 6.1 C 4.16 g/m*3 6.1 C 0 km/h
2880 17-04-2010 01:15:02 5.9 C 4.33 g/m*3 5.9 C 0 km/h
2881 17-04-2010 01:27:02 5.7 C 4.27 g/m*3 5.7 C 0 km/h
2882 17-04-2010 01:39:02 5.5 C 4.28 g/m*3 5.5 C 0 km/h
2883 17-04-2010 01:51:02 5.4 C 4.33 g/m*3 5.4 C 0 km/h
2884 17-04-2010 02:03:02 5.2 C 4.34 g/m*3 5.2 C 0 km/h
2885 17-04-2010 02:15:02 5.1 C 4.24 g/m*3 5.1 C 0 km/h
2886 17-04-2010 02:27:02 5 C 4.28 g/m*3 5 C 0 km/h
2887 17-04-2010 02:39:02 4.7 C 4.33 g/m*3 4.7 C 0 km/h
2888 17-04-2010 02:51:03 4.5 C 4.27 g/m*3 4.5 C 0 km/h
2889 17-04-2010 03:03:03 4.4 C 4.31 g/m*3 4.4 C 0 km/h
2890 17-04-2010 03:15:03 4.2 C 4.25 g/m*3 4.2 C 0 km/h
2891 17-04-2010 03:27:03 4.2 C 4.25 g/m*3 4.2 C 0 km/h
2892 17-04-2010 03:39:03 3.7 C 4.18 g/m*3 3.7 C 0 km/h
2893 17-04-2010 03:51:03 3.6 C 4.27 g/m*3 3.6 C 0 km/h
2894 17-04-2010 04:03:03 3.6 C 4.27 g/m*3 3.6 C 0 km/h
2895 17-04-2010 04:15:03 3.4 C 4.34 g/m*3 3.4 C 0 km/h
2896 17-04-2010 04:27:03 3.2 C 4.34 g/m*3 3.2 C 0 km/h
2897 17-04-2010 04:39:03 3 C 4.34 g/m*3 3 C 0 km/h
2898 17-04-2010 04:51:03 2.8 C 4.28 g/m*3 2.8 C 0 km/h
2899 17-04-2010 05:03:03 2.6 C 4.28 g/m*3 2.6 C 0 km/h
2900 17-04-2010 05:15:03 2.5 C 4.25 g/m*3 2.5 C 0 km/h
Sensor: Nr:Datum:Temp:Abs-Feuchte:Windchill:Wind:
Aussen-T/F 2901 17-04-2010 05:27:03 2.4 C 4.28 g/m*3 2.4 C 0 km/h
2902 17-04-2010 05:39:03 2.2 C 4.28 g/m*3 2.2 C 0 km/h
2903 17-04-2010 05:51:03 2.1 C 4.31 g/m*3 2.1 C 0 km/h
2904 17-04-2010 06:03:03 1.9 C 4.3 g/m*3 1.9 C 0 km/h
2905 17-04-2010 06:15:03 1.8 C 4.28 g/m*3 1.8 C 0 km/h
2906 17-04-2010 06:27:03 1.9 C 4.3 g/m*3 1.9 C 0 km/h
2907 17-04-2010 06:39:03 1.6 C 4.22 g/m*3 1.6 C 0 km/h
2908 17-04-2010 06:51:04 1.5 C 4.19 g/m*3 1.5 C 0 km/h
2909 17-04-2010 07:03:04 1.5 C 4.24 g/m*3 1.5 C 0 km/h
2910 17-04-2010 07:15:04 1.5 C 4.24 g/m*3 1.5 C 0 km/h
2911 17-04-2010 07:27:04 1.6 C 4.27 g/m*3 1.6 C 0 km/h
2912 17-04-2010 07:39:04 1.6 C 4.33 g/m*3 1.6 C 0 km/h
2913 17-04-2010 07:51:04 1.7 C 4.36 g/m*3 1.7 C 0 km/h
2914 17-04-2010 08:03:04 1.9 C 4.42 g/m*3 1.9 C 0 km/h
2915 17-04-2010 08:15:03 2.2 C 4.51 g/m*3 2.2 C 0 km/h
2916 17-04-2010 08:27:03 2.5 C 4.6 g/m*3 2.5 C 0 km/h
2917 17-04-2010 08:39:02 2.7 C 4.66 g/m*3 2.7 C 0 km/h
2918 17-04-2010 08:51:04 3 C 4.7 g/m*3 3 C 0 km/h
2919 17-04-2010 09:03:03 3.3 C 4.73 g/m*3 3.3 C 0 km/h
2920 17-04-2010 09:15:04 3.7 C 4.8 g/m*3 3.7 C 0 km/h
2921 17-04-2010 09:27:04 4.4 C 4.9 g/m*3 4.4 C 0 km/h
2922 17-04-2010 09:39:03 5.1 C 4.92 g/m*3 5.1 C 0 km/h
2923 17-04-2010 09:51:01 5.6 C 4.88 g/m*3 5.6 C 0 km/h
2924 17-04-2010 10:03:01 6.7 C 4.94 g/m*3 6.7 C 0 km/h
2925 17-04-2010 10:15:02 7 C 4.57 g/m*3 7 C 0 km/h
Sensor: Nr:Datum:Temp:Abs-Feuchte:Windchill:Wind:
Aussen-T/F 2926 17-04-2010 10:27:02 7.5 C 4.4 g/m*3 7.5 C 0 km/h
2927 17-04-2010 10:39:01 8.1 C 3.99 g/m*3 8.1 C 0 km/h
2928 17-04-2010 10:51:01 8.6 C 3.87 g/m*3 8.6 C 0 km/h
2929 17-04-2010 11:03:02 9.3 C 3.86 g/m*3 9.3 C 0 km/h
2930 17-04-2010 11:15:01 10 C 3.66 g/m*3 10 C 0 km/h
2931 17-04-2010 11:27:01 10.1 C 3.22 g/m*3 10.1 C 0 km/h
2932 17-04-2010 11:39:01 10.5 C 3.39 g/m*3 10.5 C 0 km/h
2933 17-04-2010 11:51:01 11 C 3.2 g/m*3 11 C 0 km/h
2934 17-04-2010 12:03:02 11.2 C 3.24 g/m*3 11.2 C 0 km/h
2935 17-04-2010 12:15:02 12 C 3.09 g/m*3 12 C 0 km/h
2936 17-04-2010 12:27:02 12.5 C 2.97 g/m*3 12.5 C 0 km/h
2937 17-04-2010 12:39:01 12.7 C 2.89 g/m*3 12.7 C 0 km/h
2938 17-04-2010 12:51:01 12.6 C 2.77 g/m*3 12.6 C 0 km/h
2939 17-04-2010 13:03:02 13.2 C 2.3 g/m*3 13.2 C 0 km/h
2940 17-04-2010 13:15:02 13.9 C 2.4 g/m*3 13.9 C 0 km/h
2941 17-04-2010 13:27:02 14.8 C 2.53 g/m*3 14.8 C 0 km/h
2942 17-04-2010 13:39:01 15.5 C 2.64 g/m*3 15.5 C 0 km/h
2943 17-04-2010 13:51:01 15.6 C 2.66 g/m*3 15.6 C 0 km/h
2944 17-04-2010 14:03:02 16.4 C 2.79 g/m*3 16.4 C 0 km/h
2945 17-04-2010 14:15:02 17 C 2.89 g/m*3 17 C 0 km/h
2946 17-04-2010 14:27:02 17.6 C 3 g/m*3 17.6 C 0 km/h
2947 17-04-2010 14:39:01 18.4 C 3.15 g/m*3 18.4 C 0 km/h
2948 17-04-2010 14:51:01 19.4 C 3.34 g/m*3 19.4 C 0 km/h
2949 17-04-2010 15:03:02 20 C 3.46 g/m*3 20 C 0 km/h
2950 17-04-2010 15:15:02 20.8 C 3.62 g/m*3 20.8 C 0 km/h
Sensor: Nr:Datum:Temp:Abs-Feuchte:Windchill:Wind:
Aussen-T/F 2951 17-04-2010 15:27:02 21 C 3.66 g/m*3 21 C 0 km/h
2952 17-04-2010 15:39:01 21.9 C 3.86 g/m*3 21.9 C 0 km/h
2953 17-04-2010 15:51:01 22.2 C 3.93 g/m*3 22.2 C 0 km/h
2954 17-04-2010 16:03:02 20.9 C 3.64 g/m*3 20.9 C 0 km/h
2955 17-04-2010 16:15:02 21 C 3.66 g/m*3 21 C 0 km/h
2956 17-04-2010 16:27:02 22.2 C 3.93 g/m*3 22.2 C 0 km/h
2957 17-04-2010 16:39:01 23.3 C 4.18 g/m*3 23.3 C 0 km/h
2958 17-04-2010 16:51:01 23.5 C 4.23 g/m*3 23.5 C 0 km/h
2959 17-04-2010 17:03:02 23.9 C 4.33 g/m*3 23.9 C 0 km/h
2960 17-04-2010 17:15:02 24.1 C 4.38 g/m*3 24.1 C 0 km/h
2961 17-04-2010 17:27:02 24.8 C 4.55 g/m*3 24.8 C 0 km/h
2962 17-04-2010 17:39:02 23.4 C 4.21 g/m*3 23.4 C 0 km/h
2963 17-04-2010 17:51:01 23.6 C 4.25 g/m*3 23.6 C 0 km/h
2964 17-04-2010 18:03:02 24.1 C 4.38 g/m*3 24.1 C 0 km/h
2965 17-04-2010 18:15:02 24.8 C 4.55 g/m*3 24.8 C 0 km/h
2966 17-04-2010 18:27:02 24.1 C 4.38 g/m*3 24.1 C 0 km/h
2967 17-04-2010 18:39:02 24.6 C 4.5 g/m*3 24.6 C 0 km/h
2968 17-04-2010 18:51:01 24.5 C 4.48 g/m*3 24.5 C 0 km/h
2969 17-04-2010 19:03:02 24.2 C 4.4 g/m*3 24.2 C 0 km/h
2970 17-04-2010 19:15:02 24 C 4.35 g/m*3 24 C 0 km/h
2971 17-04-2010 19:27:02 23 C 4.11 g/m*3 23 C 0 km/h
2972 17-04-2010 19:39:02 22.3 C 3.95 g/m*3 22.3 C 0 km/h
2973 17-04-2010 19:51:01 21.6 C 3.79 g/m*3 21.6 C 0 km/h
2974 17-04-2010 20:03:02 20.1 C 3.48 g/m*3 20.1 C 0 km/h
2975 17-04-2010 20:15:02 18.6 C 3.18 g/m*3 18.6 C 0 km/h
Sensor: Nr:Datum:Temp:Abs-Feuchte:Windchill:Wind:
Aussen-T/F 2976 17-04-2010 20:27:02 17.1 C 2.91 g/m*3 17.1 C 0 km/h
2977 17-04-2010 20:39:01 16.2 C 2.76 g/m*3 16.2 C 0 km/h
2978 17-04-2010 20:51:01 15.2 C 2.73 g/m*3 15.2 C 0 km/h
2979 17-04-2010 21:03:02 14.5 C 3.11 g/m*3 14.5 C 0 km/h
2980 17-04-2010 21:15:02 13.7 C 3.08 g/m*3 13.7 C 0 km/h
2981 17-04-2010 21:27:02 13.5 C 3.16 g/m*3 13.5 C 0 km/h
2982 17-04-2010 21:39:01 13.2 C 3.1 g/m*3 13.2 C 0 km/h
2983 17-04-2010 21:51:02 12.9 C 3.27 g/m*3 12.9 C 0 km/h
2984 17-04-2010 22:03:01 12.4 C 3.17 g/m*3 12.4 C 0 km/h
2985 17-04-2010 22:15:02 11.8 C 3.26 g/m*3 11.8 C 0 km/h
2986 17-04-2010 22:27:02 11.9 C 3.28 g/m*3 11.9 C 0 km/h
2987 17-04-2010 22:39:02 11.7 C 3.35 g/m*3 11.7 C 0 km/h
2988 17-04-2010 22:51:02 11.2 C 3.45 g/m*3 11.2 C 0 km/h
2989 17-04-2010 23:04:02 10.8 C 3.66 g/m*3 10.8 C 0 km/h
2990 17-04-2010 23:16:02 10.4 C 3.66 g/m*3 10.4 C 0 km/h
2991 17-04-2010 23:28:02 10.2 C 3.52 g/m*3 10.2 C 0 km/h
2992 17-04-2010 23:40:02 9.6 C 3.57 g/m*3 9.6 C 0 km/h
2993 17-04-2010 23:52:02 9.5 C 3.64 g/m*3 9.5 C 0 km/h
2994 18-04-2010 00:04:02 9.2 C 3.57 g/m*3 9.2 C 0 km/h
2995 18-04-2010 00:16:02 9 C 3.61 g/m*3 9 C 0 km/h
2996 18-04-2010 00:28:02 8.9 C 3.68 g/m*3 8.9 C 0 km/h
2997 18-04-2010 00:40:02 8.7 C 3.63 g/m*3 8.7 C 0 km/h
2998 18-04-2010 00:52:03 8.3 C 3.54 g/m*3 8.3 C 0 km/h
2999 18-04-2010 01:04:03 8.1 C 3.66 g/m*3 8.1 C 0 km/h
3000 18-04-2010 01:16:03 7.8 C 3.67 g/m*3 7.8 C 0 km/h
Sensor: Nr:Datum:Temp:Abs-Feuchte:Windchill:Wind:
Aussen-T/F 3001 18-04-2010 01:28:03 7.5 C 3.92 g/m*3 7.5 C 0 km/h
3002 18-04-2010 01:40:03 7.2 C 3.92 g/m*3 7.2 C 0 km/h
3003 18-04-2010 01:52:03 7.1 C 3.82 g/m*3 7.1 C 0 km/h
3004 18-04-2010 02:04:03 7 C 3.8 g/m*3 7 C 0 km/h
3005 18-04-2010 02:16:03 6.8 C 3.82 g/m*3 6.8 C 0 km/h
3006 18-04-2010 02:28:03 6.6 C 3.85 g/m*3 6.6 C 0 km/h
3007 18-04-2010 02:40:03 6.3 C 3.85 g/m*3 6.3 C 0 km/h
3008 18-04-2010 02:52:03 6 C 3.85 g/m*3 6 C 0 km/h
3009 18-04-2010 03:04:03 5.9 C 3.97 g/m*3 5.9 C 0 km/h
3010 18-04-2010 03:16:03 5.6 C 3.89 g/m*3 5.6 C 0 km/h
3011 18-04-2010 03:28:03 5.2 C 3.86 g/m*3 5.2 C 0 km/h
3012 18-04-2010 03:40:03 5.3 C 4.02 g/m*3 5.3 C 0 km/h
3013 18-04-2010 03:52:03 5.1 C 3.97 g/m*3 5.1 C 0 km/h
3014 18-04-2010 04:04:03 5 C 3.94 g/m*3 5 C 0 km/h
3015 18-04-2010 04:16:03 4.8 C 4.02 g/m*3 4.8 C 0 km/h
3016 18-04-2010 04:28:03 4.5 C 4.08 g/m*3 4.5 C 0 km/h
3017 18-04-2010 04:40:03 4.3 C 4.09 g/m*3 4.3 C 0 km/h
3018 18-04-2010 04:52:03 4.2 C 4.06 g/m*3 4.2 C 0 km/h
3019 18-04-2010 05:04:04 3.9 C 4.11 g/m*3 3.9 C 0 km/h
3020 18-04-2010 05:16:04 3.8 C 4.08 g/m*3 3.8 C 0 km/h
3021 18-04-2010 05:28:04 3.8 C 4.08 g/m*3 3.8 C 0 km/h
3022 18-04-2010 05:40:04 3.6 C 4.09 g/m*3 3.6 C 0 km/h
3023 18-04-2010 05:52:04 3.4 C 4.03 g/m*3 3.4 C 0 km/h
3024 18-04-2010 06:04:04 3.3 C 4.06 g/m*3 3.3 C 0 km/h
3025 18-04-2010 06:16:04 3.1 C 4.07 g/m*3 3.1 C 0 km/h
Sensor: Nr:Datum:Temp:Abs-Feuchte:Windchill:Wind:
Aussen-T/F 3026 18-04-2010 06:28:04 3 C 4.04 g/m*3 3 C 0 km/h
3027 18-04-2010 06:40:04 2.9 C 4.07 g/m*3 2.9 C 0 km/h
3028 18-04-2010 06:52:04 2.8 C 4.11 g/m*3 2.8 C 0 km/h
3029 18-04-2010 07:04:04 2.7 C 4.14 g/m*3 2.7 C 0 km/h
3030 18-04-2010 07:16:04 2.6 C 4.17 g/m*3 2.6 C 0 km/h
3031 18-04-2010 07:28:04 2.6 C 4.22 g/m*3 2.6 C 0 km/h
3032 18-04-2010 07:40:04 2.6 C 4.17 g/m*3 2.6 C 0 km/h
3033 18-04-2010 07:52:04 2.8 C 4.22 g/m*3 2.8 C 0 km/h
3034 18-04-2010 08:04:02 3.1 C 4.25 g/m*3 3.1 C 0 km/h
3035 18-04-2010 08:16:02 3.4 C 4.34 g/m*3 3.4 C 0 km/h
3036 18-04-2010 08:28:02 3.7 C 4.36 g/m*3 3.7 C 0 km/h
3037 18-04-2010 08:40:02 4 C 4.26 g/m*3 4 C 0 km/h
3038 18-04-2010 08:52:01 4.3 C 4.35 g/m*3 4.3 C 0 km/h
3039 18-04-2010 09:04:02 4.6 C 4.37 g/m*3 4.6 C 0 km/h
3040 18-04-2010 09:16:01 5.1 C 4.38 g/m*3 5.1 C 0 km/h
3041 18-04-2010 09:28:01 5.7 C 4.48 g/m*3 5.7 C 0 km/h
3042 18-04-2010 09:40:02 6.3 C 4.52 g/m*3 6.3 C 0 km/h
3043 18-04-2010 09:52:02 7.2 C 4.47 g/m*3 7.2 C 0 km/h
3044 18-04-2010 10:04:02 7.9 C 4.44 g/m*3 7.9 C 0 km/h
3045 18-04-2010 10:16:02 8.5 C 4.27 g/m*3 8.5 C 0 km/h
3046 18-04-2010 10:28:02 9.2 C 4.29 g/m*3 9.2 C 0 km/h
3047 18-04-2010 10:40:02 9.7 C 4.15 g/m*3 9.7 C 0 km/h
3048 18-04-2010 10:52:02 10.7 C 4.32 g/m*3 10.7 C 0 km/h
3049 18-04-2010 11:04:02 11.5 C 4.23 g/m*3 11.5 C 0 km/h
3050 18-04-2010 11:16:02 12.4 C 4.37 g/m*3 12.4 C 0 km/h
Sensor: Nr:Datum:Temp:Abs-Feuchte:Windchill:Wind:
Aussen-T/F 3051 18-04-2010 11:28:02 13.4 C 4.42 g/m*3 13.4 C 0 km/h
3052 18-04-2010 11:40:02 14 C 4.34 g/m*3 14 C 0 km/h
3053 18-04-2010 11:52:02 15 C 4.36 g/m*3 15 C 0 km/h
3054 18-04-2010 12:04:02 15.5 C 4.23 g/m*3 15.5 C 0 km/h
3055 18-04-2010 12:16:01 16.1 C 4.11 g/m*3 16.1 C 0 km/h
3056 18-04-2010 12:28:01 16.6 C 3.67 g/m*3 16.6 C 0 km/h
3057 18-04-2010 12:40:02 17 C 2.89 g/m*3 17 C 0 km/h
3058 18-04-2010 12:52:02 17.2 C 2.93 g/m*3 17.2 C 0 km/h
3059 18-04-2010 13:04:02 18 C 3.07 g/m*3 18 C 0 km/h
3060 18-04-2010 13:16:02 18.5 C 3.16 g/m*3 18.5 C 0 km/h
3061 18-04-2010 13:28:02 19.5 C 3.36 g/m*3 19.5 C 0 km/h
3062 18-04-2010 13:40:02 19.7 C 3.4 g/m*3 19.7 C 0 km/h
3063 18-04-2010 13:52:01 20.6 C 3.58 g/m*3 20.6 C 0 km/h
3064 18-04-2010 14:04:02 20.1 C 3.48 g/m*3 20.1 C 0 km/h
3065 18-04-2010 14:16:01 21 C 3.66 g/m*3 21 C 0 km/h
3066 18-04-2010 14:28:01 22.2 C 3.93 g/m*3 22.2 C 0 km/h
3067 18-04-2010 14:40:02 22 C 3.88 g/m*3 22 C 0 km/h
3068 18-04-2010 14:52:02 22.7 C 4.04 g/m*3 22.7 C 0 km/h
3069 18-04-2010 15:04:01 23.1 C 4.13 g/m*3 23.1 C 0 km/h
3070 18-04-2010 15:16:02 23.5 C 4.23 g/m*3 23.5 C 0 km/h
3071 18-04-2010 15:28:02 23.6 C 4.25 g/m*3 23.6 C 0 km/h
3072 18-04-2010 15:40:02 23.3 C 4.18 g/m*3 23.3 C 0 km/h
3073 18-04-2010 15:52:01 22.9 C 4.09 g/m*3 22.9 C 0 km/h
3074 18-04-2010 16:04:02 24 C 4.35 g/m*3 24 C 0 km/h
3075 18-04-2010 16:16:01 23.7 C 4.28 g/m*3 23.7 C 0 km/h
Sensor: Nr:Datum:Temp:Abs-Feuchte:Windchill:Wind:
Aussen-T/F 3076 18-04-2010 16:28:01 24.6 C 4.5 g/m*3 24.6 C 0 km/h
3077 18-04-2010 16:40:02 24.7 C 4.53 g/m*3 24.7 C 0 km/h
3078 18-04-2010 16:52:02 25.1 C 4.63 g/m*3 25.1 C 0 km/h
3079 18-04-2010 17:04:02 26 C 4.87 g/m*3 26 C 0 km/h
3080 18-04-2010 17:16:02 26.9 C 5.12 g/m*3 26.9 C 0 km/h
3081 18-04-2010 17:28:02 25.9 C 4.84 g/m*3 25.9 C 0 km/h
3082 18-04-2010 17:40:02 25.1 C 4.63 g/m*3 25.1 C 0 km/h
3083 18-04-2010 17:52:02 24.9 C 4.58 g/m*3 24.9 C 0 km/h
3084 18-04-2010 18:04:01 25.9 C 4.84 g/m*3 25.9 C 0 km/h
3085 18-04-2010 18:16:01 25.9 C 4.84 g/m*3 25.9 C 0 km/h
3086 18-04-2010 18:28:01 25 C 4.6 g/m*3 25 C 0 km/h
3087 18-04-2010 18:40:02 25.5 C 4.73 g/m*3 25.5 C 0 km/h
3088 18-04-2010 18:52:02 24.8 C 4.55 g/m*3 24.8 C 0 km/h
3089 18-04-2010 19:04:02 24.5 C 4.48 g/m*3 24.5 C 0 km/h
3090 18-04-2010 19:16:02 24.1 C 4.38 g/m*3 24.1 C 0 km/h
3091 18-04-2010 19:28:02 24.6 C 4.5 g/m*3 24.6 C 0 km/h
3092 18-04-2010 19:40:02 24.1 C 4.38 g/m*3 24.1 C 0 km/h
3093 18-04-2010 19:52:02 22.7 C 4.04 g/m*3 22.7 C 0 km/h
3094 18-04-2010 20:04:02 21.1 C 3.69 g/m*3 21.1 C 0 km/h
3095 18-04-2010 20:16:01 20 C 3.46 g/m*3 20 C 0 km/h
3096 18-04-2010 20:28:01 19.1 C 3.28 g/m*3 19.1 C 0 km/h
3097 18-04-2010 20:40:02 18.3 C 3.13 g/m*3 18.3 C 0 km/h
3098 18-04-2010 20:52:02 18.1 C 3.09 g/m*3 18.1 C 0 km/h
3099 18-04-2010 21:04:02 17.8 C 3.04 g/m*3 17.8 C 0 km/h
3100 18-04-2010 21:16:02 17.5 C 2.98 g/m*3 17.5 C 0 km/h
Sensor: Nr:Datum:Temp:Abs-Feuchte:Windchill:Wind:
Aussen-T/F 3101 18-04-2010 21:28:02 17.2 C 2.93 g/m*3 17.2 C 0 km/h
3102 18-04-2010 21:40:02 16.7 C 2.84 g/m*3 16.7 C 0 km/h
3103 18-04-2010 21:52:01 16.4 C 2.79 g/m*3 16.4 C 0 km/h
3104 18-04-2010 22:04:01 15.7 C 2.68 g/m*3 15.7 C 0 km/h
3105 18-04-2010 22:17:03 15.5 C 2.64 g/m*3 15.5 C 0 km/h
3106 18-04-2010 22:29:03 15 C 2.82 g/m*3 15 C 0 km/h
3107 18-04-2010 22:41:03 14.5 C 3.23 g/m*3 14.5 C 0 km/h
3108 18-04-2010 22:53:03 14.1 C 3.16 g/m*3 14.1 C 0 km/h
3109 18-04-2010 23:05:03 13.9 C 3.12 g/m*3 13.9 C 0 km/h
3110 18-04-2010 23:17:03 13.4 C 3.14 g/m*3 13.4 C 0 km/h
3111 18-04-2010 23:29:03 12.7 C 3.45 g/m*3 12.7 C 0 km/h
3112 18-04-2010 23:41:03 12.3 C 3.58 g/m*3 12.3 C 0 km/h
3113 18-04-2010 23:53:03 12.1 C 3.65 g/m*3 12.1 C 0 km/h
3114 19-04-2010 00:05:03 11.7 C 3.87 g/m*3 11.7 C 0 km/h
3115 19-04-2010 00:17:03 11.3 C 4.08 g/m*3 11.3 C 0 km/h
3116 19-04-2010 00:29:03 10.9 C 4.18 g/m*3 10.9 C 0 km/h
3117 19-04-2010 00:41:03 10.7 C 4.13 g/m*3 10.7 C 0 km/h
3118 19-04-2010 00:53:04 10.7 C 4.13 g/m*3 10.7 C 0 km/h
3119 19-04-2010 01:05:04 10.6 C 4 g/m*3 10.6 C 0 km/h
3120 19-04-2010 01:17:04 10.3 C 3.83 g/m*3 10.3 C 0 km/h
3121 19-04-2010 01:29:04 10.2 C 3.81 g/m*3 10.2 C 0 km/h
3122 19-04-2010 01:41:04 10.1 C 3.88 g/m*3 10.1 C 0 km/h
3123 19-04-2010 01:53:04 9.8 C 3.9 g/m*3 9.8 C 0 km/h
3124 19-04-2010 02:05:04 9.4 C 4.07 g/m*3 9.4 C 0 km/h
3125 19-04-2010 02:17:04 9 C 4.06 g/m*3 9 C 0 km/h
Sensor: Nr:Datum:Temp:Abs-Feuchte:Windchill:Wind:
Aussen-T/F 3126 19-04-2010 02:29:04 8.9 C 4.03 g/m*3 8.9 C 0 km/h
3127 19-04-2010 02:41:04 8.6 C 4.12 g/m*3 8.6 C 0 km/h
3128 19-04-2010 02:53:04 8.5 C 4.1 g/m*3 8.5 C 0 km/h
3129 19-04-2010 03:05:04 8.4 C 4.07 g/m*3 8.4 C 0 km/h
3130 19-04-2010 03:17:04 8 C 4.22 g/m*3 8 C 0 km/h
3131 19-04-2010 03:29:04 8 C 4.22 g/m*3 8 C 0 km/h
3132 19-04-2010 03:41:04 7.8 C 4.33 g/m*3 7.8 C 0 km/h
3133 19-04-2010 03:53:04 7.5 C 4.32 g/m*3 7.5 C 0 km/h
3134 19-04-2010 04:05:04 7.4 C 4.29 g/m*3 7.4 C 0 km/h
3135 19-04-2010 04:17:04 7.3 C 4.35 g/m*3 7.3 C 0 km/h
3136 19-04-2010 04:29:04 7 C 4.34 g/m*3 7 C 0 km/h
3137 19-04-2010 04:41:04 6.8 C 4.36 g/m*3 6.8 C 0 km/h
3138 19-04-2010 04:53:05 6.6 C 4.38 g/m*3 6.6 C 0 km/h
3139 19-04-2010 05:05:05 6.6 C 4.45 g/m*3 6.6 C 0 km/h
3140 19-04-2010 05:17:05 6.8 C 4.59 g/m*3 6.8 C 0 km/h
3141 19-04-2010 05:29:05 6.2 C 4.49 g/m*3 6.2 C 0 km/h
3142 19-04-2010 05:41:05 5.9 C 4.54 g/m*3 5.9 C 0 km/h
3143 19-04-2010 05:53:05 5.8 C 4.58 g/m*3 5.8 C 0 km/h
3144 19-04-2010 06:05:05 5.7 C 4.55 g/m*3 5.7 C 0 km/h
3145 19-04-2010 06:17:05 5.4 C 4.54 g/m*3 5.4 C 0 km/h
3146 19-04-2010 06:29:05 5.2 C 4.54 g/m*3 5.2 C 0 km/h
3147 19-04-2010 06:41:05 5.1 C 4.65 g/m*3 5.1 C 0 km/h
3148 19-04-2010 06:53:05 5 C 4.62 g/m*3 5 C 0 km/h
3149 19-04-2010 07:05:02 5 C 4.62 g/m*3 5 C 0 km/h
3150 19-04-2010 07:17:02 4.8 C 4.63 g/m*3 4.8 C 0 km/h
Sensor: Nr:Datum:Temp:Abs-Feuchte:Windchill:Wind:
Aussen-T/F 3151 19-04-2010 07:29:02 4.9 C 4.73 g/m*3 4.9 C 0 km/h
3152 19-04-2010 07:41:02 5.2 C 4.75 g/m*3 5.2 C 0 km/h
3153 19-04-2010 07:53:02 5.4 C 4.81 g/m*3 5.4 C 0 km/h
3154 19-04-2010 08:05:02 5.7 C 4.77 g/m*3 5.7 C 0 km/h
3155 19-04-2010 08:17:02 6 C 4.79 g/m*3 6 C 0 km/h
3156 19-04-2010 08:29:02 6.2 C 4.78 g/m*3 6.2 C 0 km/h
3157 19-04-2010 08:41:02 6.6 C 4.91 g/m*3 6.6 C 0 km/h
3158 19-04-2010 08:53:01 7.5 C 5.36 g/m*3 7.5 C 0 km/h
3159 19-04-2010 09:05:02 8.4 C 5.77 g/m*3 8.4 C 0 km/h
3160 19-04-2010 09:17:01 8.8 C 5.83 g/m*3 8.8 C 0 km/h
3161 19-04-2010 09:29:01 9.1 C 5.77 g/m*3 9.1 C 0 km/h
3162 19-04-2010 09:41:02 9.4 C 5.79 g/m*3 9.4 C 0 km/h
3163 19-04-2010 09:53:02 9.7 C 5.81 g/m*3 9.7 C 0 km/h
3164 19-04-2010 10:05:02 10.1 C 5.77 g/m*3 10.1 C 0 km/h
3165 19-04-2010 10:17:01 10.4 C 5.78 g/m*3 10.4 C 0 km/h
3166 19-04-2010 10:29:01 10.7 C 5.7 g/m*3 10.7 C 0 km/h
3167 19-04-2010 10:41:02 11.2 C 5.68 g/m*3 11.2 C 0 km/h
3168 19-04-2010 10:53:02 11.2 C 5.68 g/m*3 11.2 C 0 km/h
3169 19-04-2010 11:05:02 11.6 C 5.82 g/m*3 11.6 C 0 km/h
3170 19-04-2010 11:17:02 12.2 C 5.72 g/m*3 12.2 C 0 km/h
3171 19-04-2010 11:29:02 12.5 C 5.72 g/m*3 12.5 C 0 km/h
3172 19-04-2010 11:41:02 12.9 C 5.75 g/m*3 12.9 C 0 km/h
3173 19-04-2010 11:53:02 12.7 C 5.57 g/m*3 12.7 C 0 km/h
3174 19-04-2010 12:05:02 13 C 5.67 g/m*3 13 C 0 km/h
3175 19-04-2010 12:17:02 13.1 C 5.48 g/m*3 13.1 C 0 km/h
Sensor: Nr:Datum:Temp:Abs-Feuchte:Windchill:Wind:
Aussen-T/F 3176 19-04-2010 12:29:02 13.6 C 5.65 g/m*3 13.6 C 0 km/h
3177 19-04-2010 12:41:02 13.6 C 5.65 g/m*3 13.6 C 0 km/h
3178 19-04-2010 12:53:01 13.8 C 5.6 g/m*3 13.8 C 0 km/h
3179 19-04-2010 13:05:02 13.6 C 5.53 g/m*3 13.6 C 0 km/h
3180 19-04-2010 13:17:01 13.9 C 5.63 g/m*3 13.9 C 0 km/h
3181 19-04-2010 13:29:01 14 C 5.55 g/m*3 14 C 0 km/h
3182 19-04-2010 13:41:01 14.3 C 5.41 g/m*3 14.3 C 0 km/h
3183 19-04-2010 13:53:01 14.2 C 5.37 g/m*3 14.2 C 0 km/h
3184 19-04-2010 14:05:02 14.8 C 5.57 g/m*3 14.8 C 0 km/h
3185 19-04-2010 14:17:01 14.8 C 5.19 g/m*3 14.8 C 0 km/h
3186 19-04-2010 14:29:01 15.6 C 5.45 g/m*3 15.6 C 0 km/h
3187 19-04-2010 14:41:02 16.6 C 5.51 g/m*3 16.6 C 0 km/h
3188 19-04-2010 14:53:02 16.2 C 5.24 g/m*3 16.2 C 0 km/h
3189 19-04-2010 15:05:02 15.3 C 5.22 g/m*3 15.3 C 0 km/h
3190 19-04-2010 15:17:01 15.2 C 5.19 g/m*3 15.2 C 0 km/h
3191 19-04-2010 15:29:01 15.9 C 5.28 g/m*3 15.9 C 0 km/h
3192 19-04-2010 15:41:02 16.5 C 5.2 g/m*3 16.5 C 0 km/h
3193 19-04-2010 15:53:02 16 C 5.04 g/m*3 16 C 0 km/h
3194 19-04-2010 16:05:02 15.8 C 5.25 g/m*3 15.8 C 0 km/h
3195 19-04-2010 16:17:01 15.6 C 5.19 g/m*3 15.6 C 0 km/h
3196 19-04-2010 16:29:01 16.5 C 5.34 g/m*3 16.5 C 0 km/h
3197 19-04-2010 16:41:02 16.2 C 5.1 g/m*3 16.2 C 0 km/h
3198 19-04-2010 16:53:02 16.9 C 5.18 g/m*3 16.9 C 0 km/h
3199 19-04-2010 17:05:02 16.4 C 5.02 g/m*3 16.4 C 0 km/h
3200 19-04-2010 17:17:01 16.3 C 5.13 g/m*3 16.3 C 0 km/h
Sensor: Nr:Datum:Temp:Abs-Feuchte:Windchill:Wind:
Aussen-T/F 3201 19-04-2010 17:29:01 16.9 C 5.32 g/m*3 16.9 C 0 km/h
3202 19-04-2010 17:41:02 16.9 C 5.18 g/m*3 16.9 C 0 km/h
3203 19-04-2010 17:53:02 16.7 C 5.12 g/m*3 16.7 C 0 km/h
3204 19-04-2010 18:05:02 16.4 C 5.02 g/m*3 16.4 C 0 km/h
3205 19-04-2010 18:17:02 16.5 C 4.77 g/m*3 16.5 C 0 km/h
3206 19-04-2010 18:29:02 16.1 C 4.8 g/m*3 16.1 C 0 km/h
3207 19-04-2010 18:41:02 16.1 C 4.93 g/m*3 16.1 C 0 km/h
3208 19-04-2010 18:53:02 16.2 C 4.83 g/m*3 16.2 C 0 km/h
3209 19-04-2010 19:05:02 16.4 C 5.02 g/m*3 16.4 C 0 km/h
3210 19-04-2010 19:17:02 15.3 C 4.96 g/m*3 15.3 C 0 km/h
3211 19-04-2010 19:29:02 15 C 5.13 g/m*3 15 C 0 km/h
3212 19-04-2010 19:41:02 14.8 C 5.19 g/m*3 14.8 C 0 km/h
3213 19-04-2010 19:53:01 14.3 C 5.16 g/m*3 14.3 C 0 km/h
3214 19-04-2010 20:05:02 13.9 C 5.39 g/m*3 13.9 C 0 km/h
3215 19-04-2010 20:17:02 13.3 C 5.31 g/m*3 13.3 C 0 km/h
3216 19-04-2010 20:29:02 13 C 5.33 g/m*3 13 C 0 km/h
3217 19-04-2010 20:41:02 12.6 C 5.42 g/m*3 12.6 C 0 km/h
3218 19-04-2010 20:53:02 12.3 C 5.43 g/m*3 12.3 C 0 km/h
3219 19-04-2010 21:05:02 12.1 C 5.36 g/m*3 12.1 C 0 km/h
3220 19-04-2010 21:17:02 11.8 C 5.47 g/m*3 11.8 C 0 km/h
3221 19-04-2010 21:29:02 11.7 C 5.54 g/m*3 11.7 C 0 km/h
3222 19-04-2010 21:41:01 11.4 C 5.44 g/m*3 11.4 C 0 km/h
3223 19-04-2010 21:53:02 11.4 C 5.54 g/m*3 11.4 C 0 km/h
3224 19-04-2010 22:06:03 11 C 5.51 g/m*3 11 C 0 km/h
3225 19-04-2010 22:18:03 10.9 C 5.67 g/m*3 10.9 C 0 km/h
Sensor: Nr:Datum:Temp:Abs-Feuchte:Windchill:Wind:
Aussen-T/F 3226 19-04-2010 22:30:03 10.5 C 5.63 g/m*3 10.5 C 0 km/h
3227 19-04-2010 22:42:03 10.4 C 5.59 g/m*3 10.4 C 0 km/h
3228 19-04-2010 22:54:03 10.3 C 5.65 g/m*3 10.3 C 0 km/h
3229 19-04-2010 23:06:03 10.3 C 5.65 g/m*3 10.3 C 0 km/h
3230 19-04-2010 23:18:03 10.1 C 5.58 g/m*3 10.1 C 0 km/h
3231 19-04-2010 23:30:03 9.7 C 5.62 g/m*3 9.7 C 0 km/h
3232 19-04-2010 23:42:03 9.4 C 5.61 g/m*3 9.4 C 0 km/h
3233 19-04-2010 23:54:03 9.2 C 5.54 g/m*3 9.2 C 0 km/h
3234 20-04-2010 00:06:03 9 C 5.47 g/m*3 9 C 0 km/h
3235 20-04-2010 00:18:03 8.9 C 5.52 g/m*3 8.9 C 0 km/h
3236 20-04-2010 00:30:03 8.6 C 5.41 g/m*3 8.6 C 0 km/h
3237 20-04-2010 00:42:03 8.4 C 5.43 g/m*3 8.4 C 0 km/h
3238 20-04-2010 00:54:03 8.3 C 5.48 g/m*3 8.3 C 0 km/h
3239 20-04-2010 01:06:03 8.2 C 5.36 g/m*3 8.2 C 0 km/h
3240 20-04-2010 01:18:04 8 C 5.37 g/m*3 8 C 0 km/h
3241 20-04-2010 01:30:04 7.8 C 5.39 g/m*3